Darstellungsparameter: Aktuell verwendete Einstellungen:
Skalierung der Graphiken ... ?
xyx+y,   Skalierungsfaktor:      Skalierung: Modus: x, Faktor: 1
Darstellungszeitraum ... ?
Vom - - bis: - -   Zeitraum: 17.05.2003 - 15.11.2003
Min/Max/Avg-Anzeige ... ?
Zeige MMA aktuell
Zeige MMA Monat
Zeige MMA alles
Zeige --A aktuell
Zeige --A Monat
Zeige --A alles
Keine MMA-Anzeige
MMA:
Keine MMA-Graphiken
MMA-Basis: 17.05.2003 - 15.11.2003
Quicknavigation für Darstellung... ?
Tage:      1T, 2T, 3T, 5T -1T -2T -3T -5T +1T +2T +3T +5T
Wochen: 1W, 2W, 3W -1W -2W -3W +1W +2W +3W
Monate: 1M, 3M, 6M -1M -3M -6M +1M +3M +6M
Jahre:    1J, 3J, 5J, 10J -1J -3J -5J -10J +1J +3J +5J +10J
Nutze für die Darstellung ... ?
Originaldaten oder Mittelwerte auf ...
Stundenbasis Tagesbasis Wochenbasis
Monatsbasis Jahresbasis      Datenbasis: Original-Daten
Darstellen als:
Statistik (Auto) Statistik J:M      Darstellung:
Zur Graphik,    zurück zur Übersicht aller Sensoren.
 
Tabellarische Datenbersicht: ?
 
Sensor: Nr:Datum:Temp:Abs-Feuchte:Windchill:Wind:
Aussen-T/F 1 17-05-2003 00:02:01 13.5 C 5.38 g/m*3 13.5 C 0 km/h
2 17-05-2003 00:12:01 13.6 C 5.3 g/m*3 13.6 C 0 km/h
3 17-05-2003 00:22:01 13.7 C 5.33 g/m*3 13.7 C 0 km/h
4 17-05-2003 00:32:01 13.9 C 5.27 g/m*3 13.9 C 0 km/h
5 17-05-2003 00:42:01 14 C 5.07 g/m*3 14 C 0 km/h
6 17-05-2003 00:52:01 14.1 C 5.1 g/m*3 14.1 C 0 km/h
7 17-05-2003 01:02:01 14.1 C 5.22 g/m*3 14.1 C 0 km/h
8 17-05-2003 01:12:01 14.1 C 5.1 g/m*3 14.1 C 0 km/h
9 17-05-2003 01:22:01 14.1 C 5.22 g/m*3 14.1 C 0 km/h
10 17-05-2003 01:32:01 13.8 C 5.24 g/m*3 13.8 C 0 km/h
11 17-05-2003 01:42:01 13.7 C 5.21 g/m*3 13.7 C 0 km/h
12 17-05-2003 01:52:01 13.5 C 5.26 g/m*3 13.5 C 0 km/h
13 17-05-2003 02:02:01 13.2 C 5.28 g/m*3 13.2 C 0 km/h
14 17-05-2003 02:12:01 12.9 C 5.52 g/m*3 12.9 C 0 km/h
15 17-05-2003 02:22:01 12.7 C 5.57 g/m*3 12.7 C 0 km/h
16 17-05-2003 02:32:01 12.5 C 5.5 g/m*3 12.5 C 0 km/h
17 17-05-2003 02:42:01 12.4 C 5.57 g/m*3 12.4 C 0 km/h
18 17-05-2003 02:52:01 12.3 C 5.54 g/m*3 12.3 C 0 km/h
19 17-05-2003 03:02:01 12.3 C 5.65 g/m*3 12.3 C 0 km/h
20 17-05-2003 03:12:01 12.1 C 5.58 g/m*3 12.1 C 0 km/h
21 17-05-2003 03:22:01 12.2 C 5.72 g/m*3 12.2 C 0 km/h
22 17-05-2003 03:32:01 12.1 C 5.68 g/m*3 12.1 C 0 km/h
23 17-05-2003 03:42:01 12.1 C 5.68 g/m*3 12.1 C 0 km/h
24 17-05-2003 03:52:01 12 C 5.65 g/m*3 12 C 0 km/h
25 17-05-2003 04:02:01 11.9 C 5.82 g/m*3 11.9 C 0 km/h
Sensor: Nr:Datum:Temp:Abs-Feuchte:Windchill:Wind:
Aussen-T/F 26 17-05-2003 04:12:01 11.8 C 5.89 g/m*3 11.8 C 0 km/h
27 17-05-2003 04:22:01 11.8 C 6 g/m*3 11.8 C 0 km/h
28 17-05-2003 04:32:01 11.8 C 6 g/m*3 11.8 C 0 km/h
29 17-05-2003 04:42:01 11.7 C 5.96 g/m*3 11.7 C 0 km/h
30 17-05-2003 04:52:01 11.7 C 6.07 g/m*3 11.7 C 0 km/h
31 17-05-2003 05:02:01 11.5 C 5.99 g/m*3 11.5 C 0 km/h
32 17-05-2003 05:12:01 11.4 C 6.06 g/m*3 11.4 C 0 km/h
33 17-05-2003 05:22:01 11.5 C 6.09 g/m*3 11.5 C 0 km/h
34 17-05-2003 05:32:01 11.4 C 5.95 g/m*3 11.4 C 0 km/h
35 17-05-2003 05:42:01 11.4 C 6.06 g/m*3 11.4 C 0 km/h
36 17-05-2003 05:52:01 11.5 C 6.2 g/m*3 11.5 C 0 km/h
37 17-05-2003 06:02:01 11.5 C 6.4 g/m*3 11.5 C 0 km/h
38 17-05-2003 06:12:01 11.5 C 6.3 g/m*3 11.5 C 0 km/h
39 17-05-2003 06:22:01 11.8 C 6.42 g/m*3 11.8 C 0 km/h
40 17-05-2003 06:32:01 11.8 C 6.63 g/m*3 11.8 C 0 km/h
41 17-05-2003 06:42:01 11.8 C 6.63 g/m*3 11.8 C 0 km/h
42 17-05-2003 06:52:01 11.8 C 6.63 g/m*3 11.8 C 0 km/h
43 17-05-2003 07:02:01 11.9 C 6.67 g/m*3 11.9 C 0 km/h
44 17-05-2003 07:12:01 11.7 C 6.9 g/m*3 11.7 C 0 km/h
45 17-05-2003 07:22:01 11.5 C 7.02 g/m*3 11.5 C 0 km/h
46 17-05-2003 07:32:01 11.5 C 7.13 g/m*3 11.5 C 0 km/h
47 17-05-2003 07:42:01 11.5 C 7.23 g/m*3 11.5 C 0 km/h
48 17-05-2003 08:02:01 11.3 C 7.55 g/m*3 11.3 C 0 km/h
49 17-05-2003 08:12:01 11.2 C 7.4 g/m*3 11.2 C 0 km/h
50 17-05-2003 08:22:01 11.3 C 7.34 g/m*3 11.3 C 0 km/h
Sensor: Nr:Datum:Temp:Abs-Feuchte:Windchill:Wind:
Aussen-T/F 51 17-05-2003 08:32:01 11.2 C 7.4 g/m*3 11.2 C 0 km/h
52 17-05-2003 08:42:01 11.1 C 7.55 g/m*3 11.1 C 0 km/h
53 17-05-2003 08:52:01 11.1 C 7.76 g/m*3 11.1 C 0 km/h
54 17-05-2003 09:02:01 11.1 C 7.86 g/m*3 11.1 C 0 km/h
55 17-05-2003 09:12:01 11.2 C 7.91 g/m*3 11.2 C 0 km/h
56 17-05-2003 09:22:01 11.3 C 8.26 g/m*3 11.3 C 0 km/h
57 17-05-2003 09:32:03 11.3 C 8.26 g/m*3 11.3 C 0 km/h
58 17-05-2003 09:42:03 11.6 C 8.63 g/m*3 11.6 C 0 km/h
59 17-05-2003 09:52:03 12 C 8.74 g/m*3 12 C 0 km/h
60 17-05-2003 10:02:02 12.2 C 8.63 g/m*3 12.2 C 0 km/h
61 17-05-2003 10:12:02 12.1 C 8.47 g/m*3 12.1 C 0 km/h
62 17-05-2003 10:22:02 12.1 C 8.58 g/m*3 12.1 C 0 km/h
63 17-05-2003 10:32:02 12.4 C 8.96 g/m*3 12.4 C 0 km/h
64 17-05-2003 10:42:02 12.4 C 8.63 g/m*3 12.4 C 0 km/h
65 17-05-2003 10:52:02 12.6 C 8.74 g/m*3 12.6 C 0 km/h
66 17-05-2003 11:02:02 13.1 C 8.79 g/m*3 13.1 C 0 km/h
67 17-05-2003 11:12:02 13.4 C 9.07 g/m*3 13.4 C 0 km/h
68 17-05-2003 11:22:02 14.2 C 9.04 g/m*3 14.2 C 0 km/h
69 17-05-2003 11:32:00 14 C 9.17 g/m*3 14 C 0 km/h
70 17-05-2003 11:42:00 14 C 9.17 g/m*3 14 C 0 km/h
71 17-05-2003 11:52:00 14.4 C 9.27 g/m*3 14.4 C 0 km/h
72 17-05-2003 12:02:02 14.5 C 9.45 g/m*3 14.5 C 0 km/h
73 17-05-2003 12:12:02 14 C 9.05 g/m*3 14 C 0 km/h
74 17-05-2003 12:22:02 13.7 C 9 g/m*3 13.7 C 0 km/h
75 17-05-2003 12:32:01 14 C 8.93 g/m*3 14 C 0 km/h
Sensor: Nr:Datum:Temp:Abs-Feuchte:Windchill:Wind:
Aussen-T/F 76 17-05-2003 12:42:01 14.2 C 8.91 g/m*3 14.2 C 0 km/h
77 17-05-2003 12:52:01 14.4 C 8.78 g/m*3 14.4 C 0 km/h
78 17-05-2003 13:02:01 14.2 C 8.79 g/m*3 14.2 C 0 km/h
79 17-05-2003 13:12:01 14.6 C 8.88 g/m*3 14.6 C 0 km/h
80 17-05-2003 13:22:01 14.5 C 8.71 g/m*3 14.5 C 0 km/h
81 17-05-2003 13:32:00 14.7 C 8.94 g/m*3 14.7 C 0 km/h
82 17-05-2003 13:42:00 15.1 C 8.77 g/m*3 15.1 C 0 km/h
83 17-05-2003 13:52:00 15 C 8.59 g/m*3 15 C 0 km/h
84 17-05-2003 14:02:00 15.3 C 8.62 g/m*3 15.3 C 0 km/h
85 17-05-2003 14:12:00 15.6 C 8.64 g/m*3 15.6 C 0 km/h
86 17-05-2003 14:22:00 16.1 C 8.5 g/m*3 16.1 C 0 km/h
87 17-05-2003 14:32:01 15.8 C 8.35 g/m*3 15.8 C 0 km/h
88 17-05-2003 14:42:01 16.6 C 8.62 g/m*3 16.6 C 0 km/h
89 17-05-2003 14:52:01 16.4 C 8.23 g/m*3 16.4 C 0 km/h
90 17-05-2003 15:02:01 16 C 8.17 g/m*3 16 C 0 km/h
91 17-05-2003 15:12:01 15.9 C 8.4 g/m*3 15.9 C 0 km/h
92 17-05-2003 15:22:01 16.6 C 8.33 g/m*3 16.6 C 0 km/h
93 17-05-2003 15:32:00 16.8 C 8.44 g/m*3 16.8 C 0 km/h
94 17-05-2003 15:42:00 16.8 C 8.29 g/m*3 16.8 C 0 km/h
95 17-05-2003 15:52:00 16.8 C 8.44 g/m*3 16.8 C 0 km/h
96 17-05-2003 16:02:00 16.7 C 8.24 g/m*3 16.7 C 0 km/h
97 17-05-2003 16:12:00 17 C 8.25 g/m*3 17 C 0 km/h
98 17-05-2003 16:22:00 17.4 C 8.45 g/m*3 17.4 C 0 km/h
99 17-05-2003 16:32:00 18.3 C 8.13 g/m*3 18.3 C 0 km/h
100 17-05-2003 16:42:00 17.4 C 7.85 g/m*3 17.4 C 0 km/h
Sensor: Nr:Datum:Temp:Abs-Feuchte:Windchill:Wind:
Aussen-T/F 101 17-05-2003 16:52:00 17.3 C 8.25 g/m*3 17.3 C 0 km/h
102 17-05-2003 17:02:00 17.2 C 8.2 g/m*3 17.2 C 0 km/h
103 17-05-2003 17:12:00 16.9 C 8.34 g/m*3 16.9 C 0 km/h
104 17-05-2003 17:22:02 17.5 C 8.5 g/m*3 17.5 C 0 km/h
105 17-05-2003 17:32:02 19 C 8.31 g/m*3 19 C 0 km/h
106 17-05-2003 17:42:02 19.1 C 8.03 g/m*3 19.1 C 0 km/h
107 17-05-2003 17:52:02 19.4 C 8.18 g/m*3 19.4 C 0 km/h
108 17-05-2003 18:02:02 19.6 C 8.1 g/m*3 19.6 C 0 km/h
109 17-05-2003 18:12:02 19.9 C 8.08 g/m*3 19.9 C 0 km/h
110 17-05-2003 18:22:02 19.3 C 7.96 g/m*3 19.3 C 0 km/h
111 17-05-2003 18:32:01 19.1 C 8.2 g/m*3 19.1 C 0 km/h
112 17-05-2003 18:42:01 18.7 C 8.01 g/m*3 18.7 C 0 km/h
113 17-05-2003 18:52:01 18.1 C 7.88 g/m*3 18.1 C 0 km/h
114 17-05-2003 19:02:01 17.9 C 8.09 g/m*3 17.9 C 0 km/h
115 17-05-2003 19:12:01 17.7 C 8.15 g/m*3 17.7 C 0 km/h
116 17-05-2003 19:22:01 18 C 7.99 g/m*3 18 C 0 km/h
117 17-05-2003 19:32:01 18.2 C 7.46 g/m*3 18.2 C 0 km/h
118 17-05-2003 19:42:01 18.4 C 7.55 g/m*3 18.4 C 0 km/h
119 17-05-2003 19:52:01 18 C 7.53 g/m*3 18 C 0 km/h
120 17-05-2003 20:02:01 18.3 C 7.66 g/m*3 18.3 C 0 km/h
121 17-05-2003 20:12:01 18.5 C 7.75 g/m*3 18.5 C 0 km/h
122 17-05-2003 20:22:01 18.1 C 7.88 g/m*3 18.1 C 0 km/h
123 17-05-2003 20:32:01 17.5 C 8.05 g/m*3 17.5 C 0 km/h
124 17-05-2003 20:42:01 17.3 C 8.25 g/m*3 17.3 C 0 km/h
125 17-05-2003 20:52:01 17 C 8.25 g/m*3 17 C 0 km/h
Sensor: Nr:Datum:Temp:Abs-Feuchte:Windchill:Wind:
Aussen-T/F 126 17-05-2003 21:02:01 16.8 C 8.29 g/m*3 16.8 C 0 km/h
127 17-05-2003 21:12:01 16.5 C 8.14 g/m*3 16.5 C 0 km/h
128 17-05-2003 21:22:01 16.5 C 8.43 g/m*3 16.5 C 0 km/h
129 17-05-2003 21:32:01 16.1 C 8.36 g/m*3 16.1 C 0 km/h
130 17-05-2003 21:42:01 15.6 C 8.51 g/m*3 15.6 C 0 km/h
131 17-05-2003 21:52:01 15.2 C 8.57 g/m*3 15.2 C 0 km/h
132 17-05-2003 22:02:02 14.8 C 8.61 g/m*3 14.8 C 0 km/h
133 17-05-2003 22:12:02 14.5 C 8.71 g/m*3 14.5 C 0 km/h
134 17-05-2003 22:22:02 14.3 C 8.72 g/m*3 14.3 C 0 km/h
135 17-05-2003 22:32:01 14.2 C 8.79 g/m*3 14.2 C 0 km/h
136 17-05-2003 22:42:01 14.2 C 8.91 g/m*3 14.2 C 0 km/h
137 17-05-2003 22:52:01 14.1 C 8.98 g/m*3 14.1 C 0 km/h
138 17-05-2003 23:02:01 14 C 8.93 g/m*3 14 C 0 km/h
139 17-05-2003 23:12:01 13.9 C 9.11 g/m*3 13.9 C 0 km/h
140 17-05-2003 23:22:01 14 C 9.05 g/m*3 14 C 0 km/h
141 17-05-2003 23:33:01 14 C 9.05 g/m*3 14 C 0 km/h
142 17-05-2003 23:43:01 14.2 C 9.04 g/m*3 14.2 C 0 km/h
143 17-05-2003 23:53:01 14.4 C 9.15 g/m*3 14.4 C 0 km/h
144 18-05-2003 00:03:01 14.5 C 9.2 g/m*3 14.5 C 0 km/h
145 18-05-2003 00:13:01 13.8 C 9.65 g/m*3 13.8 C 0 km/h
146 18-05-2003 00:23:01 13.6 C 9.65 g/m*3 13.6 C 0 km/h
147 18-05-2003 00:33:01 13.5 C 9.59 g/m*3 13.5 C 0 km/h
148 18-05-2003 00:43:01 13.5 C 9.59 g/m*3 13.5 C 0 km/h
149 18-05-2003 00:53:01 13.4 C 9.65 g/m*3 13.4 C 0 km/h
150 18-05-2003 01:03:01 13.4 C 9.65 g/m*3 13.4 C 0 km/h
Sensor: Nr:Datum:Temp:Abs-Feuchte:Windchill:Wind:
Aussen-T/F 151 18-05-2003 01:13:01 13.4 C 9.76 g/m*3 13.4 C 0 km/h
152 18-05-2003 01:23:01 13.4 C 9.76 g/m*3 13.4 C 0 km/h
153 18-05-2003 01:33:01 13.4 C 9.76 g/m*3 13.4 C 0 km/h
154 18-05-2003 01:43:01 13.4 C 9.65 g/m*3 13.4 C 0 km/h
155 18-05-2003 01:53:01 13.4 C 9.65 g/m*3 13.4 C 0 km/h
156 18-05-2003 02:03:01 13.2 C 9.76 g/m*3 13.2 C 0 km/h
157 18-05-2003 02:13:01 13 C 9.75 g/m*3 13 C 0 km/h
158 18-05-2003 02:23:01 12.9 C 9.81 g/m*3 12.9 C 0 km/h
159 18-05-2003 02:33:01 13 C 9.75 g/m*3 13 C 0 km/h
160 18-05-2003 02:43:01 13 C 9.75 g/m*3 13 C 0 km/h
161 18-05-2003 02:53:01 13 C 9.64 g/m*3 13 C 0 km/h
162 18-05-2003 03:03:01 13.2 C 9.64 g/m*3 13.2 C 0 km/h
163 18-05-2003 03:13:01 13.5 C 9.47 g/m*3 13.5 C 0 km/h
164 18-05-2003 03:23:01 13.5 C 9.47 g/m*3 13.5 C 0 km/h
165 18-05-2003 03:33:01 13.6 C 9.42 g/m*3 13.6 C 0 km/h
166 18-05-2003 03:43:01 13.7 C 9.35 g/m*3 13.7 C 0 km/h
167 18-05-2003 03:53:01 13.7 C 9.47 g/m*3 13.7 C 0 km/h
168 18-05-2003 04:03:01 13.8 C 9.41 g/m*3 13.8 C 0 km/h
169 18-05-2003 04:13:01 13.8 C 9.29 g/m*3 13.8 C 0 km/h
170 18-05-2003 04:23:01 13.8 C 9.29 g/m*3 13.8 C 0 km/h
171 18-05-2003 04:33:01 14 C 9.41 g/m*3 14 C 0 km/h
172 18-05-2003 04:43:01 14 C 9.29 g/m*3 14 C 0 km/h
173 18-05-2003 04:53:01 13.7 C 9.35 g/m*3 13.7 C 0 km/h
174 18-05-2003 05:03:01 13.5 C 9.36 g/m*3 13.5 C 0 km/h
175 18-05-2003 05:13:01 13.1 C 9.47 g/m*3 13.1 C 0 km/h
Sensor: Nr:Datum:Temp:Abs-Feuchte:Windchill:Wind:
Aussen-T/F 176 18-05-2003 05:23:01 13.1 C 9.59 g/m*3 13.1 C 0 km/h
177 18-05-2003 05:33:01 13.1 C 9.59 g/m*3 13.1 C 0 km/h
178 18-05-2003 05:43:01 13.2 C 9.64 g/m*3 13.2 C 0 km/h
179 18-05-2003 05:53:01 13.2 C 9.64 g/m*3 13.2 C 0 km/h
180 18-05-2003 06:03:01 13.1 C 9.59 g/m*3 13.1 C 0 km/h
181 18-05-2003 06:13:01 13.3 C 9.7 g/m*3 13.3 C 0 km/h
182 18-05-2003 06:23:01 13.3 C 9.59 g/m*3 13.3 C 0 km/h
183 18-05-2003 06:33:01 13.4 C 9.65 g/m*3 13.4 C 0 km/h
184 18-05-2003 06:43:01 13.6 C 9.77 g/m*3 13.6 C 0 km/h
185 18-05-2003 06:53:01 13.7 C 9.71 g/m*3 13.7 C 0 km/h
186 18-05-2003 07:03:01 13.8 C 9.77 g/m*3 13.8 C 0 km/h
187 18-05-2003 07:13:01 14.1 C 9.83 g/m*3 14.1 C 0 km/h
188 18-05-2003 07:23:01 14.2 C 9.77 g/m*3 14.2 C 0 km/h
189 18-05-2003 07:33:01 14.4 C 9.77 g/m*3 14.4 C 0 km/h
190 18-05-2003 07:43:01 14.5 C 9.7 g/m*3 14.5 C 0 km/h
191 18-05-2003 07:53:01 14.5 C 9.7 g/m*3 14.5 C 0 km/h
192 18-05-2003 08:03:01 14.5 C 9.58 g/m*3 14.5 C 0 km/h
193 18-05-2003 08:13:01 14.8 C 9.63 g/m*3 14.8 C 0 km/h
194 18-05-2003 08:23:01 15 C 9.49 g/m*3 15 C 0 km/h
195 18-05-2003 08:33:01 15.4 C 9.59 g/m*3 15.4 C 0 km/h
196 18-05-2003 08:43:01 15.4 C 9.46 g/m*3 15.4 C 0 km/h
197 18-05-2003 08:53:01 15.6 C 9.58 g/m*3 15.6 C 0 km/h
198 18-05-2003 09:03:01 15.7 C 9.63 g/m*3 15.7 C 0 km/h
199 18-05-2003 09:13:01 16 C 9.4 g/m*3 16 C 0 km/h
200 18-05-2003 09:23:01 16.2 C 9.38 g/m*3 16.2 C 0 km/h
Sensor: Nr:Datum:Temp:Abs-Feuchte:Windchill:Wind:
Aussen-T/F 201 18-05-2003 09:33:01 16.7 C 9.38 g/m*3 16.7 C 0 km/h
202 18-05-2003 09:43:01 16.7 C 9.24 g/m*3 16.7 C 0 km/h
203 18-05-2003 09:53:01 16.9 C 8.92 g/m*3 16.9 C 0 km/h
204 18-05-2003 10:03:01 17.6 C 9.15 g/m*3 17.6 C 0 km/h
205 18-05-2003 10:13:01 17.2 C 8.64 g/m*3 17.2 C 0 km/h
206 18-05-2003 10:23:01 17.6 C 8.85 g/m*3 17.6 C 0 km/h
207 18-05-2003 10:33:01 17.5 C 8.5 g/m*3 17.5 C 0 km/h
208 18-05-2003 10:43:01 17.7 C 8.6 g/m*3 17.7 C 0 km/h
209 18-05-2003 10:53:01 17.9 C 8.7 g/m*3 17.9 C 0 km/h
210 18-05-2003 11:03:02 18.1 C 8.34 g/m*3 18.1 C 0 km/h
211 18-05-2003 11:13:02 17.9 C 8.55 g/m*3 17.9 C 0 km/h
212 18-05-2003 11:23:02 17.6 C 8.55 g/m*3 17.6 C 0 km/h
213 18-05-2003 11:33:01 17.3 C 8.69 g/m*3 17.3 C 0 km/h
214 18-05-2003 11:43:01 17.7 C 8.9 g/m*3 17.7 C 0 km/h
215 18-05-2003 11:53:01 17.6 C 8.85 g/m*3 17.6 C 0 km/h
216 18-05-2003 12:03:00 17.5 C 8.5 g/m*3 17.5 C 0 km/h
217 18-05-2003 12:13:00 17.7 C 8.3 g/m*3 17.7 C 0 km/h
218 18-05-2003 12:23:00 17.9 C 7.94 g/m*3 17.9 C 0 km/h
219 18-05-2003 12:33:01 18.2 C 7.46 g/m*3 18.2 C 0 km/h
220 18-05-2003 12:43:01 19.2 C 7.59 g/m*3 19.2 C 0 km/h
221 18-05-2003 12:53:01 19.7 C 7.64 g/m*3 19.7 C 0 km/h
222 18-05-2003 13:03:00 20.2 C 7.34 g/m*3 20.2 C 0 km/h
223 18-05-2003 13:13:00 20.5 C 7.12 g/m*3 20.5 C 0 km/h
224 18-05-2003 13:23:00 21.2 C 6.86 g/m*3 21.2 C 0 km/h
225 18-05-2003 13:33:03 20.4 C 7.25 g/m*3 20.4 C 0 km/h
Sensor: Nr:Datum:Temp:Abs-Feuchte:Windchill:Wind:
Aussen-T/F 226 18-05-2003 13:43:03 19.7 C 7.47 g/m*3 19.7 C 0 km/h
227 18-05-2003 13:53:03 19.4 C 7.67 g/m*3 19.4 C 0 km/h
228 18-05-2003 14:03:03 19.2 C 7.75 g/m*3 19.2 C 0 km/h
229 18-05-2003 14:13:03 19.5 C 7.38 g/m*3 19.5 C 0 km/h
230 18-05-2003 14:23:03 19.9 C 7.56 g/m*3 19.9 C 0 km/h
231 18-05-2003 14:33:02 19.8 C 7.34 g/m*3 19.8 C 0 km/h
232 18-05-2003 14:43:02 20.6 C 7.34 g/m*3 20.6 C 0 km/h
233 18-05-2003 14:53:02 20.9 C 7.47 g/m*3 20.9 C 0 km/h
234 18-05-2003 15:03:01 21 C 7.33 g/m*3 21 C 0 km/h
235 18-05-2003 15:13:01 20.8 C 7.79 g/m*3 20.8 C 0 km/h
236 18-05-2003 15:23:01 20.5 C 7.65 g/m*3 20.5 C 0 km/h
237 18-05-2003 15:33:03 20.6 C 7.52 g/m*3 20.6 C 0 km/h
238 18-05-2003 15:43:03 21 C 7.33 g/m*3 21 C 0 km/h
239 18-05-2003 15:53:03 20.4 C 7.25 g/m*3 20.4 C 0 km/h
240 18-05-2003 16:03:02 21.3 C 7.46 g/m*3 21.3 C 0 km/h
241 18-05-2003 16:03:08 21.3 C 7.46 g/m*3 21.3 C 0 km/h
242 18-05-2003 16:13:02 21.2 C 7.6 g/m*3 21.2 C 0 km/h
243 18-05-2003 16:23:02 21.4 C 7.69 g/m*3 21.4 C 0 km/h
244 18-05-2003 16:33:02 21.2 C 7.97 g/m*3 21.2 C 0 km/h
245 18-05-2003 16:43:02 19.7 C 7.81 g/m*3 19.7 C 0 km/h
246 18-05-2003 16:53:01 20.2 C 8.04 g/m*3 20.2 C 0 km/h
247 18-05-2003 16:53:02 20.2 C 8.04 g/m*3 20.2 C 0 km/h
248 18-05-2003 17:03:01 20.4 C 8.14 g/m*3 20.4 C 0 km/h
249 18-05-2003 17:13:01 20.2 C 7.87 g/m*3 20.2 C 0 km/h
250 18-05-2003 17:23:01 20 C 7.95 g/m*3 20 C 0 km/h
Sensor: Nr:Datum:Temp:Abs-Feuchte:Windchill:Wind:
Aussen-T/F 251 18-05-2003 17:33:02 19.7 C 7.98 g/m*3 19.7 C 0 km/h
252 18-05-2003 17:43:02 19.5 C 8.39 g/m*3 19.5 C 0 km/h
253 18-05-2003 17:53:02 19.2 C 8.08 g/m*3 19.2 C 0 km/h
254 18-05-2003 18:03:25 18.7 C 8.01 g/m*3 18.7 C 0 km/h
255 18-05-2003 18:13:25 18.4 C 8.97 g/m*3 18.4 C 0 km/h
256 18-05-2003 18:23:25 17.9 C 9.62 g/m*3 17.9 C 0 km/h
257 18-05-2003 18:33:25 17.8 C 9.71 g/m*3 17.8 C 0 km/h
258 18-05-2003 18:43:03 17.2 C 9.96 g/m*3 17.2 C 0 km/h
259 18-05-2003 18:53:03 16.7 C 10.37 g/m*3 16.7 C 0 km/h
260 18-05-2003 19:03:02 16.3 C 10.27 g/m*3 16.3 C 0 km/h
261 18-05-2003 19:13:02 16.5 C 10.39 g/m*3 16.5 C 0 km/h
262 18-05-2003 19:23:02 16.6 C 10.74 g/m*3 16.6 C 0 km/h
263 18-05-2003 19:33:01 16.1 C 10.97 g/m*3 16.1 C 0 km/h
264 18-05-2003 19:43:01 15.7 C 11.11 g/m*3 15.7 C 0 km/h
265 18-05-2003 19:53:01 15.6 C 11.57 g/m*3 15.6 C 0 km/h
266 18-05-2003 20:03:00 15.4 C 11.56 g/m*3 15.4 C 0 km/h
267 18-05-2003 20:13:00 15.1 C 11.48 g/m*3 15.1 C 0 km/h
268 18-05-2003 20:23:00 15.2 C 11.68 g/m*3 15.2 C 0 km/h
269 18-05-2003 20:33:02 15.3 C 11.75 g/m*3 15.3 C 0 km/h
270 18-05-2003 20:43:02 15 C 11.54 g/m*3 15 C 0 km/h
271 18-05-2003 20:53:02 14.8 C 11.4 g/m*3 14.8 C 0 km/h
272 18-05-2003 21:03:01 14.6 C 11.39 g/m*3 14.6 C 0 km/h
273 18-05-2003 21:13:01 14.7 C 11.46 g/m*3 14.7 C 0 km/h
274 18-05-2003 21:23:01 14.8 C 11.65 g/m*3 14.8 C 0 km/h
275 18-05-2003 21:33:09 14.7 C 11.58 g/m*3 14.7 C 0 km/h
Sensor: Nr:Datum:Temp:Abs-Feuchte:Windchill:Wind:
Aussen-T/F 276 18-05-2003 21:43:09 14.6 C 11.39 g/m*3 14.6 C 0 km/h
277 18-05-2003 21:53:09 14.5 C 11.19 g/m*3 14.5 C 0 km/h
278 18-05-2003 22:03:00 14.4 C 11 g/m*3 14.4 C 0 km/h
279 18-05-2003 22:03:58 14.4 C 11 g/m*3 14.4 C 0 km/h
280 18-05-2003 22:13:58 14.3 C 10.93 g/m*3 14.3 C 0 km/h
281 18-05-2003 22:23:58 14.2 C 10.75 g/m*3 14.2 C 0 km/h
282 18-05-2003 22:33:58 14 C 10.61 g/m*3 14 C 0 km/h
283 18-05-2003 22:43:58 13.9 C 10.67 g/m*3 13.9 C 0 km/h
284 18-05-2003 22:53:01 13.8 C 10.72 g/m*3 13.8 C 0 km/h
285 18-05-2003 23:03:00 13.8 C 10.84 g/m*3 13.8 C 0 km/h
286 18-05-2003 23:13:00 13.7 C 10.78 g/m*3 13.7 C 0 km/h
287 18-05-2003 23:23:00 13.7 C 10.78 g/m*3 13.7 C 0 km/h
288 18-05-2003 23:33:02 13.6 C 10.59 g/m*3 13.6 C 0 km/h
289 18-05-2003 23:43:02 13.5 C 10.64 g/m*3 13.5 C 0 km/h
290 18-05-2003 23:53:02 13.5 C 10.64 g/m*3 13.5 C 0 km/h
291 19-05-2003 00:03:00 13.5 C 10.53 g/m*3 13.5 C 0 km/h
292 19-05-2003 00:13:00 13.5 C 10.53 g/m*3 13.5 C 0 km/h
293 19-05-2003 00:23:00 13.5 C 10.53 g/m*3 13.5 C 0 km/h
294 19-05-2003 00:33:03 13.5 C 10.41 g/m*3 13.5 C 0 km/h
295 19-05-2003 00:43:03 13.6 C 10.47 g/m*3 13.6 C 0 km/h
296 19-05-2003 00:53:03 13.5 C 10.41 g/m*3 13.5 C 0 km/h
297 19-05-2003 01:03:02 13.5 C 10.41 g/m*3 13.5 C 0 km/h
298 19-05-2003 01:13:02 13.3 C 10.4 g/m*3 13.3 C 0 km/h
299 19-05-2003 01:23:02 13.2 C 10.45 g/m*3 13.2 C 0 km/h
300 19-05-2003 01:33:03 13.2 C 10.45 g/m*3 13.2 C 0 km/h
Sensor: Nr:Datum:Temp:Abs-Feuchte:Windchill:Wind:
Aussen-T/F 301 19-05-2003 01:43:03 13.1 C 10.5 g/m*3 13.1 C 0 km/h
302 19-05-2003 01:53:03 12.9 C 10.48 g/m*3 12.9 C 0 km/h
303 19-05-2003 02:03:02 12.9 C 10.48 g/m*3 12.9 C 0 km/h
304 19-05-2003 02:13:02 12.8 C 10.42 g/m*3 12.8 C 0 km/h
305 19-05-2003 02:23:02 12.8 C 10.42 g/m*3 12.8 C 0 km/h
306 19-05-2003 02:43:01 12.7 C 10.35 g/m*3 12.7 C 0 km/h
307 19-05-2003 02:53:01 12.7 C 10.35 g/m*3 12.7 C 0 km/h
308 19-05-2003 03:03:01 12.7 C 10.35 g/m*3 12.7 C 0 km/h
309 19-05-2003 03:13:01 12.7 C 10.35 g/m*3 12.7 C 0 km/h
310 19-05-2003 03:23:01 12.7 C 10.35 g/m*3 12.7 C 0 km/h
311 19-05-2003 03:33:01 12.7 C 10.46 g/m*3 12.7 C 0 km/h
312 19-05-2003 03:43:01 12.7 C 10.46 g/m*3 12.7 C 0 km/h
313 19-05-2003 03:53:01 12.7 C 10.46 g/m*3 12.7 C 0 km/h
314 19-05-2003 04:03:00 12.7 C 10.46 g/m*3 12.7 C 0 km/h
315 19-05-2003 04:13:00 12.8 C 10.53 g/m*3 12.8 C 0 km/h
316 19-05-2003 04:23:00 12.7 C 10.46 g/m*3 12.7 C 0 km/h
317 19-05-2003 04:33:01 12.8 C 10.53 g/m*3 12.8 C 0 km/h
318 19-05-2003 04:43:01 12.6 C 10.4 g/m*3 12.6 C 0 km/h
319 19-05-2003 04:53:01 12.4 C 10.27 g/m*3 12.4 C 0 km/h
320 19-05-2003 05:03:01 12.4 C 10.27 g/m*3 12.4 C 0 km/h
321 19-05-2003 05:13:01 12.4 C 10.27 g/m*3 12.4 C 0 km/h
322 19-05-2003 05:23:01 12.5 C 10.33 g/m*3 12.5 C 0 km/h
323 19-05-2003 05:33:01 12.4 C 10.16 g/m*3 12.4 C 0 km/h
324 19-05-2003 05:43:01 12.2 C 9.93 g/m*3 12.2 C 0 km/h
325 19-05-2003 05:53:01 12.1 C 9.87 g/m*3 12.1 C 0 km/h
Sensor: Nr:Datum:Temp:Abs-Feuchte:Windchill:Wind:
Aussen-T/F 326 19-05-2003 06:03:00 11.9 C 9.85 g/m*3 11.9 C 0 km/h
327 19-05-2003 06:13:00 11.7 C 9.73 g/m*3 11.7 C 0 km/h
328 19-05-2003 06:23:00 11.7 C 9.73 g/m*3 11.7 C 0 km/h
329 19-05-2003 06:33:00 11.6 C 9.67 g/m*3 11.6 C 0 km/h
330 19-05-2003 06:43:00 11.6 C 9.67 g/m*3 11.6 C 0 km/h
331 19-05-2003 06:53:00 11.7 C 9.83 g/m*3 11.7 C 0 km/h
332 19-05-2003 07:03:00 12.1 C 9.97 g/m*3 12.1 C 0 km/h
333 19-05-2003 07:13:00 12.3 C 10.21 g/m*3 12.3 C 0 km/h
334 19-05-2003 07:23:00 12.5 C 10.33 g/m*3 12.5 C 0 km/h
335 19-05-2003 07:32:05 12.7 C 10.46 g/m*3 12.7 C 0 km/h
336 19-05-2003 07:42:05 13.1 C 10.61 g/m*3 13.1 C 0 km/h
337 19-05-2003 07:52:05 13.2 C 10.68 g/m*3 13.2 C 0 km/h
338 19-05-2003 08:03:03 13.2 C 10.68 g/m*3 13.2 C 0 km/h
339 19-05-2003 08:13:03 13.5 C 10.76 g/m*3 13.5 C 0 km/h
340 19-05-2003 08:23:03 13.5 C 10.41 g/m*3 13.5 C 0 km/h
341 19-05-2003 08:33:02 13.5 C 10.29 g/m*3 13.5 C 0 km/h
342 19-05-2003 08:43:02 14.3 C 10.69 g/m*3 14.3 C 0 km/h
343 19-05-2003 08:53:02 14.2 C 10.5 g/m*3 14.2 C 0 km/h
344 19-05-2003 09:03:50 14 C 10.13 g/m*3 14 C 0 km/h
345 19-05-2003 09:13:50 14 C 9.89 g/m*3 14 C 0 km/h
346 19-05-2003 09:16:01 14.1 C 9.83 g/m*3 14.1 C 0 km/h
347 19-05-2003 09:26:01 14.2 C 9.89 g/m*3 14.2 C 0 km/h
348 19-05-2003 09:36:01 14.8 C 10.13 g/m*3 14.8 C 0 km/h
349 19-05-2003 09:46:01 14.5 C 9.83 g/m*3 14.5 C 0 km/h
350 19-05-2003 09:56:02 14.7 C 10.07 g/m*3 14.7 C 0 km/h
Sensor: Nr:Datum:Temp:Abs-Feuchte:Windchill:Wind:
Aussen-T/F 351 19-05-2003 09:57:01 14.7 C 10.07 g/m*3 14.7 C 0 km/h
352 19-05-2003 10:07:01 14.7 C 9.95 g/m*3 14.7 C 0 km/h
353 19-05-2003 10:17:01 14.7 C 9.82 g/m*3 14.7 C 0 km/h
354 19-05-2003 10:27:01 14.8 C 10.01 g/m*3 14.8 C 0 km/h
355 19-05-2003 10:36:02 15.2 C 10.25 g/m*3 15.2 C 0 km/h
356 19-05-2003 10:46:03 15 C 10 g/m*3 15 C 0 km/h
357 19-05-2003 10:56:03 14.8 C 10.01 g/m*3 14.8 C 0 km/h
358 19-05-2003 11:07:02 14.7 C 10.32 g/m*3 14.7 C 0 km/h
359 19-05-2003 11:17:03 14.4 C 10.26 g/m*3 14.4 C 0 km/h
360 19-05-2003 11:27:03 14.5 C 10.45 g/m*3 14.5 C 0 km/h
361 19-05-2003 11:35:02 14.7 C 10.83 g/m*3 14.7 C 0 km/h
362 19-05-2003 11:45:02 14.7 C 10.83 g/m*3 14.7 C 0 km/h
363 19-05-2003 12:07:03 14.9 C 11.09 g/m*3 14.9 C 0 km/h
364 19-05-2003 12:17:03 15.1 C 11.22 g/m*3 15.1 C 0 km/h
365 19-05-2003 12:27:03 15.1 C 11.09 g/m*3 15.1 C 0 km/h
366 19-05-2003 12:36:02 15.1 C 10.97 g/m*3 15.1 C 0 km/h
367 19-05-2003 12:46:02 15.2 C 11.16 g/m*3 15.2 C 0 km/h
368 19-05-2003 12:56:02 15.1 C 11.09 g/m*3 15.1 C 0 km/h
369 19-05-2003 13:07:02 15.5 C 11.5 g/m*3 15.5 C 0 km/h
370 19-05-2003 13:17:02 15.7 C 11.64 g/m*3 15.7 C 0 km/h
371 19-05-2003 13:27:02 15.6 C 11.44 g/m*3 15.6 C 0 km/h
372 19-05-2003 13:37:01 15.6 C 11.44 g/m*3 15.6 C 0 km/h
373 19-05-2003 13:47:01 15.8 C 11.44 g/m*3 15.8 C 0 km/h
374 19-05-2003 13:56:07 15.7 C 11.37 g/m*3 15.7 C 0 km/h
375 19-05-2003 14:07:02 15.8 C 11.58 g/m*3 15.8 C 0 km/h
Sensor: Nr:Datum:Temp:Abs-Feuchte:Windchill:Wind:
Aussen-T/F 376 19-05-2003 14:17:02 15.6 C 11.57 g/m*3 15.6 C 0 km/h
377 19-05-2003 14:27:02 15.4 C 11.43 g/m*3 15.4 C 0 km/h
378 19-05-2003 14:35:01 15.4 C 11.56 g/m*3 15.4 C 0 km/h
379 19-05-2003 14:45:01 15.7 C 11.77 g/m*3 15.7 C 0 km/h
380 19-05-2003 14:55:01 15.8 C 11.71 g/m*3 15.8 C 0 km/h
381 19-05-2003 15:06:02 16 C 11.72 g/m*3 16 C 0 km/h
382 19-05-2003 15:16:02 15.9 C 11.78 g/m*3 15.9 C 0 km/h
383 19-05-2003 15:26:02 15.7 C 11.51 g/m*3 15.7 C 0 km/h
384 19-05-2003 15:36:02 15.2 C 11.16 g/m*3 15.2 C 0 km/h
385 19-05-2003 15:46:02 14.9 C 11.09 g/m*3 14.9 C 0 km/h
386 19-05-2003 15:56:02 14.1 C 10.56 g/m*3 14.1 C 0 km/h
387 19-05-2003 16:06:02 14.2 C 10.75 g/m*3 14.2 C 0 km/h
388 19-05-2003 16:16:02 14.2 C 10.87 g/m*3 14.2 C 0 km/h
389 19-05-2003 16:26:02 14 C 10.86 g/m*3 14 C 0 km/h
390 19-05-2003 16:37:00 13.6 C 10.71 g/m*3 13.6 C 0 km/h
391 19-05-2003 16:47:00 13.5 C 10.76 g/m*3 13.5 C 0 km/h
392 19-05-2003 16:57:00 14.1 C 11.17 g/m*3 14.1 C 0 km/h
393 19-05-2003 17:07:01 14.2 C 11.23 g/m*3 14.2 C 0 km/h
394 19-05-2003 17:17:01 14.1 C 11.17 g/m*3 14.1 C 0 km/h
395 19-05-2003 17:27:01 14.1 C 11.17 g/m*3 14.1 C 0 km/h
396 19-05-2003 17:36:00 14.3 C 10.93 g/m*3 14.3 C 0 km/h
397 19-05-2003 17:46:00 14.3 C 10.69 g/m*3 14.3 C 0 km/h
398 19-05-2003 17:56:00 14.3 C 10.69 g/m*3 14.3 C 0 km/h
399 19-05-2003 18:06:01 14.3 C 10.69 g/m*3 14.3 C 0 km/h
400 19-05-2003 18:16:01 14.4 C 10.75 g/m*3 14.4 C 0 km/h
Sensor: Nr:Datum:Temp:Abs-Feuchte:Windchill:Wind:
Aussen-T/F 401 19-05-2003 18:26:01 14.5 C 10.82 g/m*3 14.5 C 0 km/h
402 19-05-2003 18:36:01 14.4 C 10.63 g/m*3 14.4 C 0 km/h
403 19-05-2003 18:46:01 14.3 C 10.57 g/m*3 14.3 C 0 km/h
404 19-05-2003 18:56:01 14.2 C 10.5 g/m*3 14.2 C 0 km/h
405 19-05-2003 19:06:01 14 C 10.37 g/m*3 14 C 0 km/h
406 19-05-2003 19:16:01 14 C 10.49 g/m*3 14 C 0 km/h
407 19-05-2003 19:26:01 13.8 C 10.6 g/m*3 13.8 C 0 km/h
408 19-05-2003 19:36:00 13.8 C 10.72 g/m*3 13.8 C 0 km/h
409 19-05-2003 19:46:00 13.8 C 10.72 g/m*3 13.8 C 0 km/h
410 19-05-2003 19:56:00 13.8 C 10.48 g/m*3 13.8 C 0 km/h
411 19-05-2003 20:06:02 13.7 C 10.3 g/m*3 13.7 C 0 km/h
412 19-05-2003 20:16:02 13.6 C 10.36 g/m*3 13.6 C 0 km/h
413 19-05-2003 20:26:02 13.6 C 10.24 g/m*3 13.6 C 0 km/h
414 19-05-2003 20:36:01 13.6 C 10.24 g/m*3 13.6 C 0 km/h
415 19-05-2003 20:46:01 13.5 C 10.18 g/m*3 13.5 C 0 km/h
416 19-05-2003 20:56:01 13.5 C 10.18 g/m*3 13.5 C 0 km/h
417 19-05-2003 21:06:01 13.3 C 9.94 g/m*3 13.3 C 0 km/h
418 19-05-2003 21:16:01 13.2 C 9.76 g/m*3 13.2 C 0 km/h
419 19-05-2003 21:26:01 13 C 9.53 g/m*3 13 C 0 km/h
420 19-05-2003 21:36:01 12.8 C 9.3 g/m*3 12.8 C 0 km/h
421 19-05-2003 21:46:01 12.8 C 9.3 g/m*3 12.8 C 0 km/h
422 19-05-2003 21:56:01 12.7 C 9.35 g/m*3 12.7 C 0 km/h
423 19-05-2003 22:06:01 12.7 C 9.35 g/m*3 12.7 C 0 km/h
424 19-05-2003 22:16:01 12.5 C 9.24 g/m*3 12.5 C 0 km/h
425 19-05-2003 22:26:01 12.5 C 9.46 g/m*3 12.5 C 0 km/h
Sensor: Nr:Datum:Temp:Abs-Feuchte:Windchill:Wind:
Aussen-T/F 426 19-05-2003 22:36:12 12.7 C 9.46 g/m*3 12.7 C 0 km/h
427 19-05-2003 22:46:12 12.9 C 9.58 g/m*3 12.9 C 0 km/h
428 19-05-2003 22:56:12 12.8 C 9.52 g/m*3 12.8 C 0 km/h
429 19-05-2003 23:06:02 12.7 C 9.68 g/m*3 12.7 C 0 km/h
430 19-05-2003 23:16:02 12.5 C 9.57 g/m*3 12.5 C 0 km/h
431 19-05-2003 23:26:02 12.3 C 9.56 g/m*3 12.3 C 0 km/h
432 19-05-2003 23:36:01 12.1 C 9.44 g/m*3 12.1 C 0 km/h
433 19-05-2003 23:46:01 12.1 C 9.33 g/m*3 12.1 C 0 km/h
434 19-05-2003 23:56:02 12.1 C 8.69 g/m*3 12.1 C 0 km/h
435 19-05-2003 23:56:07 12.1 C 8.69 g/m*3 12.1 C 0 km/h
436 20-05-2003 00:06:07 11.6 C 8.63 g/m*3 11.6 C 0 km/h
437 20-05-2003 00:16:07 11.4 C 8.62 g/m*3 11.4 C 0 km/h
438 20-05-2003 00:26:07 11.2 C 8.11 g/m*3 11.2 C 0 km/h
439 20-05-2003 00:36:02 11.1 C 7.76 g/m*3 11.1 C 0 km/h
440 20-05-2003 00:46:02 10.9 C 7.76 g/m*3 10.9 C 0 km/h
441 20-05-2003 00:56:02 10.8 C 7.71 g/m*3 10.8 C 0 km/h
442 20-05-2003 01:06:02 10.7 C 7.66 g/m*3 10.7 C 0 km/h
443 20-05-2003 01:16:02 10.8 C 7.71 g/m*3 10.8 C 0 km/h
444 20-05-2003 01:26:02 10.8 C 7.71 g/m*3 10.8 C 0 km/h
445 20-05-2003 01:36:01 10.6 C 7.71 g/m*3 10.6 C 0 km/h
446 20-05-2003 01:46:01 10.5 C 7.76 g/m*3 10.5 C 0 km/h
447 20-05-2003 01:56:01 10.4 C 7.81 g/m*3 10.4 C 0 km/h
448 20-05-2003 02:06:01 10.2 C 7.8 g/m*3 10.2 C 0 km/h
449 20-05-2003 02:16:01 10.1 C 7.85 g/m*3 10.1 C 0 km/h
450 20-05-2003 02:26:01 10 C 7.89 g/m*3 10 C 0 km/h
Sensor: Nr:Datum:Temp:Abs-Feuchte:Windchill:Wind:
Aussen-T/F 451 20-05-2003 02:36:02 10 C 7.89 g/m*3 10 C 0 km/h
452 20-05-2003 02:46:02 10 C 7.89 g/m*3 10 C 0 km/h
453 20-05-2003 02:56:02 9.9 C 8.03 g/m*3 9.9 C 0 km/h
454 20-05-2003 03:06:02 9.8 C 7.98 g/m*3 9.8 C 0 km/h
455 20-05-2003 03:16:02 9.7 C 8.02 g/m*3 9.7 C 0 km/h
456 20-05-2003 03:26:02 9.4 C 7.96 g/m*3 9.4 C 0 km/h
457 20-05-2003 03:36:01 9.2 C 7.86 g/m*3 9.2 C 0 km/h
458 20-05-2003 03:46:01 9.3 C 8 g/m*3 9.3 C 0 km/h
459 20-05-2003 03:56:01 9.4 C 8.14 g/m*3 9.4 C 0 km/h
460 20-05-2003 04:06:00 9.2 C 7.95 g/m*3 9.2 C 0 km/h
461 20-05-2003 04:16:00 9 C 7.85 g/m*3 9 C 0 km/h
462 20-05-2003 04:26:00 9 C 7.93 g/m*3 9 C 0 km/h
463 20-05-2003 04:36:01 9.1 C 8.07 g/m*3 9.1 C 0 km/h
464 20-05-2003 04:46:01 9.1 C 8.07 g/m*3 9.1 C 0 km/h
465 20-05-2003 04:56:01 9.3 C 8.27 g/m*3 9.3 C 0 km/h
466 20-05-2003 05:06:00 9.2 C 8.22 g/m*3 9.2 C 0 km/h
467 20-05-2003 05:16:01 9.3 C 8.18 g/m*3 9.3 C 0 km/h
468 20-05-2003 05:26:01 9.6 C 8.34 g/m*3 9.6 C 0 km/h
469 20-05-2003 05:36:01 9.5 C 8.19 g/m*3 9.5 C 0 km/h
470 20-05-2003 05:46:01 9.8 C 8.26 g/m*3 9.8 C 0 km/h
471 20-05-2003 05:56:01 9.7 C 8.2 g/m*3 9.7 C 0 km/h
472 20-05-2003 06:06:00 9.5 C 8.1 g/m*3 9.5 C 0 km/h
473 20-05-2003 06:16:01 9.4 C 8.05 g/m*3 9.4 C 0 km/h
474 20-05-2003 06:26:01 10.2 C 8.28 g/m*3 10.2 C 0 km/h
475 20-05-2003 06:36:01 10.7 C 8.25 g/m*3 10.7 C 0 km/h
Sensor: Nr:Datum:Temp:Abs-Feuchte:Windchill:Wind:
Aussen-T/F 476 20-05-2003 06:46:01 11 C 8.21 g/m*3 11 C 0 km/h
477 20-05-2003 06:56:01 10.9 C 8.26 g/m*3 10.9 C 0 km/h
478 20-05-2003 07:04:03 10.7 C 8.25 g/m*3 10.7 C 0 km/h
479 20-05-2003 07:14:03 10.6 C 8.3 g/m*3 10.6 C 0 km/h
480 20-05-2003 07:24:03 10.5 C 8.44 g/m*3 10.5 C 0 km/h
481 20-05-2003 07:34:03 10.5 C 8.34 g/m*3 10.5 C 0 km/h
482 20-05-2003 07:44:03 10.9 C 8.45 g/m*3 10.9 C 0 km/h
483 20-05-2003 07:54:03 11 C 8.31 g/m*3 11 C 0 km/h
484 20-05-2003 08:06:03 11.2 C 8.21 g/m*3 11.2 C 0 km/h
485 20-05-2003 08:16:03 11.7 C 8.16 g/m*3 11.7 C 0 km/h
486 20-05-2003 08:26:03 11.6 C 8 g/m*3 11.6 C 0 km/h
487 20-05-2003 08:36:00 11.8 C 8 g/m*3 11.8 C 0 km/h
488 20-05-2003 08:46:00 12.1 C 8.04 g/m*3 12.1 C 0 km/h
489 20-05-2003 08:56:00 12.1 C 8.04 g/m*3 12.1 C 0 km/h
490 20-05-2003 09:06:01 12 C 7.78 g/m*3 12 C 0 km/h
491 20-05-2003 09:16:01 12 C 7.89 g/m*3 12 C 0 km/h
492 20-05-2003 09:26:01 12.3 C 8.04 g/m*3 12.3 C 0 km/h
493 20-05-2003 09:36:01 12.6 C 7.52 g/m*3 12.6 C 0 km/h
494 20-05-2003 09:46:01 12.3 C 5.86 g/m*3 12.3 C 0 km/h
495 20-05-2003 09:56:01 12.3 C 5.86 g/m*3 12.3 C 0 km/h
496 20-05-2003 10:06:01 11.9 C 5.93 g/m*3 11.9 C 0 km/h
497 20-05-2003 10:16:01 11.9 C 5.93 g/m*3 11.9 C 0 km/h
498 20-05-2003 10:26:01 12 C 5.86 g/m*3 12 C 0 km/h
499 20-05-2003 10:37:01 12.3 C 5.75 g/m*3 12.3 C 0 km/h
500 20-05-2003 10:47:01 12.9 C 5.75 g/m*3 12.9 C 0 km/h
Sensor: Nr:Datum:Temp:Abs-Feuchte:Windchill:Wind:
Aussen-T/F 501 20-05-2003 10:57:01 13 C 5.78 g/m*3 13 C 0 km/h
502 20-05-2003 11:07:01 13.1 C 5.71 g/m*3 13.1 C 0 km/h
503 20-05-2003 11:17:01 13.1 C 6.16 g/m*3 13.1 C 0 km/h
504 20-05-2003 11:27:01 13.7 C 6.16 g/m*3 13.7 C 0 km/h
505 20-05-2003 11:37:01 14.4 C 6.06 g/m*3 14.4 C 0 km/h
506 20-05-2003 11:47:01 14.5 C 5.72 g/m*3 14.5 C 0 km/h
507 20-05-2003 11:57:01 14.2 C 5.49 g/m*3 14.2 C 0 km/h
508 20-05-2003 12:07:01 14.5 C 5.6 g/m*3 14.5 C 0 km/h
509 20-05-2003 12:17:01 15.1 C 5.55 g/m*3 15.1 C 0 km/h
510 20-05-2003 12:27:01 15.1 C 5.29 g/m*3 15.1 C 0 km/h
511 20-05-2003 12:36:00 15.3 C 5.35 g/m*3 15.3 C 0 km/h
512 20-05-2003 12:46:00 15 C 5.26 g/m*3 15 C 0 km/h
513 20-05-2003 12:56:00 16.2 C 5.52 g/m*3 16.2 C 0 km/h
514 20-05-2003 13:06:00 16.1 C 5.35 g/m*3 16.1 C 0 km/h
515 20-05-2003 13:16:00 16.9 C 5.32 g/m*3 16.9 C 0 km/h
516 20-05-2003 13:26:00 17.1 C 5.24 g/m*3 17.1 C 0 km/h
517 20-05-2003 13:36:01 16.9 C 5.18 g/m*3 16.9 C 0 km/h
518 20-05-2003 13:46:01 17.2 C 5.27 g/m*3 17.2 C 0 km/h
519 20-05-2003 13:56:01 17.6 C 5.55 g/m*3 17.6 C 0 km/h
520 20-05-2003 14:06:00 16.7 C 5.26 g/m*3 16.7 C 0 km/h
521 20-05-2003 14:16:00 16.2 C 5.24 g/m*3 16.2 C 0 km/h
522 20-05-2003 14:26:00 15.7 C 5.75 g/m*3 15.7 C 0 km/h
523 20-05-2003 14:36:01 16.7 C 6.25 g/m*3 16.7 C 0 km/h
524 20-05-2003 14:46:01 17.4 C 5.78 g/m*3 17.4 C 0 km/h
525 20-05-2003 14:56:01 15.9 C 5.55 g/m*3 15.9 C 0 km/h
Sensor: Nr:Datum:Temp:Abs-Feuchte:Windchill:Wind:
Aussen-T/F 526 20-05-2003 15:06:01 17 C 5.93 g/m*3 17 C 0 km/h
527 20-05-2003 15:16:01 17.9 C 5.8 g/m*3 17.9 C 0 km/h
528 20-05-2003 15:26:01 17 C 5.5 g/m*3 17 C 0 km/h
529 20-05-2003 15:36:00 16.5 C 5.34 g/m*3 16.5 C 0 km/h
530 20-05-2003 15:46:00 16.7 C 5.4 g/m*3 16.7 C 0 km/h
531 20-05-2003 15:56:00 18.2 C 5.44 g/m*3 18.2 C 0 km/h
532 20-05-2003 16:06:00 18.5 C 5.22 g/m*3 18.5 C 0 km/h
533 20-05-2003 16:16:00 19.3 C 5.31 g/m*3 19.3 C 0 km/h
534 20-05-2003 16:26:00 18.3 C 5 g/m*3 18.3 C 0 km/h
535 20-05-2003 16:36:00 18.8 C 4.99 g/m*3 18.8 C 0 km/h
536 20-05-2003 16:46:00 17.8 C 5.16 g/m*3 17.8 C 0 km/h
537 20-05-2003 16:56:00 18.3 C 5.16 g/m*3 18.3 C 0 km/h
538 20-05-2003 17:06:01 19 C 5.38 g/m*3 19 C 0 km/h
539 20-05-2003 17:16:01 17.7 C 5.13 g/m*3 17.7 C 0 km/h
540 20-05-2003 17:26:01 16.7 C 5.26 g/m*3 16.7 C 0 km/h
541 20-05-2003 17:36:01 15.9 C 5.55 g/m*3 15.9 C 0 km/h
542 20-05-2003 17:46:01 14.9 C 6.5 g/m*3 14.9 C 0 km/h
543 20-05-2003 17:56:01 15 C 6.28 g/m*3 15 C 0 km/h
544 20-05-2003 18:06:00 15.7 C 6.29 g/m*3 15.7 C 0 km/h
545 20-05-2003 18:16:00 16.9 C 6.18 g/m*3 16.9 C 0 km/h
546 20-05-2003 18:26:00 16.7 C 6.25 g/m*3 16.7 C 0 km/h
547 20-05-2003 18:36:01 15.3 C 5.48 g/m*3 15.3 C 0 km/h
548 20-05-2003 18:46:01 14.6 C 5.38 g/m*3 14.6 C 0 km/h
549 20-05-2003 18:56:01 13.4 C 7.9 g/m*3 13.4 C 0 km/h
550 20-05-2003 19:06:01 13.5 C 7.49 g/m*3 13.5 C 0 km/h
Sensor: Nr:Datum:Temp:Abs-Feuchte:Windchill:Wind:
Aussen-T/F 551 20-05-2003 19:16:01 14.5 C 6.59 g/m*3 14.5 C 0 km/h
552 20-05-2003 19:26:01 15 C 6.92 g/m*3 15 C 0 km/h
553 20-05-2003 19:36:01 15.3 C 6.66 g/m*3 15.3 C 0 km/h
554 20-05-2003 19:46:01 15.1 C 6.45 g/m*3 15.1 C 0 km/h
555 20-05-2003 19:56:01 14.9 C 6.63 g/m*3 14.9 C 0 km/h
556 20-05-2003 20:06:02 15.2 C 6.62 g/m*3 15.2 C 0 km/h
557 20-05-2003 20:16:02 14.8 C 6.59 g/m*3 14.8 C 0 km/h
558 20-05-2003 20:26:02 15.1 C 6.84 g/m*3 15.1 C 0 km/h
559 20-05-2003 20:36:00 14.7 C 6.92 g/m*3 14.7 C 0 km/h
560 20-05-2003 20:46:01 14.1 C 6.92 g/m*3 14.1 C 0 km/h
561 20-05-2003 20:56:01 13.4 C 6.97 g/m*3 13.4 C 0 km/h
562 20-05-2003 21:06:00 12.8 C 7.06 g/m*3 12.8 C 0 km/h
563 20-05-2003 21:16:00 12.6 C 6.86 g/m*3 12.6 C 0 km/h
564 20-05-2003 21:26:00 12.2 C 7.01 g/m*3 12.2 C 0 km/h
565 20-05-2003 21:36:01 11.9 C 7.1 g/m*3 11.9 C 0 km/h
566 20-05-2003 21:46:01 11.5 C 6.82 g/m*3 11.5 C 0 km/h
567 20-05-2003 21:56:01 11.1 C 6.85 g/m*3 11.1 C 0 km/h
568 20-05-2003 22:06:01 11 C 6.91 g/m*3 11 C 0 km/h
569 20-05-2003 22:16:01 11 C 6.91 g/m*3 11 C 0 km/h
570 20-05-2003 22:26:01 11.2 C 7.1 g/m*3 11.2 C 0 km/h
571 20-05-2003 22:36:01 11.4 C 7.08 g/m*3 11.4 C 0 km/h
572 20-05-2003 22:46:01 11.8 C 7.26 g/m*3 11.8 C 0 km/h
573 20-05-2003 22:56:01 11.8 C 7.05 g/m*3 11.8 C 0 km/h
574 20-05-2003 23:07:01 11.5 C 7.13 g/m*3 11.5 C 0 km/h
575 20-05-2003 23:17:01 11.3 C 7.14 g/m*3 11.3 C 0 km/h
Sensor: Nr:Datum:Temp:Abs-Feuchte:Windchill:Wind:
Aussen-T/F 576 20-05-2003 23:27:01 11.4 C 7.29 g/m*3 11.4 C 0 km/h
577 20-05-2003 23:37:01 11.4 C 7.19 g/m*3 11.4 C 0 km/h
578 20-05-2003 23:47:01 11.3 C 7.04 g/m*3 11.3 C 0 km/h
579 20-05-2003 23:57:01 11.3 C 7.04 g/m*3 11.3 C 0 km/h
580 21-05-2003 00:07:01 11.1 C 7.25 g/m*3 11.1 C 0 km/h
581 21-05-2003 00:17:01 11 C 7.01 g/m*3 11 C 0 km/h
582 21-05-2003 00:27:01 11.2 C 6.39 g/m*3 11.2 C 0 km/h
583 21-05-2003 00:37:01 11.3 C 6.22 g/m*3 11.3 C 0 km/h
584 21-05-2003 00:47:01 11.3 C 6.22 g/m*3 11.3 C 0 km/h
585 21-05-2003 00:57:01 11.3 C 6.12 g/m*3 11.3 C 0 km/h
586 21-05-2003 01:07:01 11.2 C 5.98 g/m*3 11.2 C 0 km/h
587 21-05-2003 01:17:01 11.2 C 5.88 g/m*3 11.2 C 0 km/h
588 21-05-2003 01:27:01 11.1 C 5.94 g/m*3 11.1 C 0 km/h
589 21-05-2003 01:37:01 10.7 C 6.09 g/m*3 10.7 C 0 km/h
590 21-05-2003 01:47:01 10.3 C 6.22 g/m*3 10.3 C 0 km/h
591 21-05-2003 01:57:01 10 C 6.3 g/m*3 10 C 0 km/h
592 21-05-2003 02:07:01 9.8 C 6.4 g/m*3 9.8 C 0 km/h
593 21-05-2003 02:17:01 9.7 C 6.45 g/m*3 9.7 C 0 km/h
594 21-05-2003 02:27:01 9.7 C 6.45 g/m*3 9.7 C 0 km/h
595 21-05-2003 02:37:01 9.5 C 6.55 g/m*3 9.5 C 0 km/h
596 21-05-2003 02:47:01 9.5 C 6.55 g/m*3 9.5 C 0 km/h
597 21-05-2003 02:57:01 9.5 C 6.74 g/m*3 9.5 C 0 km/h
598 21-05-2003 03:07:01 9.5 C 6.64 g/m*3 9.5 C 0 km/h
599 21-05-2003 03:17:01 9.7 C 6.73 g/m*3 9.7 C 0 km/h
600 21-05-2003 03:27:01 9.5 C 6.92 g/m*3 9.5 C 0 km/h
Sensor: Nr:Datum:Temp:Abs-Feuchte:Windchill:Wind:
Aussen-T/F 601 21-05-2003 03:37:01 9.3 C 7.19 g/m*3 9.3 C 0 km/h
602 21-05-2003 03:47:01 9.2 C 7.23 g/m*3 9.2 C 0 km/h
603 21-05-2003 03:57:01 9.2 C 7.32 g/m*3 9.2 C 0 km/h
604 21-05-2003 04:07:01 9.5 C 7.28 g/m*3 9.5 C 0 km/h
605 21-05-2003 04:17:01 9.3 C 7.28 g/m*3 9.3 C 0 km/h
606 21-05-2003 04:27:01 9.2 C 7.41 g/m*3 9.2 C 0 km/h
607 21-05-2003 04:37:01 9.3 C 7.55 g/m*3 9.3 C 0 km/h
608 21-05-2003 04:47:01 9.1 C 7.45 g/m*3 9.1 C 0 km/h
609 21-05-2003 04:57:01 9.1 C 7.54 g/m*3 9.1 C 0 km/h
610 21-05-2003 05:07:01 9.1 C 7.54 g/m*3 9.1 C 0 km/h
611 21-05-2003 05:17:01 9 C 7.49 g/m*3 9 C 0 km/h
612 21-05-2003 05:27:01 9.1 C 7.54 g/m*3 9.1 C 0 km/h
613 21-05-2003 05:37:01 9 C 7.49 g/m*3 9 C 0 km/h
614 21-05-2003 05:47:01 9 C 7.58 g/m*3 9 C 0 km/h
615 21-05-2003 05:57:01 8.9 C 7.8 g/m*3 8.9 C 0 km/h
616 21-05-2003 06:07:01 8.8 C 7.83 g/m*3 8.8 C 0 km/h
617 21-05-2003 06:17:01 8.8 C 7.83 g/m*3 8.8 C 0 km/h
618 21-05-2003 06:27:01 8.9 C 7.88 g/m*3 8.9 C 0 km/h
619 21-05-2003 06:47:01 9.2 C 7.68 g/m*3 9.2 C 0 km/h
620 21-05-2003 06:57:01 9.2 C 7.59 g/m*3 9.2 C 0 km/h
621 21-05-2003 07:07:01 9.4 C 7.69 g/m*3 9.4 C 0 km/h
622 21-05-2003 07:17:01 9.4 C 7.69 g/m*3 9.4 C 0 km/h
623 21-05-2003 07:27:01 9.4 C 7.69 g/m*3 9.4 C 0 km/h
624 21-05-2003 07:37:01 9.9 C 7.84 g/m*3 9.9 C 0 km/h
625 21-05-2003 07:47:01 9.9 C 7.75 g/m*3 9.9 C 0 km/h
Sensor: Nr:Datum:Temp:Abs-Feuchte:Windchill:Wind:
Aussen-T/F 626 21-05-2003 07:57:01 9.9 C 7.75 g/m*3 9.9 C 0 km/h
627 21-05-2003 08:07:02 9.9 C 7.75 g/m*3 9.9 C 0 km/h
628 21-05-2003 08:17:02 10.1 C 7.66 g/m*3 10.1 C 0 km/h
629 21-05-2003 08:27:02 10.6 C 7.91 g/m*3 10.6 C 0 km/h
630 21-05-2003 08:37:01 11.1 C 7.86 g/m*3 11.1 C 0 km/h
631 21-05-2003 08:47:01 11.2 C 7.8 g/m*3 11.2 C 0 km/h
632 21-05-2003 08:57:01 11.3 C 7.65 g/m*3 11.3 C 0 km/h
633 21-05-2003 09:07:02 11.3 C 7.75 g/m*3 11.3 C 0 km/h
634 21-05-2003 09:17:02 11.7 C 7.84 g/m*3 11.7 C 0 km/h
635 21-05-2003 09:27:02 12.4 C 7.87 g/m*3 12.4 C 0 km/h
636 21-05-2003 09:37:00 12.2 C 7.66 g/m*3 12.2 C 0 km/h
637 21-05-2003 09:47:00 12.4 C 7.76 g/m*3 12.4 C 0 km/h
638 21-05-2003 09:57:00 12.4 C 7.54 g/m*3 12.4 C 0 km/h
639 21-05-2003 10:07:01 12.8 C 7.73 g/m*3 12.8 C 0 km/h
640 21-05-2003 10:17:01 13 C 7.71 g/m*3 13 C 0 km/h
641 21-05-2003 10:27:01 13.5 C 7.72 g/m*3 13.5 C 0 km/h
642 21-05-2003 10:37:01 13.4 C 7.44 g/m*3 13.4 C 0 km/h
643 21-05-2003 10:47:01 13.7 C 7.58 g/m*3 13.7 C 0 km/h
644 21-05-2003 10:57:01 13.9 C 7.67 g/m*3 13.9 C 0 km/h
645 21-05-2003 11:07:01 13.6 C 7.41 g/m*3 13.6 C 0 km/h
646 21-05-2003 11:17:01 14.1 C 7.77 g/m*3 14.1 C 0 km/h
647 21-05-2003 11:27:01 13.8 C 7.98 g/m*3 13.8 C 0 km/h
648 21-05-2003 11:37:01 14.3 C 7.99 g/m*3 14.3 C 0 km/h
649 21-05-2003 11:47:01 14.3 C 7.74 g/m*3 14.3 C 0 km/h
650 21-05-2003 11:57:01 15 C 7.69 g/m*3 15 C 0 km/h
Sensor: Nr:Datum:Temp:Abs-Feuchte:Windchill:Wind:
Aussen-T/F 651 21-05-2003 12:07:02 15.4 C 7.75 g/m*3 15.4 C 0 km/h
652 21-05-2003 12:17:02 15.6 C 7.45 g/m*3 15.6 C 0 km/h
653 21-05-2003 12:27:02 15.4 C 7.49 g/m*3 15.4 C 0 km/h
654 21-05-2003 12:37:00 16 C 7.36 g/m*3 16 C 0 km/h
655 21-05-2003 12:47:00 16.8 C 7.72 g/m*3 16.8 C 0 km/h
656 21-05-2003 12:57:00 17.1 C 7.28 g/m*3 17.1 C 0 km/h
657 21-05-2003 13:07:00 16.2 C 7.86 g/m*3 16.2 C 0 km/h
658 21-05-2003 13:17:00 13.3 C 8.43 g/m*3 13.3 C 0 km/h
659 21-05-2003 13:27:00 13.2 C 8.84 g/m*3 13.2 C 0 km/h
660 21-05-2003 13:37:01 14.1 C 8.98 g/m*3 14.1 C 0 km/h
661 21-05-2003 13:47:01 13.9 C 9.11 g/m*3 13.9 C 0 km/h
662 21-05-2003 13:57:01 13.4 C 8.25 g/m*3 13.4 C 0 km/h
663 21-05-2003 14:07:01 13.8 C 8.46 g/m*3 13.8 C 0 km/h
664 21-05-2003 14:17:01 14.1 C 8.37 g/m*3 14.1 C 0 km/h
665 21-05-2003 14:27:01 15.1 C 8.77 g/m*3 15.1 C 0 km/h
666 21-05-2003 14:37:02 16.2 C 8.69 g/m*3 16.2 C 0 km/h
667 21-05-2003 14:47:02 15.8 C 8.21 g/m*3 15.8 C 0 km/h
668 21-05-2003 14:57:02 14.5 C 7.21 g/m*3 14.5 C 0 km/h
669 21-05-2003 15:07:01 13.1 C 7.53 g/m*3 13.1 C 0 km/h
670 21-05-2003 15:17:01 12.5 C 8.69 g/m*3 12.5 C 0 km/h
671 21-05-2003 15:27:01 12.9 C 8.79 g/m*3 12.9 C 0 km/h
672 21-05-2003 15:37:00 12.5 C 8.36 g/m*3 12.5 C 0 km/h
673 21-05-2003 15:47:00 12 C 8.21 g/m*3 12 C 0 km/h
674 21-05-2003 15:57:00 11.8 C 8.31 g/m*3 11.8 C 0 km/h
675 21-05-2003 16:07:13 12.5 C 8.58 g/m*3 12.5 C 0 km/h
Sensor: Nr:Datum:Temp:Abs-Feuchte:Windchill:Wind:
Aussen-T/F 676 21-05-2003 16:17:13 13.7 C 8.76 g/m*3 13.7 C 0 km/h
677 21-05-2003 16:27:13 13.8 C 8.46 g/m*3 13.8 C 0 km/h
678 21-05-2003 16:37:01 14 C 8.68 g/m*3 14 C 0 km/h
679 21-05-2003 16:47:01 13.7 C 8.41 g/m*3 13.7 C 0 km/h
680 21-05-2003 16:57:01 12.5 C 8.58 g/m*3 12.5 C 0 km/h
681 21-05-2003 17:07:04 11.7 C 8.47 g/m*3 11.7 C 0 km/h
682 21-05-2003 17:17:04 12.1 C 8.58 g/m*3 12.1 C 0 km/h
683 21-05-2003 17:27:04 13.5 C 8.66 g/m*3 13.5 C 0 km/h
684 21-05-2003 17:37:01 13.2 C 8.27 g/m*3 13.2 C 0 km/h
685 21-05-2003 17:47:01 13.1 C 8.33 g/m*3 13.1 C 0 km/h
686 21-05-2003 17:57:01 13 C 8.39 g/m*3 13 C 0 km/h
687 21-05-2003 18:07:01 13.4 C 8.6 g/m*3 13.4 C 0 km/h
688 21-05-2003 18:17:01 14 C 8.81 g/m*3 14 C 0 km/h
689 21-05-2003 18:27:01 13.9 C 8.75 g/m*3 13.9 C 0 km/h
690 21-05-2003 18:37:01 13.7 C 9 g/m*3 13.7 C 0 km/h
691 21-05-2003 18:47:01 13.5 C 9.47 g/m*3 13.5 C 0 km/h
692 21-05-2003 18:57:01 13.5 C 9.59 g/m*3 13.5 C 0 km/h
693 21-05-2003 19:07:01 13.2 C 9.42 g/m*3 13.2 C 0 km/h
694 21-05-2003 19:17:01 12.9 C 9.47 g/m*3 12.9 C 0 km/h
695 21-05-2003 19:27:01 12.9 C 9.58 g/m*3 12.9 C 0 km/h
696 21-05-2003 19:37:00 12.6 C 9.18 g/m*3 12.6 C 0 km/h
697 21-05-2003 19:47:00 12.6 C 9.29 g/m*3 12.6 C 0 km/h
698 21-05-2003 19:57:00 12.5 C 9.35 g/m*3 12.5 C 0 km/h
699 21-05-2003 20:07:01 12.3 C 9.23 g/m*3 12.3 C 0 km/h
700 21-05-2003 20:17:01 12.1 C 9.22 g/m*3 12.1 C 0 km/h
Sensor: Nr:Datum:Temp:Abs-Feuchte:Windchill:Wind:
Aussen-T/F 701 21-05-2003 20:27:01 12.1 C 9.33 g/m*3 12.1 C 0 km/h
702 21-05-2003 20:37:00 12.2 C 9.39 g/m*3 12.2 C 0 km/h
703 21-05-2003 20:47:00 12.1 C 9.33 g/m*3 12.1 C 0 km/h
704 21-05-2003 20:57:00 11.8 C 9.37 g/m*3 11.8 C 0 km/h
705 21-05-2003 21:07:01 11.7 C 9.31 g/m*3 11.7 C 0 km/h
706 21-05-2003 21:17:01 11.6 C 9.25 g/m*3 11.6 C 0 km/h
707 21-05-2003 21:27:01 11.6 C 9.35 g/m*3 11.6 C 0 km/h
708 21-05-2003 21:37:00 11.6 C 9.35 g/m*3 11.6 C 0 km/h
709 21-05-2003 21:47:00 11.5 C 9.3 g/m*3 11.5 C 0 km/h
710 21-05-2003 21:57:00 11.5 C 9.3 g/m*3 11.5 C 0 km/h
711 21-05-2003 22:07:01 11.6 C 9.25 g/m*3 11.6 C 0 km/h
712 21-05-2003 22:17:01 11.7 C 9.1 g/m*3 11.7 C 0 km/h
713 21-05-2003 22:27:01 11.8 C 8.95 g/m*3 11.8 C 0 km/h
714 21-05-2003 22:38:01 11.7 C 8.79 g/m*3 11.7 C 0 km/h
715 21-05-2003 22:48:01 11.7 C 8.79 g/m*3 11.7 C 0 km/h
716 21-05-2003 22:58:01 11.7 C 8.79 g/m*3 11.7 C 0 km/h
717 21-05-2003 23:08:01 11.7 C 8.79 g/m*3 11.7 C 0 km/h
718 21-05-2003 23:18:01 11.7 C 8.79 g/m*3 11.7 C 0 km/h
719 21-05-2003 23:28:01 11.6 C 8.73 g/m*3 11.6 C 0 km/h
720 21-05-2003 23:38:01 11.6 C 8.73 g/m*3 11.6 C 0 km/h
721 21-05-2003 23:48:01 11.6 C 8.52 g/m*3 11.6 C 0 km/h
722 21-05-2003 23:58:01 11.6 C 8.52 g/m*3 11.6 C 0 km/h
723 22-05-2003 00:08:01 11.6 C 8.52 g/m*3 11.6 C 0 km/h
724 22-05-2003 00:18:01 11.1 C 8.46 g/m*3 11.1 C 0 km/h
725 22-05-2003 00:28:01 11 C 8.51 g/m*3 11 C 0 km/h
Sensor: Nr:Datum:Temp:Abs-Feuchte:Windchill:Wind:
Aussen-T/F 726 22-05-2003 00:38:01 11 C 8.61 g/m*3 11 C 0 km/h
727 22-05-2003 00:48:01 10.9 C 8.65 g/m*3 10.9 C 0 km/h
728 22-05-2003 00:58:01 11 C 8.61 g/m*3 11 C 0 km/h
729 22-05-2003 01:08:01 10.9 C 8.65 g/m*3 10.9 C 0 km/h
730 22-05-2003 01:18:01 10.9 C 8.65 g/m*3 10.9 C 0 km/h
731 22-05-2003 01:28:01 10.9 C 8.65 g/m*3 10.9 C 0 km/h
732 22-05-2003 01:38:01 10.8 C 8.6 g/m*3 10.8 C 0 km/h
733 22-05-2003 01:48:01 10.7 C 8.64 g/m*3 10.7 C 0 km/h
734 22-05-2003 01:58:01 10.6 C 8.59 g/m*3 10.6 C 0 km/h
735 22-05-2003 02:08:01 10.6 C 8.59 g/m*3 10.6 C 0 km/h
736 22-05-2003 02:18:01 10.7 C 8.64 g/m*3 10.7 C 0 km/h
737 22-05-2003 02:28:01 10.6 C 8.59 g/m*3 10.6 C 0 km/h
738 22-05-2003 02:38:01 10.5 C 8.53 g/m*3 10.5 C 0 km/h
739 22-05-2003 02:48:01 10.4 C 8.48 g/m*3 10.4 C 0 km/h
740 22-05-2003 02:58:01 10.4 C 8.48 g/m*3 10.4 C 0 km/h
741 22-05-2003 03:08:01 10.4 C 8.48 g/m*3 10.4 C 0 km/h
742 22-05-2003 03:18:01 10.4 C 8.48 g/m*3 10.4 C 0 km/h
743 22-05-2003 03:28:01 10.4 C 8.58 g/m*3 10.4 C 0 km/h
744 22-05-2003 03:38:01 10.4 C 8.48 g/m*3 10.4 C 0 km/h
745 22-05-2003 03:48:01 10.4 C 8.48 g/m*3 10.4 C 0 km/h
746 22-05-2003 03:58:01 10.4 C 8.58 g/m*3 10.4 C 0 km/h
747 22-05-2003 04:08:01 10.3 C 8.52 g/m*3 10.3 C 0 km/h
748 22-05-2003 04:18:01 10.3 C 8.52 g/m*3 10.3 C 0 km/h
749 22-05-2003 04:28:01 10.3 C 8.52 g/m*3 10.3 C 0 km/h
750 22-05-2003 04:38:01 10.6 C 8.59 g/m*3 10.6 C 0 km/h
Sensor: Nr:Datum:Temp:Abs-Feuchte:Windchill:Wind:
Aussen-T/F 751 22-05-2003 04:48:01 10.9 C 8.65 g/m*3 10.9 C 0 km/h
752 22-05-2003 04:58:01 11.1 C 8.46 g/m*3 11.1 C 0 km/h
753 22-05-2003 05:08:01 11.1 C 8.46 g/m*3 11.1 C 0 km/h
754 22-05-2003 05:18:01 11 C 8.51 g/m*3 11 C 0 km/h
755 22-05-2003 05:28:01 10.9 C 8.65 g/m*3 10.9 C 0 km/h
756 22-05-2003 05:38:01 10.9 C 8.65 g/m*3 10.9 C 0 km/h
757 22-05-2003 05:48:01 10.7 C 8.64 g/m*3 10.7 C 0 km/h
758 22-05-2003 05:58:01 10.7 C 8.74 g/m*3 10.7 C 0 km/h
759 22-05-2003 06:08:01 10.7 C 8.84 g/m*3 10.7 C 0 km/h
760 22-05-2003 06:18:01 10.7 C 8.84 g/m*3 10.7 C 0 km/h
761 22-05-2003 06:28:01 10.7 C 8.94 g/m*3 10.7 C 0 km/h
762 22-05-2003 06:38:01 10.8 C 8.99 g/m*3 10.8 C 0 km/h
763 22-05-2003 06:48:01 10.9 C 9.05 g/m*3 10.9 C 0 km/h
764 22-05-2003 06:58:01 11 C 9.11 g/m*3 11 C 0 km/h
765 22-05-2003 07:08:01 11.1 C 9.17 g/m*3 11.1 C 0 km/h
766 22-05-2003 07:18:01 11.1 C 9.17 g/m*3 11.1 C 0 km/h
767 22-05-2003 07:28:01 11.1 C 9.17 g/m*3 11.1 C 0 km/h
768 22-05-2003 07:38:01 11.1 C 9.17 g/m*3 11.1 C 0 km/h
769 22-05-2003 07:48:01 11.2 C 9.12 g/m*3 11.2 C 0 km/h
770 22-05-2003 07:58:01 11.4 C 9.14 g/m*3 11.4 C 0 km/h
771 22-05-2003 08:08:01 11.5 C 9.19 g/m*3 11.5 C 0 km/h
772 22-05-2003 08:18:01 11.6 C 9.15 g/m*3 11.6 C 0 km/h
773 22-05-2003 08:28:01 11.9 C 9.32 g/m*3 11.9 C 0 km/h
774 22-05-2003 08:38:00 12.1 C 9.22 g/m*3 12.1 C 0 km/h
775 22-05-2003 08:48:00 12.1 C 9.22 g/m*3 12.1 C 0 km/h
Sensor: Nr:Datum:Temp:Abs-Feuchte:Windchill:Wind:
Aussen-T/F 776 22-05-2003 08:58:00 12.3 C 9.34 g/m*3 12.3 C 0 km/h
777 22-05-2003 09:08:01 12.5 C 9.46 g/m*3 12.5 C 0 km/h
778 22-05-2003 09:18:01 12.6 C 9.29 g/m*3 12.6 C 0 km/h
779 22-05-2003 09:28:01 12.6 C 9.4 g/m*3 12.6 C 0 km/h
780 22-05-2003 09:38:01 12.8 C 9.52 g/m*3 12.8 C 0 km/h
781 22-05-2003 09:48:01 12.8 C 9.41 g/m*3 12.8 C 0 km/h
782 22-05-2003 09:58:01 13 C 9.41 g/m*3 13 C 0 km/h
783 22-05-2003 10:08:00 13.2 C 9.53 g/m*3 13.2 C 0 km/h
784 22-05-2003 10:18:00 13.3 C 9.7 g/m*3 13.3 C 0 km/h
785 22-05-2003 10:28:00 13.4 C 9.65 g/m*3 13.4 C 0 km/h
786 22-05-2003 10:38:01 13.5 C 9.71 g/m*3 13.5 C 0 km/h
787 22-05-2003 10:48:01 13.6 C 9.65 g/m*3 13.6 C 0 km/h
788 22-05-2003 10:58:01 13.6 C 9.77 g/m*3 13.6 C 0 km/h
789 22-05-2003 11:08:02 13.7 C 9.83 g/m*3 13.7 C 0 km/h
790 22-05-2003 11:18:02 13.9 C 9.83 g/m*3 13.9 C 0 km/h
791 22-05-2003 11:28:02 14.1 C 9.71 g/m*3 14.1 C 0 km/h
792 22-05-2003 11:38:00 14.5 C 9.95 g/m*3 14.5 C 0 km/h
793 22-05-2003 11:48:00 14.7 C 10.07 g/m*3 14.7 C 0 km/h
794 22-05-2003 11:58:00 14.8 C 10.26 g/m*3 14.8 C 0 km/h
795 22-05-2003 12:08:00 14.7 C 10.07 g/m*3 14.7 C 0 km/h
796 22-05-2003 12:18:00 14.7 C 10.2 g/m*3 14.7 C 0 km/h
797 22-05-2003 12:28:06 14.8 C 10.26 g/m*3 14.8 C 0 km/h
798 22-05-2003 12:38:01 14.9 C 10.32 g/m*3 14.9 C 0 km/h
799 22-05-2003 12:48:01 14.6 C 10.39 g/m*3 14.6 C 0 km/h
800 22-05-2003 12:58:01 14.6 C 10.64 g/m*3 14.6 C 0 km/h
Sensor: Nr:Datum:Temp:Abs-Feuchte:Windchill:Wind:
Aussen-T/F 801 22-05-2003 13:08:01 14.7 C 10.83 g/m*3 14.7 C 0 km/h
802 22-05-2003 13:18:01 14.8 C 10.77 g/m*3 14.8 C 0 km/h
803 22-05-2003 13:28:01 15 C 10.77 g/m*3 15 C 0 km/h
804 22-05-2003 13:38:01 15.1 C 10.84 g/m*3 15.1 C 0 km/h
805 22-05-2003 13:48:01 15.1 C 10.71 g/m*3 15.1 C 0 km/h
806 22-05-2003 13:58:01 15.3 C 10.84 g/m*3 15.3 C 0 km/h
807 22-05-2003 14:08:01 15.7 C 10.97 g/m*3 15.7 C 0 km/h
808 22-05-2003 14:18:01 16.2 C 11.03 g/m*3 16.2 C 0 km/h
809 22-05-2003 14:28:01 16.5 C 11.09 g/m*3 16.5 C 0 km/h
810 22-05-2003 14:38:01 16.8 C 11.01 g/m*3 16.8 C 0 km/h
811 22-05-2003 14:48:01 17 C 10.85 g/m*3 17 C 0 km/h
812 22-05-2003 14:58:01 17.1 C 10.92 g/m*3 17.1 C 0 km/h
813 22-05-2003 15:08:01 17.3 C 10.9 g/m*3 17.3 C 0 km/h
814 22-05-2003 15:18:01 17.3 C 10.9 g/m*3 17.3 C 0 km/h
815 22-05-2003 15:28:01 17.3 C 10.9 g/m*3 17.3 C 0 km/h
816 22-05-2003 15:38:01 17.9 C 11.15 g/m*3 17.9 C 0 km/h
817 22-05-2003 15:48:01 18 C 10.91 g/m*3 18 C 0 km/h
818 22-05-2003 15:58:01 17.9 C 11.15 g/m*3 17.9 C 0 km/h
819 22-05-2003 16:08:01 17.6 C 11.1 g/m*3 17.6 C 0 km/h
820 22-05-2003 16:18:01 17.9 C 11.45 g/m*3 17.9 C 0 km/h
821 22-05-2003 16:28:01 18 C 11.67 g/m*3 18 C 0 km/h
822 22-05-2003 16:38:01 17.9 C 11.91 g/m*3 17.9 C 0 km/h
823 22-05-2003 16:48:01 17.2 C 11.72 g/m*3 17.2 C 0 km/h
824 22-05-2003 16:58:01 16.5 C 11.8 g/m*3 16.5 C 0 km/h
825 22-05-2003 17:08:01 16.7 C 12.22 g/m*3 16.7 C 0 km/h
Sensor: Nr:Datum:Temp:Abs-Feuchte:Windchill:Wind:
Aussen-T/F 826 22-05-2003 17:18:01 17.7 C 12.98 g/m*3 17.7 C 0 km/h
827 22-05-2003 17:28:01 18.7 C 13.29 g/m*3 18.7 C 0 km/h
828 22-05-2003 17:38:02 18.6 C 12.26 g/m*3 18.6 C 0 km/h
829 22-05-2003 17:48:02 18.3 C 12.35 g/m*3 18.3 C 0 km/h
830 22-05-2003 17:58:02 18 C 12.59 g/m*3 18 C 0 km/h
831 22-05-2003 18:08:00 17.8 C 12.75 g/m*3 17.8 C 0 km/h
832 22-05-2003 18:18:00 18 C 12.75 g/m*3 18 C 0 km/h
833 22-05-2003 18:28:00 18.1 C 12.67 g/m*3 18.1 C 0 km/h
834 22-05-2003 18:38:01 18 C 12.59 g/m*3 18 C 0 km/h
835 22-05-2003 18:48:01 17.7 C 12.52 g/m*3 17.7 C 0 km/h
836 22-05-2003 18:58:01 17.2 C 12.01 g/m*3 17.2 C 0 km/h
837 22-05-2003 19:08:02 17 C 11.87 g/m*3 17 C 0 km/h
838 22-05-2003 19:18:02 16.6 C 11.58 g/m*3 16.6 C 0 km/h
839 22-05-2003 19:28:02 16.5 C 11.65 g/m*3 16.5 C 0 km/h
840 22-05-2003 19:38:01 16.5 C 11.65 g/m*3 16.5 C 0 km/h
841 22-05-2003 19:48:01 16.5 C 11.51 g/m*3 16.5 C 0 km/h
842 22-05-2003 19:58:01 16.4 C 11.45 g/m*3 16.4 C 0 km/h
843 22-05-2003 20:08:09 16.3 C 11.38 g/m*3 16.3 C 0 km/h
844 22-05-2003 20:18:09 16.2 C 11.45 g/m*3 16.2 C 0 km/h
845 22-05-2003 20:28:09 16 C 11.44 g/m*3 16 C 0 km/h
846 22-05-2003 20:38:02 15.8 C 11.44 g/m*3 15.8 C 0 km/h
847 22-05-2003 20:48:02 15.7 C 11.37 g/m*3 15.7 C 0 km/h
848 22-05-2003 20:58:02 15.7 C 11.51 g/m*3 15.7 C 0 km/h
849 22-05-2003 21:08:01 15.6 C 11.44 g/m*3 15.6 C 0 km/h
850 22-05-2003 21:18:01 15.5 C 11.37 g/m*3 15.5 C 0 km/h
Sensor: Nr:Datum:Temp:Abs-Feuchte:Windchill:Wind:
Aussen-T/F 851 22-05-2003 21:28:01 15.5 C 11.5 g/m*3 15.5 C 0 km/h
852 22-05-2003 21:38:01 15.5 C 11.5 g/m*3 15.5 C 0 km/h
853 22-05-2003 21:48:01 15.6 C 11.44 g/m*3 15.6 C 0 km/h
854 22-05-2003 21:58:01 15.5 C 11.37 g/m*3 15.5 C 0 km/h
855 22-05-2003 22:08:01 15.5 C 11.1 g/m*3 15.5 C 0 km/h
856 22-05-2003 22:18:01 15.4 C 10.9 g/m*3 15.4 C 0 km/h
857 22-05-2003 22:28:01 15.3 C 10.84 g/m*3 15.3 C 0 km/h
858 22-05-2003 22:39:02 15.1 C 10.84 g/m*3 15.1 C 0 km/h
859 22-05-2003 22:49:02 14.7 C 10.7 g/m*3 14.7 C 0 km/h
860 22-05-2003 22:59:02 14.7 C 10.7 g/m*3 14.7 C 0 km/h
861 22-05-2003 23:09:02 14.7 C 10.7 g/m*3 14.7 C 0 km/h
862 22-05-2003 23:19:02 14.7 C 10.7 g/m*3 14.7 C 0 km/h
863 22-05-2003 23:29:02 14.6 C 10.64 g/m*3 14.6 C 0 km/h
864 22-05-2003 23:39:02 14.5 C 10.7 g/m*3 14.5 C 0 km/h
865 22-05-2003 23:49:02 14.4 C 10.63 g/m*3 14.4 C 0 km/h
866 22-05-2003 23:59:02 14.4 C 10.75 g/m*3 14.4 C 0 km/h
867 23-05-2003 00:09:02 14.5 C 10.82 g/m*3 14.5 C 0 km/h
868 23-05-2003 00:19:02 14.7 C 10.95 g/m*3 14.7 C 0 km/h
869 23-05-2003 00:29:02 14.6 C 10.89 g/m*3 14.6 C 0 km/h
870 23-05-2003 00:39:02 14.5 C 10.82 g/m*3 14.5 C 0 km/h
871 23-05-2003 00:49:02 14.5 C 10.82 g/m*3 14.5 C 0 km/h
872 23-05-2003 00:59:02 14.4 C 10.88 g/m*3 14.4 C 0 km/h
873 23-05-2003 01:09:02 14.4 C 10.88 g/m*3 14.4 C 0 km/h
874 23-05-2003 01:29:02 14.6 C 11.01 g/m*3 14.6 C 0 km/h
875 23-05-2003 01:39:02 14.6 C 10.89 g/m*3 14.6 C 0 km/h
Sensor: Nr:Datum:Temp:Abs-Feuchte:Windchill:Wind:
Aussen-T/F 876 23-05-2003 01:49:02 14.6 C 10.89 g/m*3 14.6 C 0 km/h
877 23-05-2003 01:59:02 14.6 C 10.89 g/m*3 14.6 C 0 km/h
878 23-05-2003 02:09:02 14.6 C 10.89 g/m*3 14.6 C 0 km/h
879 23-05-2003 02:19:02 14.5 C 10.82 g/m*3 14.5 C 0 km/h
880 23-05-2003 02:29:02 14.5 C 10.94 g/m*3 14.5 C 0 km/h
881 23-05-2003 02:39:02 14.5 C 10.94 g/m*3 14.5 C 0 km/h
882 23-05-2003 02:49:02 14.5 C 10.94 g/m*3 14.5 C 0 km/h
883 23-05-2003 02:59:02 14.5 C 10.94 g/m*3 14.5 C 0 km/h
884 23-05-2003 03:09:02 14.8 C 11.02 g/m*3 14.8 C 0 km/h
885 23-05-2003 03:19:02 15.1 C 10.84 g/m*3 15.1 C 0 km/h
886 23-05-2003 03:29:02 15.1 C 10.84 g/m*3 15.1 C 0 km/h
887 23-05-2003 03:39:02 15.2 C 10.9 g/m*3 15.2 C 0 km/h
888 23-05-2003 03:49:02 15.4 C 11.04 g/m*3 15.4 C 0 km/h
889 23-05-2003 03:59:02 15.3 C 10.97 g/m*3 15.3 C 0 km/h
890 23-05-2003 04:09:02 15.5 C 11.1 g/m*3 15.5 C 0 km/h
891 23-05-2003 04:19:02 15.6 C 11.04 g/m*3 15.6 C 0 km/h
892 23-05-2003 04:29:02 15.5 C 10.97 g/m*3 15.5 C 0 km/h
893 23-05-2003 04:39:02 15.5 C 10.97 g/m*3 15.5 C 0 km/h
894 23-05-2003 04:49:02 15.5 C 10.97 g/m*3 15.5 C 0 km/h
895 23-05-2003 04:59:02 15.4 C 11.04 g/m*3 15.4 C 0 km/h
896 23-05-2003 05:09:02 15.6 C 11.04 g/m*3 15.6 C 0 km/h
897 23-05-2003 05:19:02 15.6 C 10.91 g/m*3 15.6 C 0 km/h
898 23-05-2003 05:29:02 15.7 C 10.84 g/m*3 15.7 C 0 km/h
899 23-05-2003 05:39:02 15.6 C 10.64 g/m*3 15.6 C 0 km/h
900 23-05-2003 05:49:02 15.6 C 10.64 g/m*3 15.6 C 0 km/h
Sensor: Nr:Datum:Temp:Abs-Feuchte:Windchill:Wind:
Aussen-T/F 901 23-05-2003 05:59:02 15.5 C 10.57 g/m*3 15.5 C 0 km/h
902 23-05-2003 06:09:02 15.6 C 10.64 g/m*3 15.6 C 0 km/h
903 23-05-2003 06:19:02 15.6 C 10.51 g/m*3 15.6 C 0 km/h
904 23-05-2003 06:29:02 15.6 C 10.51 g/m*3 15.6 C 0 km/h
905 23-05-2003 06:39:02 15.6 C 10.51 g/m*3 15.6 C 0 km/h
906 23-05-2003 06:49:02 15.8 C 10.5 g/m*3 15.8 C 0 km/h
907 23-05-2003 06:59:02 15.8 C 10.5 g/m*3 15.8 C 0 km/h
908 23-05-2003 07:09:02 15.9 C 10.43 g/m*3 15.9 C 0 km/h
909 23-05-2003 07:19:02 16 C 10.35 g/m*3 16 C 0 km/h
910 23-05-2003 07:29:02 16 C 10.35 g/m*3 16 C 0 km/h
911 23-05-2003 07:39:01 15.9 C 10.43 g/m*3 15.9 C 0 km/h
912 23-05-2003 07:49:01 16 C 10.35 g/m*3 16 C 0 km/h
913 23-05-2003 07:59:01 16 C 10.08 g/m*3 16 C 0 km/h
914 23-05-2003 08:09:08 16.2 C 9.93 g/m*3 16.2 C 0 km/h
915 23-05-2003 08:19:08 16.4 C 9.91 g/m*3 16.4 C 0 km/h
916 23-05-2003 08:29:08 16.3 C 9.85 g/m*3 16.3 C 0 km/h
917 23-05-2003 08:39:01 16.4 C 9.77 g/m*3 16.4 C 0 km/h
918 23-05-2003 08:49:01 16.6 C 9.89 g/m*3 16.6 C 0 km/h
919 23-05-2003 08:59:01 16.8 C 9.72 g/m*3 16.8 C 0 km/h
920 23-05-2003 09:09:01 17.1 C 9.46 g/m*3 17.1 C 0 km/h
921 23-05-2003 09:19:01 17.3 C 8.99 g/m*3 17.3 C 0 km/h
922 23-05-2003 09:29:01 17.5 C 9.09 g/m*3 17.5 C 0 km/h
923 23-05-2003 09:39:01 17.7 C 9.2 g/m*3 17.7 C 0 km/h
924 23-05-2003 09:49:01 17.8 C 9.11 g/m*3 17.8 C 0 km/h
925 23-05-2003 09:59:01 18.1 C 9.27 g/m*3 18.1 C 0 km/h
Sensor: Nr:Datum:Temp:Abs-Feuchte:Windchill:Wind:
Aussen-T/F 926 23-05-2003 10:09:01 18.1 C 9.27 g/m*3 18.1 C 0 km/h
927 23-05-2003 10:19:01 18.2 C 9.48 g/m*3 18.2 C 0 km/h
928 23-05-2003 10:29:01 18.6 C 9.55 g/m*3 18.6 C 0 km/h
929 23-05-2003 10:39:01 18.9 C 8.91 g/m*3 18.9 C 0 km/h
930 23-05-2003 10:49:01 18.8 C 8.54 g/m*3 18.8 C 0 km/h
931 23-05-2003 10:59:01 18.8 C 8.05 g/m*3 18.8 C 0 km/h
932 23-05-2003 11:09:02 18.8 C 8.05 g/m*3 18.8 C 0 km/h
933 23-05-2003 11:19:02 19.1 C 7.7 g/m*3 19.1 C 0 km/h
934 23-05-2003 11:29:02 19.7 C 7.81 g/m*3 19.7 C 0 km/h
935 23-05-2003 11:39:01 19.5 C 7.55 g/m*3 19.5 C 0 km/h
936 23-05-2003 11:49:01 19.9 C 7.56 g/m*3 19.9 C 0 km/h
937 23-05-2003 11:59:01 20.5 C 7.47 g/m*3 20.5 C 0 km/h
938 23-05-2003 12:09:02 20.5 C 7.3 g/m*3 20.5 C 0 km/h
939 23-05-2003 12:19:02 20.5 C 7.47 g/m*3 20.5 C 0 km/h
940 23-05-2003 12:29:02 20.3 C 7.21 g/m*3 20.3 C 0 km/h
941 23-05-2003 12:39:00 20.7 C 7.38 g/m*3 20.7 C 0 km/h
942 23-05-2003 12:49:00 20.8 C 7.24 g/m*3 20.8 C 0 km/h
943 23-05-2003 12:59:00 21.3 C 7.27 g/m*3 21.3 C 0 km/h
944 23-05-2003 13:09:02 21.7 C 7.25 g/m*3 21.7 C 0 km/h
945 23-05-2003 13:19:02 22 C 6.99 g/m*3 22 C 0 km/h
946 23-05-2003 13:29:02 22.2 C 6.87 g/m*3 22.2 C 0 km/h
947 23-05-2003 13:39:01 22.2 C 6.48 g/m*3 22.2 C 0 km/h
948 23-05-2003 13:49:01 22.4 C 6.75 g/m*3 22.4 C 0 km/h
949 23-05-2003 13:59:01 22.3 C 6.71 g/m*3 22.3 C 0 km/h
950 23-05-2003 14:09:00 22.8 C 6.91 g/m*3 22.8 C 0 km/h
Sensor: Nr:Datum:Temp:Abs-Feuchte:Windchill:Wind:
Aussen-T/F 951 23-05-2003 14:19:00 22.4 C 6.55 g/m*3 22.4 C 0 km/h
952 23-05-2003 14:29:00 22.5 C 6.59 g/m*3 22.5 C 0 km/h
953 23-05-2003 14:39:00 22.8 C 6.71 g/m*3 22.8 C 0 km/h
954 23-05-2003 14:49:00 22.4 C 6.16 g/m*3 22.4 C 0 km/h
955 23-05-2003 14:59:00 22.9 C 6.74 g/m*3 22.9 C 0 km/h
956 23-05-2003 15:09:00 23.3 C 6.48 g/m*3 23.3 C 0 km/h
957 23-05-2003 15:19:00 23.8 C 6.67 g/m*3 23.8 C 0 km/h
958 23-05-2003 15:29:00 24.3 C 6.86 g/m*3 24.3 C 0 km/h
959 23-05-2003 15:39:01 23.8 C 6.67 g/m*3 23.8 C 0 km/h
960 23-05-2003 15:49:01 24.1 C 6.56 g/m*3 24.1 C 0 km/h
961 23-05-2003 15:59:01 23.8 C 6.88 g/m*3 23.8 C 0 km/h
962 23-05-2003 16:09:01 24.1 C 6.78 g/m*3 24.1 C 0 km/h
963 23-05-2003 16:19:01 24.1 C 7 g/m*3 24.1 C 0 km/h
964 23-05-2003 16:29:01 24 C 6.53 g/m*3 24 C 0 km/h
965 23-05-2003 16:39:01 23.6 C 6.59 g/m*3 23.6 C 0 km/h
966 23-05-2003 16:49:01 23.4 C 6.52 g/m*3 23.4 C 0 km/h
967 23-05-2003 16:59:01 23.5 C 7.4 g/m*3 23.5 C 0 km/h
968 23-05-2003 17:09:01 24.4 C 6.9 g/m*3 24.4 C 0 km/h
969 23-05-2003 17:19:01 24.6 C 6.75 g/m*3 24.6 C 0 km/h
970 23-05-2003 17:29:01 25.2 C 6.75 g/m*3 25.2 C 0 km/h
971 23-05-2003 17:39:01 25.3 C 7.02 g/m*3 25.3 C 0 km/h
972 23-05-2003 17:49:01 25.6 C 6.19 g/m*3 25.6 C 0 km/h
973 23-05-2003 17:59:01 25.3 C 6.09 g/m*3 25.3 C 0 km/h
974 23-05-2003 18:09:01 25.7 C 6.22 g/m*3 25.7 C 0 km/h
975 23-05-2003 18:19:01 24.3 C 5.75 g/m*3 24.3 C 0 km/h
Sensor: Nr:Datum:Temp:Abs-Feuchte:Windchill:Wind:
Aussen-T/F 976 23-05-2003 18:29:01 24.2 C 5.5 g/m*3 24.2 C 0 km/h
977 23-05-2003 18:39:02 24.1 C 5.47 g/m*3 24.1 C 0 km/h
978 23-05-2003 18:49:02 24.1 C 5.47 g/m*3 24.1 C 0 km/h
979 23-05-2003 18:59:02 24.8 C 5.69 g/m*3 24.8 C 0 km/h
980 23-05-2003 19:09:02 24.7 C 5.66 g/m*3 24.7 C 0 km/h
981 23-05-2003 19:19:02 24.9 C 5.72 g/m*3 24.9 C 0 km/h
982 23-05-2003 19:29:02 25.5 C 5.92 g/m*3 25.5 C 0 km/h
983 23-05-2003 19:39:01 24.5 C 5.82 g/m*3 24.5 C 0 km/h
984 23-05-2003 19:49:01 24.6 C 6.53 g/m*3 24.6 C 0 km/h
985 23-05-2003 19:59:01 24.2 C 7.04 g/m*3 24.2 C 0 km/h
986 23-05-2003 20:09:03 23.3 C 6.9 g/m*3 23.3 C 0 km/h
987 23-05-2003 20:19:03 22.9 C 7.36 g/m*3 22.9 C 0 km/h
988 23-05-2003 20:29:03 22.5 C 7.19 g/m*3 22.5 C 0 km/h
989 23-05-2003 20:39:01 21.9 C 7.53 g/m*3 21.9 C 0 km/h
990 23-05-2003 20:49:01 21.2 C 7.6 g/m*3 21.2 C 0 km/h
991 23-05-2003 20:59:01 20.4 C 7.61 g/m*3 20.4 C 0 km/h
992 23-05-2003 21:09:02 19.7 C 7.64 g/m*3 19.7 C 0 km/h
993 23-05-2003 21:19:02 19.1 C 7.7 g/m*3 19.1 C 0 km/h
994 23-05-2003 21:29:02 18.6 C 8.12 g/m*3 18.6 C 0 km/h
995 23-05-2003 21:39:01 18.2 C 7.46 g/m*3 18.2 C 0 km/h
996 23-05-2003 21:49:01 17.9 C 7.79 g/m*3 17.9 C 0 km/h
997 23-05-2003 21:59:01 17.6 C 7.8 g/m*3 17.6 C 0 km/h
998 23-05-2003 22:09:01 17.3 C 7.51 g/m*3 17.3 C 0 km/h
999 23-05-2003 22:19:01 17 C 7.67 g/m*3 17 C 0 km/h
1000 23-05-2003 22:29:01 17 C 7.67 g/m*3 17 C 0 km/h
Sensor: Nr:Datum:Temp:Abs-Feuchte:Windchill:Wind:
Aussen-T/F 1001 23-05-2003 22:39:00 16.4 C 7.96 g/m*3 16.4 C 0 km/h
1002 23-05-2003 22:49:00 16.8 C 8.01 g/m*3 16.8 C 0 km/h
1003 23-05-2003 22:59:00 16.8 C 7.86 g/m*3 16.8 C 0 km/h
1004 23-05-2003 23:09:00 16.6 C 8.33 g/m*3 16.6 C 0 km/h
1005 23-05-2003 23:19:00 16.3 C 8.46 g/m*3 16.3 C 0 km/h
1006 23-05-2003 23:29:00 16.2 C 8.27 g/m*3 16.2 C 0 km/h
1007 23-05-2003 23:39:01 16.1 C 8.09 g/m*3 16.1 C 0 km/h
1008 23-05-2003 23:49:01 16 C 8.45 g/m*3 16 C 0 km/h
1009 23-05-2003 23:59:01 16 C 8.31 g/m*3 16 C 0 km/h
1010 24-05-2003 00:10:02 15.8 C 8.48 g/m*3 15.8 C 0 km/h
1011 24-05-2003 00:20:02 15.8 C 8.62 g/m*3 15.8 C 0 km/h
1012 24-05-2003 00:30:02 15.7 C 8.56 g/m*3 15.7 C 0 km/h
1013 24-05-2003 00:40:02 15.7 C 8.7 g/m*3 15.7 C 0 km/h
1014 24-05-2003 00:50:02 15.6 C 8.64 g/m*3 15.6 C 0 km/h
1015 24-05-2003 01:00:02 15.4 C 8.67 g/m*3 15.4 C 0 km/h
1016 24-05-2003 01:10:02 15.2 C 8.44 g/m*3 15.2 C 0 km/h
1017 24-05-2003 01:20:02 15.1 C 8.64 g/m*3 15.1 C 0 km/h
1018 24-05-2003 01:30:02 15.1 C 8.77 g/m*3 15.1 C 0 km/h
1019 24-05-2003 01:40:02 15 C 8.59 g/m*3 15 C 0 km/h
1020 24-05-2003 01:50:02 15 C 8.59 g/m*3 15 C 0 km/h
1021 24-05-2003 02:00:02 15 C 8.59 g/m*3 15 C 0 km/h
1022 24-05-2003 02:10:02 15 C 8.72 g/m*3 15 C 0 km/h
1023 24-05-2003 02:20:02 14.9 C 8.79 g/m*3 14.9 C 0 km/h
1024 24-05-2003 02:30:02 14.6 C 8.76 g/m*3 14.6 C 0 km/h
1025 24-05-2003 02:40:02 14.6 C 8.76 g/m*3 14.6 C 0 km/h
Sensor: Nr:Datum:Temp:Abs-Feuchte:Windchill:Wind:
Aussen-T/F 1026 24-05-2003 02:50:02 14.6 C 8.76 g/m*3 14.6 C 0 km/h
1027 24-05-2003 03:00:02 14.4 C 8.65 g/m*3 14.4 C 0 km/h
1028 24-05-2003 03:10:02 14.2 C 8.67 g/m*3 14.2 C 0 km/h
1029 24-05-2003 03:20:02 14.1 C 8.62 g/m*3 14.1 C 0 km/h
1030 24-05-2003 03:30:02 14 C 8.68 g/m*3 14 C 0 km/h
1031 24-05-2003 03:40:02 14 C 8.56 g/m*3 14 C 0 km/h
1032 24-05-2003 03:50:02 13.7 C 8.64 g/m*3 13.7 C 0 km/h
1033 24-05-2003 04:00:02 13.6 C 8.71 g/m*3 13.6 C 0 km/h
1034 24-05-2003 04:10:02 13.5 C 8.66 g/m*3 13.5 C 0 km/h
1035 24-05-2003 04:20:02 13.3 C 8.55 g/m*3 13.3 C 0 km/h
1036 24-05-2003 04:30:02 13.3 C 8.66 g/m*3 13.3 C 0 km/h
1037 24-05-2003 04:40:02 13.3 C 8.78 g/m*3 13.3 C 0 km/h
1038 24-05-2003 04:50:02 13.3 C 8.78 g/m*3 13.3 C 0 km/h
1039 24-05-2003 05:00:02 13.3 C 8.9 g/m*3 13.3 C 0 km/h
1040 24-05-2003 05:10:02 13.4 C 8.95 g/m*3 13.4 C 0 km/h
1041 24-05-2003 05:20:02 13.3 C 8.9 g/m*3 13.3 C 0 km/h
1042 24-05-2003 05:30:02 13.2 C 8.96 g/m*3 13.2 C 0 km/h
1043 24-05-2003 05:40:02 13.2 C 9.07 g/m*3 13.2 C 0 km/h
1044 24-05-2003 05:50:02 13.1 C 9.01 g/m*3 13.1 C 0 km/h
1045 24-05-2003 06:00:02 13 C 8.96 g/m*3 13 C 0 km/h
1046 24-05-2003 06:10:02 13 C 9.07 g/m*3 13 C 0 km/h
1047 24-05-2003 06:20:02 13.1 C 9.24 g/m*3 13.1 C 0 km/h
1048 24-05-2003 06:30:02 13.3 C 9.24 g/m*3 13.3 C 0 km/h
1049 24-05-2003 06:40:02 13.5 C 9.24 g/m*3 13.5 C 0 km/h
1050 24-05-2003 06:50:02 13.6 C 9.3 g/m*3 13.6 C 0 km/h
Sensor: Nr:Datum:Temp:Abs-Feuchte:Windchill:Wind:
Aussen-T/F 1051 24-05-2003 07:00:02 13.7 C 9.35 g/m*3 13.7 C 0 km/h
1052 24-05-2003 07:10:02 13.9 C 9.35 g/m*3 13.9 C 0 km/h
1053 24-05-2003 07:20:02 13.9 C 9.35 g/m*3 13.9 C 0 km/h
1054 24-05-2003 07:30:02 14.2 C 9.4 g/m*3 14.2 C 0 km/h
1055 24-05-2003 07:40:02 14.3 C 9.34 g/m*3 14.3 C 0 km/h
1056 24-05-2003 07:50:02 14.5 C 9.33 g/m*3 14.5 C 0 km/h
1057 24-05-2003 08:00:02 14.7 C 9.32 g/m*3 14.7 C 0 km/h
1058 24-05-2003 08:10:02 14.8 C 9.5 g/m*3 14.8 C 0 km/h
1059 24-05-2003 08:20:02 14.4 C 9.64 g/m*3 14.4 C 0 km/h
1060 24-05-2003 08:30:02 14.2 C 9.65 g/m*3 14.2 C 0 km/h
1061 24-05-2003 08:40:02 14.4 C 9.64 g/m*3 14.4 C 0 km/h
1062 24-05-2003 08:50:02 14.8 C 9.88 g/m*3 14.8 C 0 km/h
1063 24-05-2003 09:00:02 15 C 9.75 g/m*3 15 C 0 km/h
1064 24-05-2003 09:10:02 15.7 C 10.03 g/m*3 15.7 C 0 km/h
1065 24-05-2003 09:20:02 16.1 C 10.14 g/m*3 16.1 C 0 km/h
1066 24-05-2003 09:30:02 16.9 C 10.64 g/m*3 16.9 C 0 km/h
1067 24-05-2003 09:40:02 17.4 C 10.08 g/m*3 17.4 C 0 km/h
1068 24-05-2003 09:50:02 17.9 C 10.38 g/m*3 17.9 C 0 km/h
1069 24-05-2003 10:00:02 18.2 C 10.1 g/m*3 18.2 C 0 km/h
1070 24-05-2003 10:10:02 18.1 C 9.89 g/m*3 18.1 C 0 km/h
1071 24-05-2003 10:20:02 18.3 C 10.16 g/m*3 18.3 C 0 km/h
1072 24-05-2003 10:30:02 19 C 10.1 g/m*3 19 C 0 km/h
1073 24-05-2003 10:40:02 19.6 C 9.96 g/m*3 19.6 C 0 km/h
1074 24-05-2003 10:50:02 19.7 C 9.68 g/m*3 19.7 C 0 km/h
1075 24-05-2003 11:00:02 20.2 C 9.79 g/m*3 20.2 C 0 km/h
Sensor: Nr:Datum:Temp:Abs-Feuchte:Windchill:Wind:
Aussen-T/F 1076 24-05-2003 11:10:02 20.4 C 9.73 g/m*3 20.4 C 0 km/h
1077 24-05-2003 11:20:02 20.3 C 9.85 g/m*3 20.3 C 0 km/h
1078 24-05-2003 11:30:02 20.3 C 10.02 g/m*3 20.3 C 0 km/h
1079 24-05-2003 11:40:01 20.8 C 10.32 g/m*3 20.8 C 0 km/h
1080 24-05-2003 11:50:01 21.6 C 10.05 g/m*3 21.6 C 0 km/h
1081 24-05-2003 12:00:01 22 C 9.7 g/m*3 22 C 0 km/h
1082 24-05-2003 12:10:00 22.6 C 9.84 g/m*3 22.6 C 0 km/h
1083 24-05-2003 12:20:00 22.3 C 9.08 g/m*3 22.3 C 0 km/h
1084 24-05-2003 12:30:00 22.7 C 9.5 g/m*3 22.7 C 0 km/h
1085 24-05-2003 12:40:01 23.4 C 9.04 g/m*3 23.4 C 0 km/h
1086 24-05-2003 12:50:01 23.9 C 9.74 g/m*3 23.9 C 0 km/h
1087 24-05-2003 13:00:01 24.1 C 9.19 g/m*3 24.1 C 0 km/h
1088 24-05-2003 13:10:02 24.4 C 9.57 g/m*3 24.4 C 0 km/h
1089 24-05-2003 13:20:02 24.6 C 9.68 g/m*3 24.6 C 0 km/h
1090 24-05-2003 13:30:02 25.2 C 8.85 g/m*3 25.2 C 0 km/h
1091 24-05-2003 13:40:01 24.8 C 9.1 g/m*3 24.8 C 0 km/h
1092 24-05-2003 13:50:01 24.9 C 9.16 g/m*3 24.9 C 0 km/h
1093 24-05-2003 14:00:01 25.9 C 9.68 g/m*3 25.9 C 0 km/h
1094 24-05-2003 14:10:01 26.5 C 9.01 g/m*3 26.5 C 0 km/h
1095 24-05-2003 14:20:01 26.3 C 9.16 g/m*3 26.3 C 0 km/h
1096 24-05-2003 14:30:01 26.7 C 9.87 g/m*3 26.7 C 0 km/h
1097 24-05-2003 14:40:00 26.9 C 9.21 g/m*3 26.9 C 0 km/h
1098 24-05-2003 14:50:00 27 C 9.52 g/m*3 27 C 0 km/h
1099 24-05-2003 15:00:00 27 C 9.01 g/m*3 27 C 0 km/h
1100 24-05-2003 15:10:02 27.1 C 8.8 g/m*3 27.1 C 0 km/h
Sensor: Nr:Datum:Temp:Abs-Feuchte:Windchill:Wind:
Aussen-T/F 1101 24-05-2003 15:20:02 26.6 C 9.06 g/m*3 26.6 C 0 km/h
1102 24-05-2003 15:30:02 26.9 C 8.96 g/m*3 26.9 C 0 km/h
1103 24-05-2003 15:40:01 26.8 C 8.91 g/m*3 26.8 C 0 km/h
1104 24-05-2003 15:50:01 26.2 C 8.86 g/m*3 26.2 C 0 km/h
1105 24-05-2003 16:00:01 26.3 C 8.91 g/m*3 26.3 C 0 km/h
1106 24-05-2003 16:10:01 26.6 C 9.06 g/m*3 26.6 C 0 km/h
1107 24-05-2003 16:20:01 26.9 C 9.21 g/m*3 26.9 C 0 km/h
1108 24-05-2003 16:30:01 28.2 C 9.62 g/m*3 28.2 C 0 km/h
1109 24-05-2003 16:40:02 29.1 C 9.53 g/m*3 29.1 C 0 km/h
1110 24-05-2003 16:50:02 28.9 C 9.71 g/m*3 28.9 C 0 km/h
1111 24-05-2003 17:00:02 29.2 C 9.87 g/m*3 29.2 C 0 km/h
1112 24-05-2003 17:10:01 28.7 C 9.61 g/m*3 28.7 C 0 km/h
1113 24-05-2003 17:20:01 28.4 C 10.84 g/m*3 28.4 C 0 km/h
1114 24-05-2003 17:30:01 27.5 C 9.52 g/m*3 27.5 C 0 km/h
1115 24-05-2003 17:40:01 27.5 C 9.52 g/m*3 27.5 C 0 km/h
1116 24-05-2003 17:50:01 27.3 C 9.68 g/m*3 27.3 C 0 km/h
1117 24-05-2003 18:00:01 27 C 9.52 g/m*3 27 C 0 km/h
1118 24-05-2003 18:10:02 27.7 C 9.36 g/m*3 27.7 C 0 km/h
1119 24-05-2003 18:20:02 28 C 9.52 g/m*3 28 C 0 km/h
1120 24-05-2003 18:30:02 27.8 C 9.41 g/m*3 27.8 C 0 km/h
1121 24-05-2003 18:40:02 26 C 9.01 g/m*3 26 C 0 km/h
1122 24-05-2003 18:50:02 24.5 C 9.4 g/m*3 24.5 C 0 km/h
1123 24-05-2003 19:00:02 24.1 C 9.85 g/m*3 24.1 C 0 km/h
1124 24-05-2003 19:10:01 23.2 C 9.98 g/m*3 23.2 C 0 km/h
1125 24-05-2003 19:20:01 23.2 C 9.98 g/m*3 23.2 C 0 km/h
Sensor: Nr:Datum:Temp:Abs-Feuchte:Windchill:Wind:
Aussen-T/F 1126 24-05-2003 19:30:01 23.4 C 10.09 g/m*3 23.4 C 0 km/h
1127 24-05-2003 19:40:01 23.4 C 10.09 g/m*3 23.4 C 0 km/h
1128 24-05-2003 19:50:01 22.8 C 10.16 g/m*3 22.8 C 0 km/h
1129 24-05-2003 20:10:01 22.5 C 10.39 g/m*3 22.5 C 0 km/h
1130 24-05-2003 20:20:01 22.3 C 10.47 g/m*3 22.3 C 0 km/h
1131 24-05-2003 20:30:01 22 C 10.29 g/m*3 22 C 0 km/h
1132 24-05-2003 20:40:02 21.7 C 10.3 g/m*3 21.7 C 0 km/h
1133 24-05-2003 20:50:02 21.5 C 9.99 g/m*3 21.5 C 0 km/h
1134 24-05-2003 21:00:02 21.4 C 10.12 g/m*3 21.4 C 0 km/h
1135 24-05-2003 21:10:01 21.2 C 10.19 g/m*3 21.2 C 0 km/h
1136 24-05-2003 21:20:01 21.1 C 10.13 g/m*3 21.1 C 0 km/h
1137 24-05-2003 21:30:01 20.8 C 10.14 g/m*3 20.8 C 0 km/h
1138 24-05-2003 21:40:01 20.6 C 10.38 g/m*3 20.6 C 0 km/h
1139 24-05-2003 21:50:01 20.2 C 10.32 g/m*3 20.2 C 0 km/h
1140 24-05-2003 22:00:01 20 C 10.71 g/m*3 20 C 0 km/h
1141 24-05-2003 22:10:01 19.6 C 10.64 g/m*3 19.6 C 0 km/h
1142 24-05-2003 22:20:01 19.6 C 10.8 g/m*3 19.6 C 0 km/h
1143 24-05-2003 22:30:01 17.8 C 11.38 g/m*3 17.8 C 0 km/h
1144 24-05-2003 22:41:03 17.4 C 12.15 g/m*3 17.4 C 0 km/h
1145 24-05-2003 22:51:03 17.5 C 12.37 g/m*3 17.5 C 0 km/h
1146 24-05-2003 23:01:03 17.1 C 11.06 g/m*3 17.1 C 0 km/h
1147 24-05-2003 23:11:03 16.6 C 11.02 g/m*3 16.6 C 0 km/h
1148 24-05-2003 23:21:03 16.3 C 10.82 g/m*3 16.3 C 0 km/h
1149 24-05-2003 23:31:03 16.3 C 10.96 g/m*3 16.3 C 0 km/h
1150 24-05-2003 23:41:03 16.2 C 11.17 g/m*3 16.2 C 0 km/h
Sensor: Nr:Datum:Temp:Abs-Feuchte:Windchill:Wind:
Aussen-T/F 1151 24-05-2003 23:51:03 16.2 C 11.03 g/m*3 16.2 C 0 km/h
1152 25-05-2003 00:01:03 16.2 C 10.89 g/m*3 16.2 C 0 km/h
1153 25-05-2003 00:11:03 16.2 C 11.03 g/m*3 16.2 C 0 km/h
1154 25-05-2003 00:21:03 16.3 C 10.96 g/m*3 16.3 C 0 km/h
1155 25-05-2003 00:31:03 16.1 C 10.69 g/m*3 16.1 C 0 km/h
1156 25-05-2003 00:41:03 16.2 C 10.62 g/m*3 16.2 C 0 km/h
1157 25-05-2003 00:51:03 16.1 C 10.55 g/m*3 16.1 C 0 km/h
1158 25-05-2003 01:01:03 15.9 C 10.29 g/m*3 15.9 C 0 km/h
1159 25-05-2003 01:11:03 15.8 C 9.96 g/m*3 15.8 C 0 km/h
1160 25-05-2003 01:21:03 15.9 C 10.29 g/m*3 15.9 C 0 km/h
1161 25-05-2003 01:31:03 16 C 10.22 g/m*3 16 C 0 km/h
1162 25-05-2003 01:41:03 16 C 10.08 g/m*3 16 C 0 km/h
1163 25-05-2003 01:51:03 15.7 C 10.17 g/m*3 15.7 C 0 km/h
1164 25-05-2003 02:01:03 15.6 C 10.24 g/m*3 15.6 C 0 km/h
1165 25-05-2003 02:11:03 15.4 C 10.12 g/m*3 15.4 C 0 km/h
1166 25-05-2003 02:21:03 15.6 C 10.37 g/m*3 15.6 C 0 km/h
1167 25-05-2003 02:31:03 15.6 C 10.24 g/m*3 15.6 C 0 km/h
1168 25-05-2003 02:41:03 15.3 C 10.19 g/m*3 15.3 C 0 km/h
1169 25-05-2003 02:51:03 15.5 C 10.31 g/m*3 15.5 C 0 km/h
1170 25-05-2003 03:01:03 15.5 C 10.31 g/m*3 15.5 C 0 km/h
1171 25-05-2003 03:11:03 15.4 C 10.38 g/m*3 15.4 C 0 km/h
1172 25-05-2003 03:21:03 15.4 C 10.51 g/m*3 15.4 C 0 km/h
1173 25-05-2003 03:31:03 15.2 C 10.77 g/m*3 15.2 C 0 km/h
1174 25-05-2003 03:41:03 14.9 C 10.83 g/m*3 14.9 C 0 km/h
1175 25-05-2003 03:51:02 14.8 C 11.02 g/m*3 14.8 C 0 km/h
Sensor: Nr:Datum:Temp:Abs-Feuchte:Windchill:Wind:
Aussen-T/F 1176 25-05-2003 03:51:03 14.8 C 11.02 g/m*3 14.8 C 0 km/h
1177 25-05-2003 04:01:02 14.4 C 10.88 g/m*3 14.4 C 0 km/h
1178 25-05-2003 04:11:02 14.4 C 11 g/m*3 14.4 C 0 km/h
1179 25-05-2003 04:21:02 14.4 C 11 g/m*3 14.4 C 0 km/h
1180 25-05-2003 04:31:02 14.3 C 10.93 g/m*3 14.3 C 0 km/h
1181 25-05-2003 04:41:02 14.3 C 10.81 g/m*3 14.3 C 0 km/h
1182 25-05-2003 04:51:02 14.3 C 10.69 g/m*3 14.3 C 0 km/h
1183 25-05-2003 05:01:02 14.3 C 10.69 g/m*3 14.3 C 0 km/h
1184 25-05-2003 05:11:02 14.2 C 10.62 g/m*3 14.2 C 0 km/h
1185 25-05-2003 05:21:02 14.1 C 10.56 g/m*3 14.1 C 0 km/h
1186 25-05-2003 05:31:02 14.1 C 10.68 g/m*3 14.1 C 0 km/h
1187 25-05-2003 05:41:02 14 C 10.49 g/m*3 14 C 0 km/h
1188 25-05-2003 05:51:02 14 C 10.49 g/m*3 14 C 0 km/h
1189 25-05-2003 06:01:02 13.9 C 10.43 g/m*3 13.9 C 0 km/h
1190 25-05-2003 06:11:02 13.6 C 10.24 g/m*3 13.6 C 0 km/h
1191 25-05-2003 06:21:02 13.5 C 10.18 g/m*3 13.5 C 0 km/h
1192 25-05-2003 06:31:01 13.5 C 10.18 g/m*3 13.5 C 0 km/h
1193 25-05-2003 06:31:02 13.5 C 10.18 g/m*3 13.5 C 0 km/h
1194 25-05-2003 06:41:01 13.6 C 10.12 g/m*3 13.6 C 0 km/h
1195 25-05-2003 06:51:01 13.6 C 10.12 g/m*3 13.6 C 0 km/h
1196 25-05-2003 07:01:01 13.7 C 10.18 g/m*3 13.7 C 0 km/h
1197 25-05-2003 07:11:01 13.6 C 10 g/m*3 13.6 C 0 km/h
1198 25-05-2003 07:21:01 13.7 C 9.95 g/m*3 13.7 C 0 km/h
1199 25-05-2003 07:31:01 13.6 C 10 g/m*3 13.6 C 0 km/h
1200 25-05-2003 07:41:01 13.5 C 10.06 g/m*3 13.5 C 0 km/h
Sensor: Nr:Datum:Temp:Abs-Feuchte:Windchill:Wind:
Aussen-T/F 1201 25-05-2003 07:51:01 13.7 C 10.07 g/m*3 13.7 C 0 km/h
1202 25-05-2003 08:01:01 13.9 C 10.19 g/m*3 13.9 C 0 km/h
1203 25-05-2003 08:11:01 13.8 C 9.77 g/m*3 13.8 C 0 km/h
1204 25-05-2003 08:21:01 13.9 C 9.83 g/m*3 13.9 C 0 km/h
1205 25-05-2003 08:31:01 14.2 C 9.77 g/m*3 14.2 C 0 km/h
1206 25-05-2003 08:41:01 14.5 C 9.45 g/m*3 14.5 C 0 km/h
1207 25-05-2003 08:51:01 14.7 C 9.57 g/m*3 14.7 C 0 km/h
1208 25-05-2003 09:01:01 14.7 C 9.57 g/m*3 14.7 C 0 km/h
1209 25-05-2003 09:11:01 14.6 C 9.39 g/m*3 14.6 C 0 km/h
1210 25-05-2003 09:21:01 14.5 C 9.2 g/m*3 14.5 C 0 km/h
1211 25-05-2003 09:31:01 14.5 C 9.2 g/m*3 14.5 C 0 km/h
1212 25-05-2003 09:41:01 14.8 C 9.25 g/m*3 14.8 C 0 km/h
1213 25-05-2003 09:51:01 15.3 C 9.14 g/m*3 15.3 C 0 km/h
1214 25-05-2003 10:01:01 15.4 C 9.07 g/m*3 15.4 C 0 km/h
1215 25-05-2003 10:11:01 15.4 C 8.8 g/m*3 15.4 C 0 km/h
1216 25-05-2003 10:21:01 15.7 C 8.96 g/m*3 15.7 C 0 km/h
1217 25-05-2003 10:31:01 15.9 C 8.8 g/m*3 15.9 C 0 km/h
1218 25-05-2003 10:41:01 16.3 C 8.74 g/m*3 16.3 C 0 km/h
1219 25-05-2003 10:51:01 16.4 C 8.79 g/m*3 16.4 C 0 km/h
1220 25-05-2003 11:01:01 16.8 C 9.01 g/m*3 16.8 C 0 km/h
1221 25-05-2003 11:11:02 17.1 C 8.44 g/m*3 17.1 C 0 km/h
1222 25-05-2003 11:21:02 17.3 C 8.25 g/m*3 17.3 C 0 km/h
1223 25-05-2003 11:31:02 17.7 C 8.15 g/m*3 17.7 C 0 km/h
1224 25-05-2003 11:41:02 17.7 C 8 g/m*3 17.7 C 0 km/h
1225 25-05-2003 11:51:02 17.7 C 8 g/m*3 17.7 C 0 km/h
Sensor: Nr:Datum:Temp:Abs-Feuchte:Windchill:Wind:
Aussen-T/F 1226 25-05-2003 12:01:02 17.5 C 8.2 g/m*3 17.5 C 0 km/h
1227 25-05-2003 12:11:02 17.6 C 8.1 g/m*3 17.6 C 0 km/h
1228 25-05-2003 12:21:02 17.2 C 8.2 g/m*3 17.2 C 0 km/h
1229 25-05-2003 12:31:02 17.5 C 7.9 g/m*3 17.5 C 0 km/h
1230 25-05-2003 12:41:00 17.7 C 7.69 g/m*3 17.7 C 0 km/h
1231 25-05-2003 12:51:00 17.6 C 7.5 g/m*3 17.6 C 0 km/h
1232 25-05-2003 13:01:00 17.5 C 7.45 g/m*3 17.5 C 0 km/h
1233 25-05-2003 13:11:01 17.8 C 7.74 g/m*3 17.8 C 0 km/h
1234 25-05-2003 13:21:01 18.3 C 7.66 g/m*3 18.3 C 0 km/h
1235 25-05-2003 13:31:01 18.3 C 7.35 g/m*3 18.3 C 0 km/h
1236 25-05-2003 13:41:01 18.6 C 7.32 g/m*3 18.6 C 0 km/h
1237 25-05-2003 13:51:01 18.9 C 7.13 g/m*3 18.9 C 0 km/h
1238 25-05-2003 14:01:01 18.8 C 7.25 g/m*3 18.8 C 0 km/h
1239 25-05-2003 14:11:02 18 C 7.22 g/m*3 18 C 0 km/h
1240 25-05-2003 14:21:02 17.4 C 7.56 g/m*3 17.4 C 0 km/h
1241 25-05-2003 14:31:02 17.6 C 7.65 g/m*3 17.6 C 0 km/h
1242 25-05-2003 14:41:01 18.1 C 7.42 g/m*3 18.1 C 0 km/h
1243 25-05-2003 14:51:01 18.3 C 7.35 g/m*3 18.3 C 0 km/h
1244 25-05-2003 15:01:01 18.9 C 7.45 g/m*3 18.9 C 0 km/h
1245 25-05-2003 15:11:01 19.5 C 7.72 g/m*3 19.5 C 0 km/h
1246 25-05-2003 15:21:01 19.1 C 7.05 g/m*3 19.1 C 0 km/h
1247 25-05-2003 15:31:01 19.2 C 7.09 g/m*3 19.2 C 0 km/h
1248 25-05-2003 15:41:01 19.5 C 7.05 g/m*3 19.5 C 0 km/h
1249 25-05-2003 15:51:01 19.7 C 7.3 g/m*3 19.7 C 0 km/h
1250 25-05-2003 16:01:01 18.9 C 6.97 g/m*3 18.9 C 0 km/h
Sensor: Nr:Datum:Temp:Abs-Feuchte:Windchill:Wind:
Aussen-T/F 1251 25-05-2003 16:11:02 19 C 6.52 g/m*3 19 C 0 km/h
1252 25-05-2003 16:21:02 18.8 C 6.6 g/m*3 18.8 C 0 km/h
1253 25-05-2003 16:31:02 18.9 C 6.64 g/m*3 18.9 C 0 km/h
1254 25-05-2003 16:41:01 18.9 C 6.97 g/m*3 18.9 C 0 km/h
1255 25-05-2003 16:51:01 19 C 6.84 g/m*3 19 C 0 km/h
1256 25-05-2003 17:01:01 19.5 C 7.22 g/m*3 19.5 C 0 km/h
1257 25-05-2003 17:11:01 19.1 C 6.88 g/m*3 19.1 C 0 km/h
1258 25-05-2003 17:21:01 19 C 7.17 g/m*3 19 C 0 km/h
1259 25-05-2003 17:31:01 18.5 C 7.12 g/m*3 18.5 C 0 km/h
1260 25-05-2003 17:41:02 18 C 7.07 g/m*3 18 C 0 km/h
1261 25-05-2003 17:51:02 17.9 C 7.18 g/m*3 17.9 C 0 km/h
1262 25-05-2003 18:01:02 17.9 C 7.02 g/m*3 17.9 C 0 km/h
1263 25-05-2003 18:11:02 18 C 6.91 g/m*3 18 C 0 km/h
1264 25-05-2003 18:21:02 17.7 C 6.94 g/m*3 17.7 C 0 km/h
1265 25-05-2003 18:31:02 17.7 C 7.09 g/m*3 17.7 C 0 km/h
1266 25-05-2003 18:41:00 17.5 C 7.16 g/m*3 17.5 C 0 km/h
1267 25-05-2003 18:51:00 17.3 C 6.92 g/m*3 17.3 C 0 km/h
1268 25-05-2003 19:01:00 17.5 C 7.01 g/m*3 17.5 C 0 km/h
1269 25-05-2003 19:11:02 17.3 C 7.07 g/m*3 17.3 C 0 km/h
1270 25-05-2003 19:21:02 17.2 C 7.18 g/m*3 17.2 C 0 km/h
1271 25-05-2003 19:31:02 17.2 C 7.32 g/m*3 17.2 C 0 km/h
1272 25-05-2003 19:41:01 17.1 C 7.42 g/m*3 17.1 C 0 km/h
1273 25-05-2003 19:51:01 16.9 C 7.34 g/m*3 16.9 C 0 km/h
1274 25-05-2003 20:01:01 17 C 7.38 g/m*3 17 C 0 km/h
1275 25-05-2003 20:11:01 16.9 C 7.34 g/m*3 16.9 C 0 km/h
Sensor: Nr:Datum:Temp:Abs-Feuchte:Windchill:Wind:
Aussen-T/F 1276 25-05-2003 20:21:01 16.9 C 7.48 g/m*3 16.9 C 0 km/h
1277 25-05-2003 20:31:01 16.6 C 7.63 g/m*3 16.6 C 0 km/h
1278 25-05-2003 20:41:00 16.5 C 7.58 g/m*3 16.5 C 0 km/h
1279 25-05-2003 20:51:00 16.2 C 7.58 g/m*3 16.2 C 0 km/h
1280 25-05-2003 21:01:00 15.6 C 7.71 g/m*3 15.6 C 0 km/h
1281 25-05-2003 21:11:01 15 C 7.44 g/m*3 15 C 0 km/h
1282 25-05-2003 21:21:01 14.4 C 7.54 g/m*3 14.4 C 0 km/h
1283 25-05-2003 21:31:01 14.1 C 7.52 g/m*3 14.1 C 0 km/h
1284 25-05-2003 21:42:01 14.1 C 7.65 g/m*3 14.1 C 0 km/h
1285 25-05-2003 21:52:01 14.1 C 7.77 g/m*3 14.1 C 0 km/h
1286 25-05-2003 22:02:01 14.1 C 8.01 g/m*3 14.1 C 0 km/h
1287 25-05-2003 22:12:01 14.1 C 8.01 g/m*3 14.1 C 0 km/h
1288 25-05-2003 22:22:01 14.2 C 8.06 g/m*3 14.2 C 0 km/h
1289 25-05-2003 22:32:01 14.2 C 7.94 g/m*3 14.2 C 0 km/h
1290 25-05-2003 22:42:01 14.1 C 7.89 g/m*3 14.1 C 0 km/h
1291 25-05-2003 22:52:01 13.7 C 8.05 g/m*3 13.7 C 0 km/h
1292 25-05-2003 23:02:01 13.6 C 8.12 g/m*3 13.6 C 0 km/h
1293 25-05-2003 23:12:01 13.4 C 8.02 g/m*3 13.4 C 0 km/h
1294 25-05-2003 23:22:01 13.5 C 7.95 g/m*3 13.5 C 0 km/h
1295 25-05-2003 23:32:01 13.5 C 8.07 g/m*3 13.5 C 0 km/h
1296 25-05-2003 23:42:01 13.4 C 7.9 g/m*3 13.4 C 0 km/h
1297 25-05-2003 23:52:01 13.4 C 7.9 g/m*3 13.4 C 0 km/h
1298 26-05-2003 00:02:01 13.1 C 7.87 g/m*3 13.1 C 0 km/h
1299 26-05-2003 00:12:01 13.1 C 8.1 g/m*3 13.1 C 0 km/h
1300 26-05-2003 00:22:01 13.2 C 8.04 g/m*3 13.2 C 0 km/h
Sensor: Nr:Datum:Temp:Abs-Feuchte:Windchill:Wind:
Aussen-T/F 1301 26-05-2003 00:32:01 13.3 C 8.09 g/m*3 13.3 C 0 km/h
1302 26-05-2003 00:42:01 13.2 C 8.27 g/m*3 13.2 C 0 km/h
1303 26-05-2003 00:52:01 13.2 C 8.04 g/m*3 13.2 C 0 km/h
1304 26-05-2003 01:02:01 13.1 C 8.22 g/m*3 13.1 C 0 km/h
1305 26-05-2003 01:12:01 13 C 8.51 g/m*3 13 C 0 km/h
1306 26-05-2003 01:22:01 12.7 C 8.57 g/m*3 12.7 C 0 km/h
1307 26-05-2003 01:32:01 12.8 C 8.51 g/m*3 12.8 C 0 km/h
1308 26-05-2003 01:42:01 13 C 8.39 g/m*3 13 C 0 km/h
1309 26-05-2003 01:52:01 13.1 C 8.22 g/m*3 13.1 C 0 km/h
1310 26-05-2003 02:02:01 13.1 C 8.33 g/m*3 13.1 C 0 km/h
1311 26-05-2003 02:12:01 13.1 C 8.44 g/m*3 13.1 C 0 km/h
1312 26-05-2003 02:22:01 13 C 8.28 g/m*3 13 C 0 km/h
1313 26-05-2003 02:32:01 13 C 8.39 g/m*3 13 C 0 km/h
1314 26-05-2003 02:42:01 12.9 C 8.34 g/m*3 12.9 C 0 km/h
1315 26-05-2003 02:52:01 12.9 C 8.34 g/m*3 12.9 C 0 km/h
1316 26-05-2003 03:02:01 12.8 C 8.29 g/m*3 12.8 C 0 km/h
1317 26-05-2003 03:12:01 12.5 C 8.36 g/m*3 12.5 C 0 km/h
1318 26-05-2003 03:22:01 12.4 C 8.3 g/m*3 12.4 C 0 km/h
1319 26-05-2003 03:32:01 12.5 C 8.36 g/m*3 12.5 C 0 km/h
1320 26-05-2003 03:42:01 12.5 C 8.25 g/m*3 12.5 C 0 km/h
1321 26-05-2003 03:52:01 12.5 C 8.14 g/m*3 12.5 C 0 km/h
1322 26-05-2003 04:02:01 12.5 C 8.14 g/m*3 12.5 C 0 km/h
1323 26-05-2003 04:12:01 12.5 C 8.03 g/m*3 12.5 C 0 km/h
1324 26-05-2003 04:22:01 12.5 C 8.03 g/m*3 12.5 C 0 km/h
1325 26-05-2003 04:32:01 12.5 C 8.14 g/m*3 12.5 C 0 km/h
Sensor: Nr:Datum:Temp:Abs-Feuchte:Windchill:Wind:
Aussen-T/F 1326 26-05-2003 04:42:01 12.5 C 8.03 g/m*3 12.5 C 0 km/h
1327 26-05-2003 04:52:01 12.4 C 7.98 g/m*3 12.4 C 0 km/h
1328 26-05-2003 05:02:01 12.4 C 8.09 g/m*3 12.4 C 0 km/h
1329 26-05-2003 05:12:01 12.3 C 8.04 g/m*3 12.3 C 0 km/h
1330 26-05-2003 05:22:01 12.3 C 8.04 g/m*3 12.3 C 0 km/h
1331 26-05-2003 05:32:01 12.3 C 8.14 g/m*3 12.3 C 0 km/h
1332 26-05-2003 05:42:01 12.4 C 8.09 g/m*3 12.4 C 0 km/h
1333 26-05-2003 05:52:01 12.3 C 8.14 g/m*3 12.3 C 0 km/h
1334 26-05-2003 06:02:01 12.3 C 8.14 g/m*3 12.3 C 0 km/h
1335 26-05-2003 06:12:01 12.4 C 8.19 g/m*3 12.4 C 0 km/h
1336 26-05-2003 06:22:01 12.5 C 8.25 g/m*3 12.5 C 0 km/h
1337 26-05-2003 06:32:01 12.6 C 8.3 g/m*3 12.6 C 0 km/h
1338 26-05-2003 06:42:01 12.7 C 8.35 g/m*3 12.7 C 0 km/h
1339 26-05-2003 06:52:01 12.7 C 8.35 g/m*3 12.7 C 0 km/h
1340 26-05-2003 07:02:01 12.8 C 8.4 g/m*3 12.8 C 0 km/h
1341 26-05-2003 07:12:01 12.9 C 8.34 g/m*3 12.9 C 0 km/h
1342 26-05-2003 07:22:01 13 C 8.28 g/m*3 13 C 0 km/h
1343 26-05-2003 07:32:01 13.2 C 8.38 g/m*3 13.2 C 0 km/h
1344 26-05-2003 07:42:01 13.2 C 8.27 g/m*3 13.2 C 0 km/h
1345 26-05-2003 07:52:01 13.4 C 8.37 g/m*3 13.4 C 0 km/h
1346 26-05-2003 08:02:01 13.6 C 8.36 g/m*3 13.6 C 0 km/h
1347 26-05-2003 08:12:01 13.9 C 8.51 g/m*3 13.9 C 0 km/h
1348 26-05-2003 08:22:01 14.2 C 8.3 g/m*3 14.2 C 0 km/h
1349 26-05-2003 08:32:02 14.3 C 8.35 g/m*3 14.3 C 0 km/h
1350 26-05-2003 08:42:02 14.6 C 8.51 g/m*3 14.6 C 0 km/h
Sensor: Nr:Datum:Temp:Abs-Feuchte:Windchill:Wind:
Aussen-T/F 1351 26-05-2003 08:52:02 14.8 C 8.49 g/m*3 14.8 C 0 km/h
1352 26-05-2003 09:02:01 15.1 C 8.39 g/m*3 15.1 C 0 km/h
1353 26-05-2003 09:12:01 15.1 C 8.26 g/m*3 15.1 C 0 km/h
1354 26-05-2003 09:22:01 15.5 C 8.46 g/m*3 15.5 C 0 km/h
1355 26-05-2003 09:32:01 15.6 C 8.25 g/m*3 15.6 C 0 km/h
1356 26-05-2003 09:42:01 16.3 C 8.46 g/m*3 16.3 C 0 km/h
1357 26-05-2003 09:52:01 16.7 C 8.38 g/m*3 16.7 C 0 km/h
1358 26-05-2003 10:02:00 16.7 C 8.24 g/m*3 16.7 C 0 km/h
1359 26-05-2003 10:12:00 17.3 C 8.4 g/m*3 17.3 C 0 km/h
1360 26-05-2003 10:22:00 17.5 C 8.35 g/m*3 17.5 C 0 km/h
1361 26-05-2003 10:32:01 17.6 C 8.1 g/m*3 17.6 C 0 km/h
1362 26-05-2003 10:42:01 17.7 C 8 g/m*3 17.7 C 0 km/h
1363 26-05-2003 10:52:01 17.9 C 7.94 g/m*3 17.9 C 0 km/h
1364 26-05-2003 11:02:02 18.1 C 7.73 g/m*3 18.1 C 0 km/h
1365 26-05-2003 11:12:02 18.5 C 7.91 g/m*3 18.5 C 0 km/h
1366 26-05-2003 11:22:02 19 C 7.99 g/m*3 19 C 0 km/h
1367 26-05-2003 11:32:02 19.3 C 7.96 g/m*3 19.3 C 0 km/h
1368 26-05-2003 11:42:02 19.3 C 7.8 g/m*3 19.3 C 0 km/h
1369 26-05-2003 11:52:02 19.3 C 7.63 g/m*3 19.3 C 0 km/h
1370 26-05-2003 12:02:01 18.6 C 7.64 g/m*3 18.6 C 0 km/h
1371 26-05-2003 12:12:01 18.8 C 8.05 g/m*3 18.8 C 0 km/h
1372 26-05-2003 12:22:01 19.5 C 7.89 g/m*3 19.5 C 0 km/h
1373 26-05-2003 12:32:00 20.8 C 8.15 g/m*3 20.8 C 0 km/h
1374 26-05-2003 12:42:00 21.7 C 7.63 g/m*3 21.7 C 0 km/h
1375 26-05-2003 12:52:00 22 C 7.18 g/m*3 22 C 0 km/h
Sensor: Nr:Datum:Temp:Abs-Feuchte:Windchill:Wind:
Aussen-T/F 1376 26-05-2003 13:02:01 22.5 C 7.59 g/m*3 22.5 C 0 km/h
1377 26-05-2003 13:12:01 23.2 C 6.86 g/m*3 23.2 C 0 km/h
1378 26-05-2003 13:22:01 21.8 C 7.67 g/m*3 21.8 C 0 km/h
1379 26-05-2003 13:32:01 21.5 C 6.98 g/m*3 21.5 C 0 km/h
1380 26-05-2003 13:42:01 22.5 C 6.79 g/m*3 22.5 C 0 km/h
1381 26-05-2003 13:52:01 23 C 6.78 g/m*3 23 C 0 km/h
1382 26-05-2003 14:02:01 22.7 C 7.07 g/m*3 22.7 C 0 km/h
1383 26-05-2003 14:12:01 22 C 6.79 g/m*3 22 C 0 km/h
1384 26-05-2003 14:22:01 22.7 C 7.48 g/m*3 22.7 C 0 km/h
1385 26-05-2003 14:32:01 22.8 C 7.11 g/m*3 22.8 C 0 km/h
1386 26-05-2003 14:52:01 23.4 C 6.94 g/m*3 23.4 C 0 km/h
1387 26-05-2003 15:02:01 23.3 C 6.69 g/m*3 23.3 C 0 km/h
1388 26-05-2003 15:12:01 23.3 C 6.9 g/m*3 23.3 C 0 km/h
1389 26-05-2003 15:22:01 23.4 C 6.73 g/m*3 23.4 C 0 km/h
1390 26-05-2003 15:32:02 23.3 C 6.69 g/m*3 23.3 C 0 km/h
1391 26-05-2003 15:42:02 23.9 C 6.92 g/m*3 23.9 C 0 km/h
1392 26-05-2003 15:52:02 24.5 C 6.94 g/m*3 24.5 C 0 km/h
1393 26-05-2003 16:02:02 23.7 C 7.06 g/m*3 23.7 C 0 km/h
1394 26-05-2003 16:12:02 23.3 C 6.69 g/m*3 23.3 C 0 km/h
1395 26-05-2003 16:22:02 23.7 C 6.84 g/m*3 23.7 C 0 km/h
1396 26-05-2003 16:32:00 23.5 C 6.77 g/m*3 23.5 C 0 km/h
1397 26-05-2003 16:42:00 24 C 7.18 g/m*3 24 C 0 km/h
1398 26-05-2003 16:52:00 24.1 C 7 g/m*3 24.1 C 0 km/h
1399 26-05-2003 17:02:01 24.1 C 7.22 g/m*3 24.1 C 0 km/h
1400 26-05-2003 17:12:01 24.1 C 6.78 g/m*3 24.1 C 0 km/h
Sensor: Nr:Datum:Temp:Abs-Feuchte:Windchill:Wind:
Aussen-T/F 1401 26-05-2003 17:22:01 25.8 C 7.22 g/m*3 25.8 C 0 km/h
1402 26-05-2003 17:32:00 24.7 C 6.11 g/m*3 24.7 C 0 km/h
1403 26-05-2003 17:42:00 24.5 C 6.49 g/m*3 24.5 C 0 km/h
1404 26-05-2003 17:52:00 25.3 C 6.79 g/m*3 25.3 C 0 km/h
1405 26-05-2003 18:02:01 25.1 C 6.71 g/m*3 25.1 C 0 km/h
1406 26-05-2003 18:12:01 24.2 C 6.82 g/m*3 24.2 C 0 km/h
1407 26-05-2003 18:22:01 24.4 C 6.68 g/m*3 24.4 C 0 km/h
1408 26-05-2003 18:32:01 23.4 C 6.73 g/m*3 23.4 C 0 km/h
1409 26-05-2003 18:42:01 22.9 C 6.95 g/m*3 22.9 C 0 km/h
1410 26-05-2003 18:52:01 22.6 C 7.03 g/m*3 22.6 C 0 km/h
1411 26-05-2003 19:02:02 22.2 C 6.87 g/m*3 22.2 C 0 km/h
1412 26-05-2003 19:12:02 22.5 C 7.39 g/m*3 22.5 C 0 km/h
1413 26-05-2003 19:22:02 22.5 C 7.39 g/m*3 22.5 C 0 km/h
1414 26-05-2003 19:32:01 22.5 C 7.19 g/m*3 22.5 C 0 km/h
1415 26-05-2003 19:42:01 22.3 C 7.31 g/m*3 22.3 C 0 km/h
1416 26-05-2003 19:52:01 22 C 8.15 g/m*3 22 C 0 km/h
1417 26-05-2003 20:02:00 21.7 C 8.58 g/m*3 21.7 C 0 km/h
1418 26-05-2003 20:12:00 21.1 C 8.48 g/m*3 21.1 C 0 km/h
1419 26-05-2003 20:22:00 20.2 C 8.57 g/m*3 20.2 C 0 km/h
1420 26-05-2003 20:33:27 19.7 C 8.66 g/m*3 19.7 C 0 km/h
1421 26-05-2003 20:43:27 19.5 C 8.73 g/m*3 19.5 C 0 km/h
1422 26-05-2003 20:53:27 19.2 C 8.24 g/m*3 19.2 C 0 km/h
1423 26-05-2003 21:03:27 19.1 C 8.2 g/m*3 19.1 C 0 km/h
1424 26-05-2003 21:13:27 18.9 C 8.59 g/m*3 18.9 C 0 km/h
1425 26-05-2003 21:23:27 18.9 C 8.59 g/m*3 18.9 C 0 km/h
Sensor: Nr:Datum:Temp:Abs-Feuchte:Windchill:Wind:
Aussen-T/F 1426 26-05-2003 21:33:27 18.7 C 8.49 g/m*3 18.7 C 0 km/h
1427 26-05-2003 21:43:27 18.7 C 8.81 g/m*3 18.7 C 0 km/h
1428 26-05-2003 21:53:27 18.7 C 9.13 g/m*3 18.7 C 0 km/h
1429 26-05-2003 22:03:27 18.5 C 9.02 g/m*3 18.5 C 0 km/h
1430 26-05-2003 22:13:27 18.5 C 8.86 g/m*3 18.5 C 0 km/h
1431 26-05-2003 22:23:27 18.3 C 8.91 g/m*3 18.3 C 0 km/h
1432 26-05-2003 22:33:27 18.3 C 9.22 g/m*3 18.3 C 0 km/h
1433 26-05-2003 22:43:27 18.3 C 9.07 g/m*3 18.3 C 0 km/h
1434 26-05-2003 22:53:27 18.4 C 9.12 g/m*3 18.4 C 0 km/h
1435 26-05-2003 23:03:27 18.2 C 9.01 g/m*3 18.2 C 0 km/h
1436 26-05-2003 23:13:27 18.2 C 9.01 g/m*3 18.2 C 0 km/h
1437 26-05-2003 23:23:27 18.1 C 9.12 g/m*3 18.1 C 0 km/h
1438 26-05-2003 23:33:27 17.9 C 9.16 g/m*3 17.9 C 0 km/h
1439 26-05-2003 23:43:27 17.8 C 9.26 g/m*3 17.8 C 0 km/h
1440 26-05-2003 23:53:27 17.7 C 9.35 g/m*3 17.7 C 0 km/h
1441 27-05-2003 00:03:27 17.6 C 9.15 g/m*3 17.6 C 0 km/h
1442 27-05-2003 00:13:27 17.2 C 9.23 g/m*3 17.2 C 0 km/h
1443 27-05-2003 00:23:27 17.4 C 9.34 g/m*3 17.4 C 0 km/h
1444 27-05-2003 00:33:27 17.2 C 9.23 g/m*3 17.2 C 0 km/h
1445 27-05-2003 00:43:27 17.2 C 9.23 g/m*3 17.2 C 0 km/h
1446 27-05-2003 00:53:27 17.1 C 9.32 g/m*3 17.1 C 0 km/h
1447 27-05-2003 01:03:27 16.9 C 9.21 g/m*3 16.9 C 0 km/h
1448 27-05-2003 01:13:27 16.6 C 9.04 g/m*3 16.6 C 0 km/h
1449 27-05-2003 01:23:27 16.4 C 9.07 g/m*3 16.4 C 0 km/h
1450 27-05-2003 01:33:27 16.1 C 9.05 g/m*3 16.1 C 0 km/h
Sensor: Nr:Datum:Temp:Abs-Feuchte:Windchill:Wind:
Aussen-T/F 1451 27-05-2003 01:43:27 16.3 C 9.3 g/m*3 16.3 C 0 km/h
1452 27-05-2003 01:53:27 16.5 C 9.41 g/m*3 16.5 C 0 km/h
1453 27-05-2003 02:03:27 16.5 C 9.27 g/m*3 16.5 C 0 km/h
1454 27-05-2003 02:13:27 16.2 C 9.1 g/m*3 16.2 C 0 km/h
1455 27-05-2003 02:23:27 16.1 C 9.32 g/m*3 16.1 C 0 km/h
1456 27-05-2003 02:33:27 16 C 9.13 g/m*3 16 C 0 km/h
1457 27-05-2003 02:43:27 16 C 9.13 g/m*3 16 C 0 km/h
1458 27-05-2003 02:53:27 16 C 9.26 g/m*3 16 C 0 km/h
1459 27-05-2003 03:03:27 15.8 C 9.15 g/m*3 15.8 C 0 km/h
1460 27-05-2003 03:13:27 15.8 C 9.29 g/m*3 15.8 C 0 km/h
1461 27-05-2003 03:23:27 15.8 C 9.42 g/m*3 15.8 C 0 km/h
1462 27-05-2003 03:33:27 15.7 C 9.37 g/m*3 15.7 C 0 km/h
1463 27-05-2003 03:43:27 15.6 C 9.31 g/m*3 15.6 C 0 km/h
1464 27-05-2003 03:53:27 15.8 C 9.42 g/m*3 15.8 C 0 km/h
1465 27-05-2003 04:03:27 15.7 C 9.37 g/m*3 15.7 C 0 km/h
1466 27-05-2003 04:13:27 15.6 C 9.18 g/m*3 15.6 C 0 km/h
1467 27-05-2003 04:23:27 15.4 C 9.07 g/m*3 15.4 C 0 km/h
1468 27-05-2003 04:33:27 15.4 C 9.2 g/m*3 15.4 C 0 km/h
1469 27-05-2003 04:43:27 15.2 C 9.22 g/m*3 15.2 C 0 km/h
1470 27-05-2003 04:53:27 15.1 C 9.16 g/m*3 15.1 C 0 km/h
1471 27-05-2003 05:03:27 15.1 C 9.16 g/m*3 15.1 C 0 km/h
1472 27-05-2003 05:13:27 14.9 C 9.3 g/m*3 14.9 C 0 km/h
1473 27-05-2003 05:23:27 14.7 C 9.19 g/m*3 14.7 C 0 km/h
1474 27-05-2003 05:33:27 14.4 C 9.15 g/m*3 14.4 C 0 km/h
1475 27-05-2003 05:43:27 14.2 C 9.04 g/m*3 14.2 C 0 km/h
Sensor: Nr:Datum:Temp:Abs-Feuchte:Windchill:Wind:
Aussen-T/F 1476 27-05-2003 05:53:27 14 C 8.93 g/m*3 14 C 0 km/h
1477 27-05-2003 06:03:27 14 C 9.05 g/m*3 14 C 0 km/h
1478 27-05-2003 06:13:27 14.1 C 9.1 g/m*3 14.1 C 0 km/h
1479 27-05-2003 06:23:27 14.1 C 9.22 g/m*3 14.1 C 0 km/h
1480 27-05-2003 06:33:27 14.3 C 9.21 g/m*3 14.3 C 0 km/h
1481 27-05-2003 06:43:27 14.5 C 9.2 g/m*3 14.5 C 0 km/h
1482 27-05-2003 06:53:27 14.8 C 9.37 g/m*3 14.8 C 0 km/h
1483 27-05-2003 07:03:27 15.2 C 9.48 g/m*3 15.2 C 0 km/h
1484 27-05-2003 07:13:27 15.4 C 9.59 g/m*3 15.4 C 0 km/h
1485 27-05-2003 07:23:27 15.4 C 9.59 g/m*3 15.4 C 0 km/h
1486 27-05-2003 07:33:27 15.4 C 9.33 g/m*3 15.4 C 0 km/h
1487 27-05-2003 07:43:00 15.5 C 9.39 g/m*3 15.5 C 0 km/h
1488 27-05-2003 07:53:00 15.6 C 9.44 g/m*3 15.6 C 0 km/h
1489 27-05-2003 08:03:00 15.6 C 9.31 g/m*3 15.6 C 0 km/h
1490 27-05-2003 08:13:00 15.9 C 9.75 g/m*3 15.9 C 0 km/h
1491 27-05-2003 08:23:00 16 C 9.26 g/m*3 16 C 0 km/h
1492 27-05-2003 08:33:01 16.1 C 9.32 g/m*3 16.1 C 0 km/h
1493 27-05-2003 08:43:01 16.6 C 9.61 g/m*3 16.6 C 0 km/h
1494 27-05-2003 08:53:01 16.6 C 9.04 g/m*3 16.6 C 0 km/h
1495 27-05-2003 09:03:01 17 C 9.12 g/m*3 17 C 0 km/h
1496 27-05-2003 09:13:01 17.2 C 9.08 g/m*3 17.2 C 0 km/h
1497 27-05-2003 09:23:01 17.4 C 9.48 g/m*3 17.4 C 0 km/h
1498 27-05-2003 09:33:00 18 C 9.37 g/m*3 18 C 0 km/h
1499 27-05-2003 09:43:00 18.3 C 9.69 g/m*3 18.3 C 0 km/h
1500 27-05-2003 09:53:00 18.6 C 9.23 g/m*3 18.6 C 0 km/h
Sensor: Nr:Datum:Temp:Abs-Feuchte:Windchill:Wind:
Aussen-T/F 1501 27-05-2003 10:03:03 19 C 9.29 g/m*3 19 C 0 km/h
1502 27-05-2003 10:13:03 19.3 C 8.96 g/m*3 19.3 C 0 km/h
1503 27-05-2003 10:23:03 20 C 8.99 g/m*3 20 C 0 km/h
1504 27-05-2003 10:33:01 20.6 C 9.13 g/m*3 20.6 C 0 km/h
1505 27-05-2003 10:43:01 21.2 C 9.08 g/m*3 21.2 C 0 km/h
1506 27-05-2003 10:53:01 22 C 8.73 g/m*3 22 C 0 km/h
1507 27-05-2003 11:03:02 21.9 C 8.68 g/m*3 21.9 C 0 km/h
1508 27-05-2003 11:13:02 22 C 8.93 g/m*3 22 C 0 km/h
1509 27-05-2003 11:23:02 22.8 C 9.14 g/m*3 22.8 C 0 km/h
1510 27-05-2003 11:33:02 23 C 9.04 g/m*3 23 C 0 km/h
1511 27-05-2003 11:43:02 23.6 C 8.93 g/m*3 23.6 C 0 km/h
1512 27-05-2003 11:53:02 23.4 C 8.83 g/m*3 23.4 C 0 km/h
1513 27-05-2003 12:03:02 23 C 8.22 g/m*3 23 C 0 km/h
1514 27-05-2003 12:13:02 23.4 C 8.62 g/m*3 23.4 C 0 km/h
1515 27-05-2003 12:23:02 23.6 C 8.51 g/m*3 23.6 C 0 km/h
1516 27-05-2003 12:33:01 24.7 C 8.6 g/m*3 24.7 C 0 km/h
1517 27-05-2003 12:43:01 23.6 C 8.29 g/m*3 23.6 C 0 km/h
1518 27-05-2003 12:53:01 24.4 C 8.46 g/m*3 24.4 C 0 km/h
1519 27-05-2003 13:03:02 24.1 C 8.97 g/m*3 24.1 C 0 km/h
1520 27-05-2003 13:13:02 24.6 C 8.55 g/m*3 24.6 C 0 km/h
1521 27-05-2003 13:23:02 23.7 C 8.56 g/m*3 23.7 C 0 km/h
1522 27-05-2003 13:33:01 23.1 C 8.68 g/m*3 23.1 C 0 km/h
1523 27-05-2003 13:43:01 23.2 C 8.73 g/m*3 23.2 C 0 km/h
1524 27-05-2003 13:53:01 22.9 C 9.2 g/m*3 22.9 C 0 km/h
1525 27-05-2003 14:03:02 23.4 C 9.04 g/m*3 23.4 C 0 km/h
Sensor: Nr:Datum:Temp:Abs-Feuchte:Windchill:Wind:
Aussen-T/F 1526 27-05-2003 14:13:02 24.5 C 8.5 g/m*3 24.5 C 0 km/h
1527 27-05-2003 14:23:02 24.6 C 8.33 g/m*3 24.6 C 0 km/h
1528 27-05-2003 14:33:00 24.6 C 8.55 g/m*3 24.6 C 0 km/h
1529 27-05-2003 14:43:00 25.5 C 8.29 g/m*3 25.5 C 0 km/h
1530 27-05-2003 14:53:00 25.7 C 8.38 g/m*3 25.7 C 0 km/h
1531 27-05-2003 15:03:01 26 C 8.52 g/m*3 26 C 0 km/h
1532 27-05-2003 15:13:01 25.7 C 8.62 g/m*3 25.7 C 0 km/h
1533 27-05-2003 15:23:01 25.7 C 8.62 g/m*3 25.7 C 0 km/h
1534 27-05-2003 15:33:00 24.8 C 8.88 g/m*3 24.8 C 0 km/h
1535 27-05-2003 15:43:00 24.2 C 9.02 g/m*3 24.2 C 0 km/h
1536 27-05-2003 15:53:00 23.7 C 8.98 g/m*3 23.7 C 0 km/h
1537 27-05-2003 16:03:01 23.4 C 8.83 g/m*3 23.4 C 0 km/h
1538 27-05-2003 16:13:01 22.9 C 8.99 g/m*3 22.9 C 0 km/h
1539 27-05-2003 16:23:01 22.9 C 8.99 g/m*3 22.9 C 0 km/h
1540 27-05-2003 16:33:01 22.8 C 9.14 g/m*3 22.8 C 0 km/h
1541 27-05-2003 16:43:01 22.7 C 9.09 g/m*3 22.7 C 0 km/h
1542 27-05-2003 16:53:01 22.5 C 9.19 g/m*3 22.5 C 0 km/h
1543 27-05-2003 17:03:02 22.4 C 9.33 g/m*3 22.4 C 0 km/h
1544 27-05-2003 17:13:02 22.3 C 9.08 g/m*3 22.3 C 0 km/h
1545 27-05-2003 17:23:02 22.5 C 9.39 g/m*3 22.5 C 0 km/h
1546 27-05-2003 17:33:01 22.6 C 9.24 g/m*3 22.6 C 0 km/h
1547 27-05-2003 17:43:01 22.8 C 9.35 g/m*3 22.8 C 0 km/h
1548 27-05-2003 17:53:01 23 C 9.25 g/m*3 23 C 0 km/h
1549 27-05-2003 18:03:02 22.9 C 9.61 g/m*3 22.9 C 0 km/h
1550 27-05-2003 18:13:02 22.4 C 9.53 g/m*3 22.4 C 0 km/h
Sensor: Nr:Datum:Temp:Abs-Feuchte:Windchill:Wind:
Aussen-T/F 1551 27-05-2003 18:23:02 22.2 C 9.42 g/m*3 22.2 C 0 km/h
1552 27-05-2003 18:33:02 22 C 9.12 g/m*3 22 C 0 km/h
1553 27-05-2003 18:43:02 22 C 9.51 g/m*3 22 C 0 km/h
1554 27-05-2003 18:53:02 21.8 C 9.59 g/m*3 21.8 C 0 km/h
1555 27-05-2003 19:03:00 21.7 C 9.54 g/m*3 21.7 C 0 km/h
1556 27-05-2003 19:13:00 21.6 C 9.48 g/m*3 21.6 C 0 km/h
1557 27-05-2003 19:23:00 21.4 C 9.56 g/m*3 21.4 C 0 km/h
1558 27-05-2003 19:33:00 21.3 C 9.69 g/m*3 21.3 C 0 km/h
1559 27-05-2003 19:43:00 21.1 C 10.13 g/m*3 21.1 C 0 km/h
1560 27-05-2003 19:53:00 21 C 10.26 g/m*3 21 C 0 km/h
1561 27-05-2003 20:03:00 20.7 C 10.26 g/m*3 20.7 C 0 km/h
1562 27-05-2003 20:13:00 20.6 C 10.2 g/m*3 20.6 C 0 km/h
1563 27-05-2003 20:23:00 20.4 C 9.91 g/m*3 20.4 C 0 km/h
1564 27-05-2003 20:33:01 20.2 C 9.97 g/m*3 20.2 C 0 km/h
1565 27-05-2003 20:43:01 20 C 10.02 g/m*3 20 C 0 km/h
1566 27-05-2003 20:53:01 20 C 10.2 g/m*3 20 C 0 km/h
1567 27-05-2003 21:03:01 19.7 C 10.19 g/m*3 19.7 C 0 km/h
1568 27-05-2003 21:13:01 19.5 C 10.41 g/m*3 19.5 C 0 km/h
1569 27-05-2003 21:23:01 19.3 C 10.28 g/m*3 19.3 C 0 km/h
1570 27-05-2003 21:34:01 18.9 C 10.37 g/m*3 18.9 C 0 km/h
1571 27-05-2003 21:44:01 18.7 C 10.25 g/m*3 18.7 C 0 km/h
1572 27-05-2003 21:54:01 18.7 C 10.41 g/m*3 18.7 C 0 km/h
1573 27-05-2003 22:04:01 18.6 C 10.5 g/m*3 18.6 C 0 km/h
1574 27-05-2003 22:14:01 18.5 C 10.28 g/m*3 18.5 C 0 km/h
1575 27-05-2003 22:24:01 18.5 C 10.28 g/m*3 18.5 C 0 km/h
Sensor: Nr:Datum:Temp:Abs-Feuchte:Windchill:Wind:
Aussen-T/F 1576 27-05-2003 22:34:01 18.5 C 10.44 g/m*3 18.5 C 0 km/h
1577 27-05-2003 22:44:01 18.3 C 10.32 g/m*3 18.3 C 0 km/h
1578 27-05-2003 22:54:01 18.2 C 10.26 g/m*3 18.2 C 0 km/h
1579 27-05-2003 23:04:01 18.1 C 10.04 g/m*3 18.1 C 0 km/h
1580 27-05-2003 23:14:01 18.1 C 10.04 g/m*3 18.1 C 0 km/h
1581 27-05-2003 23:24:01 18.1 C 9.89 g/m*3 18.1 C 0 km/h
1582 27-05-2003 23:34:01 17.9 C 9.77 g/m*3 17.9 C 0 km/h
1583 27-05-2003 23:44:01 17.7 C 9.81 g/m*3 17.7 C 0 km/h
1584 27-05-2003 23:54:01 17.6 C 10.05 g/m*3 17.6 C 0 km/h
1585 28-05-2003 00:04:01 17.5 C 9.99 g/m*3 17.5 C 0 km/h
1586 28-05-2003 00:14:01 17.2 C 9.81 g/m*3 17.2 C 0 km/h
1587 28-05-2003 00:24:01 17.2 C 9.67 g/m*3 17.2 C 0 km/h
1588 28-05-2003 00:34:01 17.1 C 9.61 g/m*3 17.1 C 0 km/h
1589 28-05-2003 00:44:01 17.1 C 9.46 g/m*3 17.1 C 0 km/h
1590 28-05-2003 00:54:01 16.8 C 9.58 g/m*3 16.8 C 0 km/h
1591 28-05-2003 01:04:01 16.7 C 9.52 g/m*3 16.7 C 0 km/h
1592 28-05-2003 01:14:01 16.5 C 9.41 g/m*3 16.5 C 0 km/h
1593 28-05-2003 01:24:01 16.3 C 9.43 g/m*3 16.3 C 0 km/h
1594 28-05-2003 01:34:01 16 C 9.26 g/m*3 16 C 0 km/h
1595 28-05-2003 01:44:01 15.7 C 9.23 g/m*3 15.7 C 0 km/h
1596 28-05-2003 01:54:01 15.4 C 9.2 g/m*3 15.4 C 0 km/h
1597 28-05-2003 02:04:01 15.2 C 9.09 g/m*3 15.2 C 0 km/h
1598 28-05-2003 02:14:01 15 C 9.1 g/m*3 15 C 0 km/h
1599 28-05-2003 02:24:01 14.9 C 9.18 g/m*3 14.9 C 0 km/h
1600 28-05-2003 02:34:01 14.7 C 9.07 g/m*3 14.7 C 0 km/h
Sensor: Nr:Datum:Temp:Abs-Feuchte:Windchill:Wind:
Aussen-T/F 1601 28-05-2003 02:44:01 14.6 C 9.13 g/m*3 14.6 C 0 km/h
1602 28-05-2003 02:54:01 14.6 C 9.13 g/m*3 14.6 C 0 km/h
1603 28-05-2003 03:04:01 14.5 C 9.08 g/m*3 14.5 C 0 km/h
1604 28-05-2003 03:14:01 14.3 C 9.21 g/m*3 14.3 C 0 km/h
1605 28-05-2003 03:24:01 14 C 9.05 g/m*3 14 C 0 km/h
1606 28-05-2003 03:34:01 13.9 C 9.11 g/m*3 13.9 C 0 km/h
1607 28-05-2003 03:44:01 13.6 C 9.18 g/m*3 13.6 C 0 km/h
1608 28-05-2003 03:54:01 13.5 C 9.01 g/m*3 13.5 C 0 km/h
1609 28-05-2003 04:04:01 13.3 C 9.01 g/m*3 13.3 C 0 km/h
1610 28-05-2003 04:14:01 13.2 C 9.07 g/m*3 13.2 C 0 km/h
1611 28-05-2003 04:24:01 13.1 C 9.13 g/m*3 13.1 C 0 km/h
1612 28-05-2003 04:34:01 13 C 9.07 g/m*3 13 C 0 km/h
1613 28-05-2003 04:44:01 13 C 9.19 g/m*3 13 C 0 km/h
1614 28-05-2003 04:54:01 12.9 C 9.24 g/m*3 12.9 C 0 km/h
1615 28-05-2003 05:04:01 12.7 C 9.13 g/m*3 12.7 C 0 km/h
1616 28-05-2003 05:14:01 12.7 C 9.24 g/m*3 12.7 C 0 km/h
1617 28-05-2003 05:24:01 12.7 C 9.35 g/m*3 12.7 C 0 km/h
1618 28-05-2003 05:34:01 12.5 C 9.24 g/m*3 12.5 C 0 km/h
1619 28-05-2003 05:44:01 12.5 C 9.13 g/m*3 12.5 C 0 km/h
1620 28-05-2003 05:54:01 12.5 C 9.13 g/m*3 12.5 C 0 km/h
1621 28-05-2003 06:04:01 12.6 C 9.29 g/m*3 12.6 C 0 km/h
1622 28-05-2003 06:14:01 12.7 C 9.35 g/m*3 12.7 C 0 km/h
1623 28-05-2003 06:24:01 12.7 C 9.24 g/m*3 12.7 C 0 km/h
1624 28-05-2003 06:34:01 12.7 C 9.24 g/m*3 12.7 C 0 km/h
1625 28-05-2003 06:44:01 12.7 C 9.35 g/m*3 12.7 C 0 km/h
Sensor: Nr:Datum:Temp:Abs-Feuchte:Windchill:Wind:
Aussen-T/F 1626 28-05-2003 06:54:01 13.1 C 9.47 g/m*3 13.1 C 0 km/h
1627 28-05-2003 07:04:01 13.2 C 9.42 g/m*3 13.2 C 0 km/h
1628 28-05-2003 07:14:01 13.4 C 9.42 g/m*3 13.4 C 0 km/h
1629 28-05-2003 07:24:01 13.7 C 9.59 g/m*3 13.7 C 0 km/h
1630 28-05-2003 07:34:01 13.8 C 9.41 g/m*3 13.8 C 0 km/h
1631 28-05-2003 07:44:01 14 C 9.53 g/m*3 14 C 0 km/h
1632 28-05-2003 07:54:01 14.3 C 9.58 g/m*3 14.3 C 0 km/h
1633 28-05-2003 08:04:01 14.3 C 9.46 g/m*3 14.3 C 0 km/h
1634 28-05-2003 08:14:01 14.3 C 9.58 g/m*3 14.3 C 0 km/h
1635 28-05-2003 08:24:01 14.6 C 9.64 g/m*3 14.6 C 0 km/h
1636 28-05-2003 08:34:01 14.8 C 9.63 g/m*3 14.8 C 0 km/h
1637 28-05-2003 08:44:01 15 C 9.49 g/m*3 15 C 0 km/h
1638 28-05-2003 08:54:01 15.2 C 9.48 g/m*3 15.2 C 0 km/h
1639 28-05-2003 09:04:01 15.5 C 9.78 g/m*3 15.5 C 0 km/h
1640 28-05-2003 09:14:01 15.6 C 9.84 g/m*3 15.6 C 0 km/h
1641 28-05-2003 09:34:01 16.2 C 9.79 g/m*3 16.2 C 0 km/h
1642 28-05-2003 09:44:01 16.6 C 9.89 g/m*3 16.6 C 0 km/h
1643 28-05-2003 09:54:01 17.4 C 9.93 g/m*3 17.4 C 0 km/h
1644 28-05-2003 10:04:01 17.8 C 9.87 g/m*3 17.8 C 0 km/h
1645 28-05-2003 10:14:01 19 C 9.78 g/m*3 19 C 0 km/h
1646 28-05-2003 10:24:01 19.6 C 9.79 g/m*3 19.6 C 0 km/h
1647 28-05-2003 10:34:02 20 C 9.85 g/m*3 20 C 0 km/h
1648 28-05-2003 10:44:02 20.4 C 9.73 g/m*3 20.4 C 0 km/h
1649 28-05-2003 10:54:02 21.3 C 9.51 g/m*3 21.3 C 0 km/h
1650 28-05-2003 11:04:02 21.6 C 9.86 g/m*3 21.6 C 0 km/h
Sensor: Nr:Datum:Temp:Abs-Feuchte:Windchill:Wind:
Aussen-T/F 1651 28-05-2003 11:14:02 21.9 C 9.84 g/m*3 21.9 C 0 km/h
1652 28-05-2003 11:24:02 22.4 C 9.93 g/m*3 22.4 C 0 km/h
1653 28-05-2003 11:34:00 22.9 C 10.01 g/m*3 22.9 C 0 km/h
1654 28-05-2003 11:44:00 23.1 C 9.72 g/m*3 23.1 C 0 km/h
1655 28-05-2003 11:54:00 23.8 C 9.9 g/m*3 23.8 C 0 km/h
1656 28-05-2003 12:04:01 24.2 C 9.24 g/m*3 24.2 C 0 km/h
1657 28-05-2003 12:14:01 24.4 C 9.35 g/m*3 24.4 C 0 km/h
1658 28-05-2003 12:24:01 24.7 C 9.51 g/m*3 24.7 C 0 km/h
1659 28-05-2003 12:34:01 24.7 C 9.73 g/m*3 24.7 C 0 km/h
1660 28-05-2003 12:44:01 25.6 C 8.81 g/m*3 25.6 C 0 km/h
1661 28-05-2003 12:54:01 26.3 C 8.91 g/m*3 26.3 C 0 km/h
1662 28-05-2003 13:04:01 26.2 C 9.35 g/m*3 26.2 C 0 km/h
1663 28-05-2003 13:14:01 28 C 8.7 g/m*3 28 C 0 km/h
1664 28-05-2003 13:24:01 27.4 C 8.68 g/m*3 27.4 C 0 km/h
1665 28-05-2003 13:34:01 27.9 C 9.47 g/m*3 27.9 C 0 km/h
1666 28-05-2003 13:44:01 27.5 C 9 g/m*3 27.5 C 0 km/h
1667 28-05-2003 13:54:01 26.5 C 9.01 g/m*3 26.5 C 0 km/h
1668 28-05-2003 14:04:02 26.1 C 9.3 g/m*3 26.1 C 0 km/h
1669 28-05-2003 14:14:02 26.1 C 9.3 g/m*3 26.1 C 0 km/h
1670 28-05-2003 14:24:02 26.6 C 9.06 g/m*3 26.6 C 0 km/h
1671 28-05-2003 14:34:02 27.3 C 9.42 g/m*3 27.3 C 0 km/h
1672 28-05-2003 14:44:02 27.3 C 9.42 g/m*3 27.3 C 0 km/h
1673 28-05-2003 14:54:02 27.4 C 9.21 g/m*3 27.4 C 0 km/h
1674 28-05-2003 15:04:01 26.7 C 9.37 g/m*3 26.7 C 0 km/h
1675 28-05-2003 15:14:01 27.5 C 9.52 g/m*3 27.5 C 0 km/h
Sensor: Nr:Datum:Temp:Abs-Feuchte:Windchill:Wind:
Aussen-T/F 1676 28-05-2003 15:24:01 27.5 C 9.52 g/m*3 27.5 C 0 km/h
1677 28-05-2003 15:34:01 26.9 C 9.21 g/m*3 26.9 C 0 km/h
1678 28-05-2003 15:44:01 26.9 C 9.47 g/m*3 26.9 C 0 km/h
1679 28-05-2003 15:54:01 27.5 C 9.26 g/m*3 27.5 C 0 km/h
1680 28-05-2003 16:04:01 27 C 9.52 g/m*3 27 C 0 km/h
1681 28-05-2003 16:14:01 26.9 C 9.47 g/m*3 26.9 C 0 km/h
1682 28-05-2003 16:24:01 27.4 C 9.21 g/m*3 27.4 C 0 km/h
1683 28-05-2003 16:34:00 27.5 C 9.26 g/m*3 27.5 C 0 km/h
1684 28-05-2003 16:44:00 27.4 C 9.21 g/m*3 27.4 C 0 km/h
1685 28-05-2003 16:54:00 27.7 C 9.09 g/m*3 27.7 C 0 km/h
1686 28-05-2003 17:04:01 29.2 C 9 g/m*3 29.2 C 0 km/h
1687 28-05-2003 17:14:01 29.6 C 9.2 g/m*3 29.6 C 0 km/h
1688 28-05-2003 17:24:01 28.8 C 9.09 g/m*3 28.8 C 0 km/h
1689 28-05-2003 17:34:01 29.1 C 8.95 g/m*3 29.1 C 0 km/h
1690 28-05-2003 17:44:01 29.4 C 9.1 g/m*3 29.4 C 0 km/h
1691 28-05-2003 17:54:01 27.3 C 8.9 g/m*3 27.3 C 0 km/h
1692 28-05-2003 18:04:01 26.9 C 10.24 g/m*3 26.9 C 0 km/h
1693 28-05-2003 18:14:01 28.2 C 9.07 g/m*3 28.2 C 0 km/h
1694 28-05-2003 18:24:01 27.6 C 9.58 g/m*3 27.6 C 0 km/h
1695 28-05-2003 18:34:01 28.3 C 9.68 g/m*3 28.3 C 0 km/h
1696 28-05-2003 18:44:01 28.9 C 8.86 g/m*3 28.9 C 0 km/h
1697 28-05-2003 18:54:01 28.9 C 8.86 g/m*3 28.9 C 0 km/h
1698 28-05-2003 19:04:02 27.8 C 9.15 g/m*3 27.8 C 0 km/h
1699 28-05-2003 19:14:02 26.8 C 9.16 g/m*3 26.8 C 0 km/h
1700 28-05-2003 19:24:02 26.9 C 9.21 g/m*3 26.9 C 0 km/h
Sensor: Nr:Datum:Temp:Abs-Feuchte:Windchill:Wind:
Aussen-T/F 1701 28-05-2003 19:34:01 27 C 9.01 g/m*3 27 C 0 km/h
1702 28-05-2003 19:44:01 26.8 C 9.16 g/m*3 26.8 C 0 km/h
1703 28-05-2003 19:54:01 26.2 C 9.11 g/m*3 26.2 C 0 km/h
1704 28-05-2003 20:04:01 25.2 C 9.54 g/m*3 25.2 C 0 km/h
1705 28-05-2003 20:14:01 25.1 C 9.49 g/m*3 25.1 C 0 km/h
1706 28-05-2003 20:24:01 25.5 C 9.71 g/m*3 25.5 C 0 km/h
1707 28-05-2003 20:34:01 25 C 9.67 g/m*3 25 C 0 km/h
1708 28-05-2003 20:44:01 24.4 C 9.57 g/m*3 24.4 C 0 km/h
1709 28-05-2003 20:54:01 24 C 9.57 g/m*3 24 C 0 km/h
1710 28-05-2003 21:04:01 23.7 C 9.63 g/m*3 23.7 C 0 km/h
1711 28-05-2003 21:14:01 23.1 C 9.51 g/m*3 23.1 C 0 km/h
1712 28-05-2003 21:24:01 22.8 C 9.75 g/m*3 22.8 C 0 km/h
1713 28-05-2003 21:34:01 22.6 C 9.64 g/m*3 22.6 C 0 km/h
1714 28-05-2003 21:44:01 22.3 C 9.48 g/m*3 22.3 C 0 km/h
1715 28-05-2003 21:54:01 22.2 C 9.62 g/m*3 22.2 C 0 km/h
1716 28-05-2003 22:05:01 21.8 C 9.78 g/m*3 21.8 C 0 km/h
1717 28-05-2003 22:15:01 21.5 C 9.81 g/m*3 21.5 C 0 km/h
1718 28-05-2003 22:25:01 21.3 C 9.88 g/m*3 21.3 C 0 km/h
1719 28-05-2003 22:35:01 21 C 9.53 g/m*3 21 C 0 km/h
1720 28-05-2003 22:45:01 20.8 C 9.6 g/m*3 20.8 C 0 km/h
1721 28-05-2003 22:55:01 20.3 C 9.5 g/m*3 20.3 C 0 km/h
1722 28-05-2003 23:05:01 20.1 C 9.04 g/m*3 20.1 C 0 km/h
1723 28-05-2003 23:15:01 20.1 C 8.52 g/m*3 20.1 C 0 km/h
1724 28-05-2003 23:25:01 19.9 C 8.59 g/m*3 19.9 C 0 km/h
1725 28-05-2003 23:35:01 19.9 C 8.59 g/m*3 19.9 C 0 km/h
Sensor: Nr:Datum:Temp:Abs-Feuchte:Windchill:Wind:
Aussen-T/F 1726 28-05-2003 23:45:01 19.7 C 8.66 g/m*3 19.7 C 0 km/h
1727 28-05-2003 23:55:01 19.4 C 8.51 g/m*3 19.4 C 0 km/h
1728 29-05-2003 00:05:01 19.3 C 8.46 g/m*3 19.3 C 0 km/h
1729 29-05-2003 00:15:01 18.9 C 8.59 g/m*3 18.9 C 0 km/h
1730 29-05-2003 00:25:01 18.8 C 8.54 g/m*3 18.8 C 0 km/h
1731 29-05-2003 00:35:01 18.6 C 8.28 g/m*3 18.6 C 0 km/h
1732 29-05-2003 00:45:01 18.5 C 8.23 g/m*3 18.5 C 0 km/h
1733 29-05-2003 00:55:01 18.5 C 8.23 g/m*3 18.5 C 0 km/h
1734 29-05-2003 01:05:01 18.5 C 8.39 g/m*3 18.5 C 0 km/h
1735 29-05-2003 01:15:01 18.3 C 8.13 g/m*3 18.3 C 0 km/h
1736 29-05-2003 01:25:01 18.3 C 8.29 g/m*3 18.3 C 0 km/h
1737 29-05-2003 01:35:01 18.1 C 8.34 g/m*3 18.1 C 0 km/h
1738 29-05-2003 01:45:01 17.8 C 8.5 g/m*3 17.8 C 0 km/h
1739 29-05-2003 01:55:01 17.5 C 8.35 g/m*3 17.5 C 0 km/h
1740 29-05-2003 02:05:01 17 C 8.39 g/m*3 17 C 0 km/h
1741 29-05-2003 02:15:01 16.9 C 8.63 g/m*3 16.9 C 0 km/h
1742 29-05-2003 02:25:01 16.6 C 8.62 g/m*3 16.6 C 0 km/h
1743 29-05-2003 02:35:01 16.4 C 8.51 g/m*3 16.4 C 0 km/h
1744 29-05-2003 02:45:01 16.2 C 8.41 g/m*3 16.2 C 0 km/h
1745 29-05-2003 02:55:01 16 C 8.45 g/m*3 16 C 0 km/h
1746 29-05-2003 03:05:01 16 C 8.45 g/m*3 16 C 0 km/h
1747 29-05-2003 03:15:01 15.8 C 8.48 g/m*3 15.8 C 0 km/h
1748 29-05-2003 03:25:01 15.7 C 8.56 g/m*3 15.7 C 0 km/h
1749 29-05-2003 03:35:01 15.6 C 8.51 g/m*3 15.6 C 0 km/h
1750 29-05-2003 03:45:01 15.5 C 8.72 g/m*3 15.5 C 0 km/h
Sensor: Nr:Datum:Temp:Abs-Feuchte:Windchill:Wind:
Aussen-T/F 1751 29-05-2003 03:55:01 15.4 C 8.67 g/m*3 15.4 C 0 km/h
1752 29-05-2003 04:05:01 15.2 C 8.7 g/m*3 15.2 C 0 km/h
1753 29-05-2003 04:15:01 15 C 8.72 g/m*3 15 C 0 km/h
1754 29-05-2003 04:25:01 14.9 C 8.79 g/m*3 14.9 C 0 km/h
1755 29-05-2003 04:35:01 14.7 C 8.81 g/m*3 14.7 C 0 km/h
1756 29-05-2003 04:45:01 14.7 C 8.81 g/m*3 14.7 C 0 km/h
1757 29-05-2003 04:55:01 14.5 C 8.83 g/m*3 14.5 C 0 km/h
1758 29-05-2003 05:05:01 14.5 C 8.83 g/m*3 14.5 C 0 km/h
1759 29-05-2003 05:15:01 14.7 C 8.94 g/m*3 14.7 C 0 km/h
1760 29-05-2003 05:25:01 14.7 C 8.94 g/m*3 14.7 C 0 km/h
1761 29-05-2003 05:35:01 14.9 C 8.92 g/m*3 14.9 C 0 km/h
1762 29-05-2003 05:45:01 14.8 C 8.99 g/m*3 14.8 C 0 km/h
1763 29-05-2003 05:55:01 14.7 C 9.07 g/m*3 14.7 C 0 km/h
1764 29-05-2003 06:05:01 14.5 C 8.95 g/m*3 14.5 C 0 km/h
1765 29-05-2003 06:15:01 14.5 C 9.08 g/m*3 14.5 C 0 km/h
1766 29-05-2003 06:25:01 14.4 C 9.02 g/m*3 14.4 C 0 km/h
1767 29-05-2003 06:35:01 14.4 C 9.15 g/m*3 14.4 C 0 km/h
1768 29-05-2003 06:45:01 14.4 C 9.15 g/m*3 14.4 C 0 km/h
1769 29-05-2003 06:55:01 14.3 C 9.09 g/m*3 14.3 C 0 km/h
1770 29-05-2003 07:05:01 14.5 C 9.33 g/m*3 14.5 C 0 km/h
1771 29-05-2003 07:15:01 14.6 C 9.26 g/m*3 14.6 C 0 km/h
1772 29-05-2003 07:25:01 14.6 C 9.26 g/m*3 14.6 C 0 km/h
1773 29-05-2003 07:35:01 14.7 C 9.19 g/m*3 14.7 C 0 km/h
1774 29-05-2003 07:45:01 14.8 C 9.25 g/m*3 14.8 C 0 km/h
1775 29-05-2003 07:55:01 15.2 C 9.48 g/m*3 15.2 C 0 km/h
Sensor: Nr:Datum:Temp:Abs-Feuchte:Windchill:Wind:
Aussen-T/F 1776 29-05-2003 08:05:01 15.4 C 9.46 g/m*3 15.4 C 0 km/h
1777 29-05-2003 08:15:01 15.7 C 9.63 g/m*3 15.7 C 0 km/h
1778 29-05-2003 08:25:01 16 C 9.4 g/m*3 16 C 0 km/h
1779 29-05-2003 08:35:00 16.2 C 9.52 g/m*3 16.2 C 0 km/h
1780 29-05-2003 08:45:00 16.6 C 9.61 g/m*3 16.6 C 0 km/h
1781 29-05-2003 08:55:00 17 C 9.69 g/m*3 17 C 0 km/h
1782 29-05-2003 09:05:00 17.5 C 9.69 g/m*3 17.5 C 0 km/h
1783 29-05-2003 09:15:00 17.9 C 9.92 g/m*3 17.9 C 0 km/h
1784 29-05-2003 09:25:00 18.3 C 9.85 g/m*3 18.3 C 0 km/h
1785 29-05-2003 09:35:01 18.9 C 10.21 g/m*3 18.9 C 0 km/h
1786 29-05-2003 09:45:01 19.3 C 9.79 g/m*3 19.3 C 0 km/h
1787 29-05-2003 09:55:01 19.7 C 9.85 g/m*3 19.7 C 0 km/h
1788 29-05-2003 10:05:01 20.4 C 9.73 g/m*3 20.4 C 0 km/h
1789 29-05-2003 10:15:01 20.7 C 9.54 g/m*3 20.7 C 0 km/h
1790 29-05-2003 10:25:01 21.4 C 10.31 g/m*3 21.4 C 0 km/h
1791 29-05-2003 10:35:02 21.8 C 10.17 g/m*3 21.8 C 0 km/h
1792 29-05-2003 10:45:02 22.1 C 9.76 g/m*3 22.1 C 0 km/h
1793 29-05-2003 10:55:02 22.8 C 9.75 g/m*3 22.8 C 0 km/h
1794 29-05-2003 11:05:02 23.3 C 9.62 g/m*3 23.3 C 0 km/h
1795 29-05-2003 11:15:02 23.4 C 9.25 g/m*3 23.4 C 0 km/h
1796 29-05-2003 11:25:02 24 C 9.14 g/m*3 24 C 0 km/h
1797 29-05-2003 11:35:02 23.9 C 8.87 g/m*3 23.9 C 0 km/h
1798 29-05-2003 11:45:02 24.6 C 9 g/m*3 24.6 C 0 km/h
1799 29-05-2003 11:55:02 25.5 C 9 g/m*3 25.5 C 0 km/h
1800 29-05-2003 12:05:01 26.1 C 8.57 g/m*3 26.1 C 0 km/h
Sensor: Nr:Datum:Temp:Abs-Feuchte:Windchill:Wind:
Aussen-T/F 1801 29-05-2003 12:15:01 26.6 C 7.8 g/m*3 26.6 C 0 km/h
1802 29-05-2003 12:25:01 27 C 7.98 g/m*3 27 C 0 km/h
1803 29-05-2003 12:35:01 27.4 C 7.89 g/m*3 27.4 C 0 km/h
1804 29-05-2003 12:45:01 27.9 C 8.11 g/m*3 27.9 C 0 km/h
1805 29-05-2003 12:55:01 28.3 C 7.74 g/m*3 28.3 C 0 km/h
1806 29-05-2003 13:05:02 28 C 7.61 g/m*3 28 C 0 km/h
1807 29-05-2003 13:15:02 28.7 C 8.19 g/m*3 28.7 C 0 km/h
1808 29-05-2003 13:25:02 29.6 C 8.31 g/m*3 29.6 C 0 km/h
1809 29-05-2003 13:35:02 28.9 C 8.57 g/m*3 28.9 C 0 km/h
1810 29-05-2003 13:45:02 29 C 8.62 g/m*3 29 C 0 km/h
1811 29-05-2003 13:55:02 28 C 8.16 g/m*3 28 C 0 km/h
1812 29-05-2003 14:05:02 28.2 C 9.07 g/m*3 28.2 C 0 km/h
1813 29-05-2003 14:15:02 28.9 C 9.43 g/m*3 28.9 C 0 km/h
1814 29-05-2003 14:25:02 28.6 C 8.71 g/m*3 28.6 C 0 km/h
1815 29-05-2003 14:35:00 29.2 C 9 g/m*3 29.2 C 0 km/h
1816 29-05-2003 14:45:00 28.8 C 9.09 g/m*3 28.8 C 0 km/h
1817 29-05-2003 14:55:00 29.1 C 9.24 g/m*3 29.1 C 0 km/h
1818 29-05-2003 15:05:01 28.4 C 9.17 g/m*3 28.4 C 0 km/h
1819 29-05-2003 15:15:01 28.3 C 9.95 g/m*3 28.3 C 0 km/h
1820 29-05-2003 15:25:01 27.9 C 10.01 g/m*3 27.9 C 0 km/h
1821 29-05-2003 15:35:01 28.4 C 10.56 g/m*3 28.4 C 0 km/h
1822 29-05-2003 15:45:01 28.8 C 10.51 g/m*3 28.8 C 0 km/h
1823 29-05-2003 15:55:01 29.5 C 9.15 g/m*3 29.5 C 0 km/h
1824 29-05-2003 16:05:00 30.6 C 9.4 g/m*3 30.6 C 0 km/h
1825 29-05-2003 16:15:00 31 C 8.96 g/m*3 31 C 0 km/h
Sensor: Nr:Datum:Temp:Abs-Feuchte:Windchill:Wind:
Aussen-T/F 1826 29-05-2003 16:25:00 30.9 C 9.23 g/m*3 30.9 C 0 km/h
1827 29-05-2003 16:35:01 31.3 C 9.43 g/m*3 31.3 C 0 km/h
1828 29-05-2003 16:45:01 31.1 C 10.94 g/m*3 31.1 C 0 km/h
1829 29-05-2003 16:55:01 31.5 C 9.2 g/m*3 31.5 C 0 km/h
1830 29-05-2003 17:05:01 32.1 C 8.82 g/m*3 32.1 C 0 km/h
1831 29-05-2003 17:15:01 31.9 C 9.07 g/m*3 31.9 C 0 km/h
1832 29-05-2003 17:25:01 31.4 C 9.15 g/m*3 31.4 C 0 km/h
1833 29-05-2003 17:35:00 31.8 C 9.02 g/m*3 31.8 C 0 km/h
1834 29-05-2003 17:45:00 31.8 C 9.02 g/m*3 31.8 C 0 km/h
1835 29-05-2003 17:55:00 31.2 C 9.7 g/m*3 31.2 C 0 km/h
1836 29-05-2003 18:05:01 30.8 C 11.08 g/m*3 30.8 C 0 km/h
1837 29-05-2003 18:15:01 31.1 C 9.65 g/m*3 31.1 C 0 km/h
1838 29-05-2003 18:25:01 31.3 C 9.43 g/m*3 31.3 C 0 km/h
1839 29-05-2003 18:35:00 32 C 9.11 g/m*3 32 C 0 km/h
1840 29-05-2003 18:45:00 31.9 C 9.4 g/m*3 31.9 C 0 km/h
1841 29-05-2003 18:55:00 31.5 C 9.86 g/m*3 31.5 C 0 km/h
1842 29-05-2003 19:05:00 30.9 C 9.87 g/m*3 30.9 C 0 km/h
1843 29-05-2003 19:15:00 31.1 C 9.97 g/m*3 31.1 C 0 km/h
1844 29-05-2003 19:25:00 30.9 C 10.19 g/m*3 30.9 C 0 km/h
1845 29-05-2003 19:35:01 30.7 C 10.08 g/m*3 30.7 C 0 km/h
1846 29-05-2003 19:45:01 30.4 C 11.47 g/m*3 30.4 C 0 km/h
1847 29-05-2003 19:55:01 30.1 C 10.98 g/m*3 30.1 C 0 km/h
1848 29-05-2003 20:05:00 29.8 C 10.8 g/m*3 29.8 C 0 km/h
1849 29-05-2003 20:15:00 29.1 C 10.97 g/m*3 29.1 C 0 km/h
1850 29-05-2003 20:25:00 28.6 C 10.96 g/m*3 28.6 C 0 km/h
Sensor: Nr:Datum:Temp:Abs-Feuchte:Windchill:Wind:
Aussen-T/F 1851 29-05-2003 20:35:01 28 C 11.15 g/m*3 28 C 0 km/h
1852 29-05-2003 20:45:01 27.4 C 11.05 g/m*3 27.4 C 0 km/h
1853 29-05-2003 20:55:01 26.9 C 11.26 g/m*3 26.9 C 0 km/h
1854 29-05-2003 21:05:01 26.2 C 11.08 g/m*3 26.2 C 0 km/h
1855 29-05-2003 21:15:01 26.1 C 11.26 g/m*3 26.1 C 0 km/h
1856 29-05-2003 21:25:01 25.6 C 11.43 g/m*3 25.6 C 0 km/h
1857 29-05-2003 21:36:01 24.9 C 10.99 g/m*3 24.9 C 0 km/h
1858 29-05-2003 21:46:01 24.7 C 11.09 g/m*3 24.7 C 0 km/h
1859 29-05-2003 21:56:01 24.4 C 10.9 g/m*3 24.4 C 0 km/h
1860 29-05-2003 22:06:01 24 C 10.66 g/m*3 24 C 0 km/h
1861 29-05-2003 22:16:01 23.8 C 10.97 g/m*3 23.8 C 0 km/h
1862 29-05-2003 22:26:01 23.5 C 11 g/m*3 23.5 C 0 km/h
1863 29-05-2003 22:36:01 23.1 C 10.75 g/m*3 23.1 C 0 km/h
1864 29-05-2003 22:46:01 22.9 C 11.24 g/m*3 22.9 C 0 km/h
1865 29-05-2003 22:56:01 22.5 C 10.99 g/m*3 22.5 C 0 km/h
1866 29-05-2003 23:06:01 22.5 C 11.19 g/m*3 22.5 C 0 km/h
1867 29-05-2003 23:16:01 22.5 C 11.39 g/m*3 22.5 C 0 km/h
1868 29-05-2003 23:26:01 22.4 C 11.12 g/m*3 22.4 C 0 km/h
1869 29-05-2003 23:36:01 22.3 C 11.26 g/m*3 22.3 C 0 km/h
1870 29-05-2003 23:46:01 22.2 C 11.19 g/m*3 22.2 C 0 km/h
1871 29-05-2003 23:56:01 22.1 C 11.13 g/m*3 22.1 C 0 km/h
1872 30-05-2003 00:06:01 22 C 11.06 g/m*3 22 C 0 km/h
1873 30-05-2003 00:16:01 21.8 C 10.94 g/m*3 21.8 C 0 km/h
1874 30-05-2003 00:26:01 21.5 C 10.75 g/m*3 21.5 C 0 km/h
1875 30-05-2003 00:36:01 21.3 C 10.44 g/m*3 21.3 C 0 km/h
Sensor: Nr:Datum:Temp:Abs-Feuchte:Windchill:Wind:
Aussen-T/F 1876 30-05-2003 00:46:01 21.2 C 10.56 g/m*3 21.2 C 0 km/h
1877 30-05-2003 00:56:01 21.1 C 10.32 g/m*3 21.1 C 0 km/h
1878 30-05-2003 01:06:01 20.8 C 10.68 g/m*3 20.8 C 0 km/h
1879 30-05-2003 01:16:01 20.6 C 10.56 g/m*3 20.6 C 0 km/h
1880 30-05-2003 01:26:01 20.2 C 10.32 g/m*3 20.2 C 0 km/h
1881 30-05-2003 01:36:01 20.2 C 10.49 g/m*3 20.2 C 0 km/h
1882 30-05-2003 01:46:01 20.2 C 10.49 g/m*3 20.2 C 0 km/h
1883 30-05-2003 01:56:01 20.4 C 10.61 g/m*3 20.4 C 0 km/h
1884 30-05-2003 02:06:01 20.3 C 10.38 g/m*3 20.3 C 0 km/h
1885 30-05-2003 02:16:01 20.1 C 10.26 g/m*3 20.1 C 0 km/h
1886 30-05-2003 02:26:01 19.8 C 10.42 g/m*3 19.8 C 0 km/h
1887 30-05-2003 02:36:01 19.6 C 10.13 g/m*3 19.6 C 0 km/h
1888 30-05-2003 02:46:01 19.4 C 10.34 g/m*3 19.4 C 0 km/h
1889 30-05-2003 02:56:01 19.2 C 10.22 g/m*3 19.2 C 0 km/h
1890 30-05-2003 03:06:01 18.8 C 10.15 g/m*3 18.8 C 0 km/h
1891 30-05-2003 03:16:01 18.7 C 10.09 g/m*3 18.7 C 0 km/h
1892 30-05-2003 03:26:01 18.7 C 10.25 g/m*3 18.7 C 0 km/h
1893 30-05-2003 03:36:01 18.5 C 10.13 g/m*3 18.5 C 0 km/h
1894 30-05-2003 03:46:01 18.3 C 10.01 g/m*3 18.3 C 0 km/h
1895 30-05-2003 03:56:01 18.3 C 10.32 g/m*3 18.3 C 0 km/h
1896 30-05-2003 04:16:01 17.8 C 10.17 g/m*3 17.8 C 0 km/h
1897 30-05-2003 04:26:01 17.7 C 10.41 g/m*3 17.7 C 0 km/h
1898 30-05-2003 04:36:01 17.5 C 10.44 g/m*3 17.5 C 0 km/h
1899 30-05-2003 04:46:01 17.4 C 10.37 g/m*3 17.4 C 0 km/h
1900 30-05-2003 04:56:01 17.5 C 10.29 g/m*3 17.5 C 0 km/h
Sensor: Nr:Datum:Temp:Abs-Feuchte:Windchill:Wind:
Aussen-T/F 1901 30-05-2003 05:06:01 17.5 C 10.29 g/m*3 17.5 C 0 km/h
1902 30-05-2003 05:16:01 17.3 C 10.16 g/m*3 17.3 C 0 km/h
1903 30-05-2003 05:26:01 17.5 C 10.44 g/m*3 17.5 C 0 km/h
1904 30-05-2003 05:36:01 17.3 C 10.31 g/m*3 17.3 C 0 km/h
1905 30-05-2003 05:46:01 17.1 C 10.34 g/m*3 17.1 C 0 km/h
1906 30-05-2003 05:56:01 17 C 10.27 g/m*3 17 C 0 km/h
1907 30-05-2003 06:06:01 17 C 10.42 g/m*3 17 C 0 km/h
1908 30-05-2003 06:16:01 17 C 10.42 g/m*3 17 C 0 km/h
1909 30-05-2003 06:26:01 17.1 C 10.63 g/m*3 17.1 C 0 km/h
1910 30-05-2003 06:36:01 17.2 C 10.54 g/m*3 17.2 C 0 km/h
1911 30-05-2003 06:46:01 17.4 C 10.82 g/m*3 17.4 C 0 km/h
1912 30-05-2003 06:56:01 17.5 C 10.73 g/m*3 17.5 C 0 km/h
1913 30-05-2003 07:06:01 17.9 C 10.84 g/m*3 17.9 C 0 km/h
1914 30-05-2003 07:16:01 18.5 C 10.92 g/m*3 18.5 C 0 km/h
1915 30-05-2003 07:26:01 18.9 C 11.02 g/m*3 18.9 C 0 km/h
1916 30-05-2003 07:36:01 19.1 C 10.98 g/m*3 19.1 C 0 km/h
1917 30-05-2003 07:46:01 19.5 C 10.74 g/m*3 19.5 C 0 km/h
1918 30-05-2003 07:56:01 19.8 C 10.76 g/m*3 19.8 C 0 km/h
1919 30-05-2003 08:06:00 20.2 C 10.84 g/m*3 20.2 C 0 km/h
1920 30-05-2003 08:16:00 20.5 C 11.03 g/m*3 20.5 C 0 km/h
1921 30-05-2003 08:26:00 20.8 C 11.23 g/m*3 20.8 C 0 km/h
1922 30-05-2003 08:36:00 21.2 C 10.93 g/m*3 21.2 C 0 km/h
1923 30-05-2003 08:46:00 21.6 C 11 g/m*3 21.6 C 0 km/h
1924 30-05-2003 08:56:00 22 C 11.26 g/m*3 22 C 0 km/h
1925 30-05-2003 09:06:01 22.5 C 10.79 g/m*3 22.5 C 0 km/h
Sensor: Nr:Datum:Temp:Abs-Feuchte:Windchill:Wind:
Aussen-T/F 1926 30-05-2003 09:16:01 22.8 C 10.97 g/m*3 22.8 C 0 km/h
1927 30-05-2003 09:26:01 23.1 C 10.96 g/m*3 23.1 C 0 km/h
1928 30-05-2003 09:36:00 23.5 C 10.79 g/m*3 23.5 C 0 km/h
1929 30-05-2003 09:46:00 23.9 C 10.82 g/m*3 23.9 C 0 km/h
1930 30-05-2003 09:56:00 23.9 C 10.6 g/m*3 23.9 C 0 km/h
1931 30-05-2003 10:06:01 24.4 C 10.9 g/m*3 24.4 C 0 km/h
1932 30-05-2003 10:16:01 25.1 C 10.65 g/m*3 25.1 C 0 km/h
1933 30-05-2003 10:26:01 25.2 C 10.71 g/m*3 25.2 C 0 km/h
1934 30-05-2003 10:36:01 24.8 C 10.7 g/m*3 24.8 C 0 km/h
1935 30-05-2003 10:46:01 25.6 C 11.67 g/m*3 25.6 C 0 km/h
1936 30-05-2003 10:56:01 25.9 C 11.38 g/m*3 25.9 C 0 km/h
1937 30-05-2003 11:06:01 26.3 C 11.39 g/m*3 26.3 C 0 km/h
1938 30-05-2003 11:16:01 26.3 C 11.14 g/m*3 26.3 C 0 km/h
1939 30-05-2003 11:26:01 26.7 C 11.64 g/m*3 26.7 C 0 km/h
1940 30-05-2003 11:36:00 27.2 C 11.45 g/m*3 27.2 C 0 km/h
1941 30-05-2003 11:46:00 27.5 C 11.38 g/m*3 27.5 C 0 km/h
1942 30-05-2003 11:56:00 28.4 C 11.4 g/m*3 28.4 C 0 km/h
1943 30-05-2003 12:06:01 28.4 C 10.84 g/m*3 28.4 C 0 km/h
1944 30-05-2003 12:16:01 29.1 C 10.69 g/m*3 29.1 C 0 km/h
1945 30-05-2003 12:26:01 29.8 C 11.4 g/m*3 29.8 C 0 km/h
1946 30-05-2003 12:36:01 30.2 C 11.04 g/m*3 30.2 C 0 km/h
1947 30-05-2003 12:46:01 30.4 C 10.85 g/m*3 30.4 C 0 km/h
1948 30-05-2003 12:56:01 30.7 C 10.39 g/m*3 30.7 C 0 km/h
1949 30-05-2003 13:06:00 30.7 C 10.08 g/m*3 30.7 C 0 km/h
1950 30-05-2003 13:16:00 31.3 C 9.76 g/m*3 31.3 C 0 km/h
Sensor: Nr:Datum:Temp:Abs-Feuchte:Windchill:Wind:
Aussen-T/F 1951 30-05-2003 13:26:00 31.3 C 9.76 g/m*3 31.3 C 0 km/h
1952 30-05-2003 13:36:01 31.5 C 10.52 g/m*3 31.5 C 0 km/h
1953 30-05-2003 13:46:01 31.6 C 9.25 g/m*3 31.6 C 0 km/h
1954 30-05-2003 13:56:01 31.6 C 9.58 g/m*3 31.6 C 0 km/h
1955 30-05-2003 14:06:01 31.5 C 9.2 g/m*3 31.5 C 0 km/h
1956 30-05-2003 14:16:01 31.4 C 10.14 g/m*3 31.4 C 0 km/h
1957 30-05-2003 14:26:01 31.1 C 9.65 g/m*3 31.1 C 0 km/h
1958 30-05-2003 14:36:01 31 C 10.56 g/m*3 31 C 0 km/h
1959 30-05-2003 14:46:01 31.4 C 10.79 g/m*3 31.4 C 0 km/h
1960 30-05-2003 14:56:01 31.5 C 10.52 g/m*3 31.5 C 0 km/h
1961 30-05-2003 15:06:01 31.4 C 11.12 g/m*3 31.4 C 0 km/h
1962 30-05-2003 15:16:01 31.4 C 10.46 g/m*3 31.4 C 0 km/h
1963 30-05-2003 15:26:01 31.3 C 11.38 g/m*3 31.3 C 0 km/h
1964 30-05-2003 15:36:01 31.9 C 9.74 g/m*3 31.9 C 0 km/h
1965 30-05-2003 15:46:01 32.4 C 9.31 g/m*3 32.4 C 0 km/h
1966 30-05-2003 15:56:01 32.7 C 9.46 g/m*3 32.7 C 0 km/h
1967 30-05-2003 16:06:01 32.9 C 9.56 g/m*3 32.9 C 0 km/h
1968 30-05-2003 16:16:01 33.1 C 9.66 g/m*3 33.1 C 0 km/h
1969 30-05-2003 16:26:01 33.3 C 9.04 g/m*3 33.3 C 0 km/h
1970 30-05-2003 16:36:01 33.3 C 9.04 g/m*3 33.3 C 0 km/h
1971 30-05-2003 16:46:01 32.5 C 10.4 g/m*3 32.5 C 0 km/h
1972 30-05-2003 16:56:01 31.8 C 11.02 g/m*3 31.8 C 0 km/h
1973 30-05-2003 17:26:01 30.3 C 12.02 g/m*3 30.3 C 0 km/h
1974 30-05-2003 17:56:01 27.7 C 12.3 g/m*3 27.7 C 0 km/h
1975 30-05-2003 18:06:01 25.9 C 12.59 g/m*3 25.9 C 0 km/h
Sensor: Nr:Datum:Temp:Abs-Feuchte:Windchill:Wind:
Aussen-T/F 1976 30-05-2003 18:16:01 24.7 C 12 g/m*3 24.7 C 0 km/h
1977 30-05-2003 18:26:01 21.7 C 12.4 g/m*3 21.7 C 0 km/h
1978 30-05-2003 18:36:00 21.7 C 12.78 g/m*3 21.7 C 0 km/h
1979 30-05-2003 18:46:00 21.9 C 12.54 g/m*3 21.9 C 0 km/h
1980 30-05-2003 18:56:00 22.2 C 12.57 g/m*3 22.2 C 0 km/h
1981 30-05-2003 19:06:01 22.4 C 12.31 g/m*3 22.4 C 0 km/h
1982 30-05-2003 19:16:01 23.3 C 12.55 g/m*3 23.3 C 0 km/h
1983 30-05-2003 19:26:01 24.9 C 12.13 g/m*3 24.9 C 0 km/h
1984 30-05-2003 19:36:02 25.3 C 12.17 g/m*3 25.3 C 0 km/h
1985 30-05-2003 19:46:02 25.7 C 12.45 g/m*3 25.7 C 0 km/h
1986 30-05-2003 19:56:02 25.3 C 12.64 g/m*3 25.3 C 0 km/h
1987 30-05-2003 20:06:02 25.3 C 12.64 g/m*3 25.3 C 0 km/h
1988 30-05-2003 20:16:02 24.9 C 13.28 g/m*3 24.9 C 0 km/h
1989 30-05-2003 20:26:02 24.2 C 12.76 g/m*3 24.2 C 0 km/h
1990 30-05-2003 20:36:01 23.7 C 12.83 g/m*3 23.7 C 0 km/h
1991 30-05-2003 20:46:01 23.5 C 12.69 g/m*3 23.5 C 0 km/h
1992 30-05-2003 20:56:01 23.3 C 12.75 g/m*3 23.3 C 0 km/h
1993 30-05-2003 21:06:02 23.2 C 12.68 g/m*3 23.2 C 0 km/h
1994 30-05-2003 21:16:02 23.1 C 12.82 g/m*3 23.1 C 0 km/h
1995 30-05-2003 21:26:02 22.8 C 12.8 g/m*3 22.8 C 0 km/h
1996 30-05-2003 21:37:00 22.6 C 12.66 g/m*3 22.6 C 0 km/h
1997 30-05-2003 21:47:00 22.5 C 12.58 g/m*3 22.5 C 0 km/h
1998 30-05-2003 21:57:00 22.4 C 12.51 g/m*3 22.4 C 0 km/h
1999 30-05-2003 22:07:00 22.5 C 12.58 g/m*3 22.5 C 0 km/h
2000 30-05-2003 22:17:00 22.4 C 12.51 g/m*3 22.4 C 0 km/h
Sensor: Nr:Datum:Temp:Abs-Feuchte:Windchill:Wind:
Aussen-T/F 2001 30-05-2003 22:27:00 22 C 12.62 g/m*3 22 C 0 km/h
2002 30-05-2003 22:37:00 21.9 C 12.93 g/m*3 21.9 C 0 km/h
2003 30-05-2003 22:47:00 21.8 C 13.05 g/m*3 21.8 C 0 km/h
2004 30-05-2003 22:57:00 21.6 C 13.09 g/m*3 21.6 C 0 km/h
2005 30-05-2003 23:07:00 21.6 C 13.09 g/m*3 21.6 C 0 km/h
2006 30-05-2003 23:17:00 21.4 C 12.75 g/m*3 21.4 C 0 km/h
2007 30-05-2003 23:27:00 21.3 C 12.68 g/m*3 21.3 C 0 km/h
2008 30-05-2003 23:37:00 21.4 C 12.75 g/m*3 21.4 C 0 km/h
2009 30-05-2003 23:47:00 21.3 C 12.68 g/m*3 21.3 C 0 km/h
2010 30-05-2003 23:57:00 21.1 C 12.71 g/m*3 21.1 C 0 km/h
2011 31-05-2003 00:07:00 21 C 12.64 g/m*3 21 C 0 km/h
2012 31-05-2003 00:17:00 20.7 C 12.78 g/m*3 20.7 C 0 km/h
2013 31-05-2003 00:27:00 20.2 C 12.94 g/m*3 20.2 C 0 km/h
2014 31-05-2003 00:37:00 20 C 12.96 g/m*3 20 C 0 km/h
2015 31-05-2003 00:47:00 19.9 C 13.06 g/m*3 19.9 C 0 km/h
2016 31-05-2003 00:57:00 19.8 C 12.98 g/m*3 19.8 C 0 km/h
2017 31-05-2003 01:07:00 19.8 C 12.81 g/m*3 19.8 C 0 km/h
2018 31-05-2003 01:17:00 19.7 C 12.74 g/m*3 19.7 C 0 km/h
2019 31-05-2003 01:27:00 19.5 C 12.59 g/m*3 19.5 C 0 km/h
2020 31-05-2003 01:37:00 19.5 C 12.75 g/m*3 19.5 C 0 km/h
2021 31-05-2003 01:47:00 19.3 C 12.61 g/m*3 19.3 C 0 km/h
2022 31-05-2003 01:57:00 19.3 C 12.61 g/m*3 19.3 C 0 km/h
2023 31-05-2003 02:07:00 19 C 12.39 g/m*3 19 C 0 km/h
2024 31-05-2003 02:17:00 18.9 C 12.64 g/m*3 18.9 C 0 km/h
2025 31-05-2003 02:27:00 18.9 C 12.64 g/m*3 18.9 C 0 km/h
Sensor: Nr:Datum:Temp:Abs-Feuchte:Windchill:Wind:
Aussen-T/F 2026 31-05-2003 02:37:00 18.8 C 12.56 g/m*3 18.8 C 0 km/h
2027 31-05-2003 02:47:00 18.8 C 12.56 g/m*3 18.8 C 0 km/h
2028 31-05-2003 02:57:00 18.5 C 12.5 g/m*3 18.5 C 0 km/h
2029 31-05-2003 03:07:00 18.3 C 12.35 g/m*3 18.3 C 0 km/h
2030 31-05-2003 03:17:00 18.2 C 12.43 g/m*3 18.2 C 0 km/h
2031 31-05-2003 03:27:00 18.2 C 12.43 g/m*3 18.2 C 0 km/h
2032 31-05-2003 03:37:00 18 C 12.75 g/m*3 18 C 0 km/h
2033 31-05-2003 03:47:00 17.9 C 12.67 g/m*3 17.9 C 0 km/h
2034 31-05-2003 03:57:00 17.9 C 12.67 g/m*3 17.9 C 0 km/h
2035 31-05-2003 04:07:00 17.7 C 12.52 g/m*3 17.7 C 0 km/h
2036 31-05-2003 04:17:00 17.7 C 12.52 g/m*3 17.7 C 0 km/h
2037 31-05-2003 04:27:00 17.6 C 12.6 g/m*3 17.6 C 0 km/h
2038 31-05-2003 04:37:00 17.4 C 12.3 g/m*3 17.4 C 0 km/h
2039 31-05-2003 04:47:00 17.4 C 12.45 g/m*3 17.4 C 0 km/h
2040 31-05-2003 04:57:00 17 C 12.3 g/m*3 17 C 0 km/h
2041 31-05-2003 05:07:00 16.9 C 12.37 g/m*3 16.9 C 0 km/h
2042 31-05-2003 05:17:00 16.7 C 12.22 g/m*3 16.7 C 0 km/h
2043 31-05-2003 05:27:00 16.6 C 12.43 g/m*3 16.6 C 0 km/h
2044 31-05-2003 05:37:00 16.6 C 12.57 g/m*3 16.6 C 0 km/h
2045 31-05-2003 05:47:00 16.6 C 12.43 g/m*3 16.6 C 0 km/h
2046 31-05-2003 05:57:00 16.6 C 12.43 g/m*3 16.6 C 0 km/h
2047 31-05-2003 06:07:00 16.6 C 12.43 g/m*3 16.6 C 0 km/h
2048 31-05-2003 06:17:00 16.6 C 12.57 g/m*3 16.6 C 0 km/h
2049 31-05-2003 06:27:00 17 C 12.73 g/m*3 17 C 0 km/h
2050 31-05-2003 06:37:00 17.5 C 12.82 g/m*3 17.5 C 0 km/h
Sensor: Nr:Datum:Temp:Abs-Feuchte:Windchill:Wind:
Aussen-T/F 2051 31-05-2003 06:47:00 17.6 C 12.6 g/m*3 17.6 C 0 km/h
2052 31-05-2003 06:57:00 17.5 C 12.52 g/m*3 17.5 C 0 km/h
2053 31-05-2003 07:07:00 16.9 C 12.51 g/m*3 16.9 C 0 km/h
2054 31-05-2003 07:17:00 16.8 C 12.58 g/m*3 16.8 C 0 km/h
2055 31-05-2003 07:27:00 16.8 C 12.58 g/m*3 16.8 C 0 km/h
2056 31-05-2003 07:37:00 17.4 C 12.75 g/m*3 17.4 C 0 km/h
2057 31-05-2003 07:47:00 17.6 C 12.75 g/m*3 17.6 C 0 km/h
2058 31-05-2003 07:57:00 17.3 C 12.52 g/m*3 17.3 C 0 km/h
2059 31-05-2003 08:07:00 17.6 C 12.6 g/m*3 17.6 C 0 km/h
2060 31-05-2003 08:17:00 18.2 C 12.75 g/m*3 18.2 C 0 km/h
2061 31-05-2003 08:27:00 18.9 C 12.96 g/m*3 18.9 C 0 km/h
2062 31-05-2003 08:37:00 19.3 C 12.77 g/m*3 19.3 C 0 km/h
2063 31-05-2003 08:47:00 20 C 12.79 g/m*3 20 C 0 km/h
2064 31-05-2003 08:57:00 19.3 C 12.61 g/m*3 19.3 C 0 km/h
2065 31-05-2003 09:07:00 19.3 C 12.94 g/m*3 19.3 C 0 km/h
2066 31-05-2003 09:17:00 19.5 C 13.09 g/m*3 19.5 C 0 km/h
2067 31-05-2003 09:27:00 20 C 13.13 g/m*3 20 C 0 km/h
2068 31-05-2003 09:37:00 20.7 C 13.14 g/m*3 20.7 C 0 km/h
2069 31-05-2003 09:47:00 21.4 C 13.31 g/m*3 21.4 C 0 km/h
2070 31-05-2003 09:57:00 22.1 C 13.47 g/m*3 22.1 C 0 km/h
2071 31-05-2003 10:07:01 22.7 C 13.33 g/m*3 22.7 C 0 km/h
2072 31-05-2003 10:17:01 23.3 C 13.59 g/m*3 23.3 C 0 km/h
2073 31-05-2003 10:27:01 23.8 C 13.77 g/m*3 23.8 C 0 km/h
2074 31-05-2003 10:37:02 24.1 C 13.57 g/m*3 24.1 C 0 km/h
2075 31-05-2003 10:47:02 24.8 C 13.88 g/m*3 24.8 C 0 km/h
Sensor: Nr:Datum:Temp:Abs-Feuchte:Windchill:Wind:
Aussen-T/F 2076 31-05-2003 10:57:02 25.3 C 13.58 g/m*3 25.3 C 0 km/h
2077 31-05-2003 11:07:03 25.8 C 13.72 g/m*3 25.8 C 0 km/h
2078 31-05-2003 11:17:03 26 C 13.39 g/m*3 26 C 0 km/h
2079 31-05-2003 11:27:03 26.5 C 13.77 g/m*3 26.5 C 0 km/h
2080 31-05-2003 11:37:02 25.9 C 13.56 g/m*3 25.9 C 0 km/h
2081 31-05-2003 11:47:02 26.1 C 13.22 g/m*3 26.1 C 0 km/h
2082 31-05-2003 11:57:02 27.1 C 13.2 g/m*3 27.1 C 0 km/h
2083 31-05-2003 12:07:01 26.8 C 12.98 g/m*3 26.8 C 0 km/h
2084 31-05-2003 12:17:01 28.1 C 12.85 g/m*3 28.1 C 0 km/h
2085 31-05-2003 12:27:01 26.5 C 13.27 g/m*3 26.5 C 0 km/h
2086 31-05-2003 12:37:01 25.6 C 13.09 g/m*3 25.6 C 0 km/h
2087 31-05-2003 12:47:01 25.2 C 13.5 g/m*3 25.2 C 0 km/h
2088 31-05-2003 12:57:01 25.7 C 14.13 g/m*3 25.7 C 0 km/h
2089 31-05-2003 13:07:00 27.9 C 12.98 g/m*3 27.9 C 0 km/h
2090 31-05-2003 13:17:00 29.2 C 12.2 g/m*3 29.2 C 0 km/h
2091 31-05-2003 13:27:00 30.2 C 11.96 g/m*3 30.2 C 0 km/h
2092 31-05-2003 13:37:00 30.2 C 12.57 g/m*3 30.2 C 0 km/h
2093 31-05-2003 13:47:00 29.7 C 12.53 g/m*3 29.7 C 0 km/h
2094 31-05-2003 13:57:00 27.1 C 11.9 g/m*3 27.1 C 0 km/h
2095 31-05-2003 14:07:01 26.7 C 12.4 g/m*3 26.7 C 0 km/h
2096 31-05-2003 14:17:01 26.6 C 13.09 g/m*3 26.6 C 0 km/h
2097 31-05-2003 14:27:01 26.7 C 12.4 g/m*3 26.7 C 0 km/h
2098 31-05-2003 14:37:01 27.7 C 13.64 g/m*3 27.7 C 0 km/h
2099 31-05-2003 14:47:01 29.8 C 12.6 g/m*3 29.8 C 0 km/h
2100 31-05-2003 14:57:01 28.7 C 12.15 g/m*3 28.7 C 0 km/h
Sensor: Nr:Datum:Temp:Abs-Feuchte:Windchill:Wind:
Aussen-T/F 2101 31-05-2003 15:07:01 28 C 12.24 g/m*3 28 C 0 km/h
2102 31-05-2003 15:17:01 27.5 C 12.7 g/m*3 27.5 C 0 km/h
2103 31-05-2003 15:27:01 27.2 C 12.75 g/m*3 27.2 C 0 km/h
2104 31-05-2003 15:37:01 27.2 C 13.01 g/m*3 27.2 C 0 km/h
2105 31-05-2003 15:47:01 27.2 C 13.79 g/m*3 27.2 C 0 km/h
2106 31-05-2003 15:57:01 27 C 13.64 g/m*3 27 C 0 km/h
2107 31-05-2003 16:07:01 25.9 C 13.07 g/m*3 25.9 C 0 km/h
2108 31-05-2003 16:17:01 25.2 C 12.57 g/m*3 25.2 C 0 km/h
2109 31-05-2003 16:27:01 24.7 C 12.22 g/m*3 24.7 C 0 km/h
2110 31-05-2003 16:37:01 24.7 C 12.22 g/m*3 24.7 C 0 km/h
2111 31-05-2003 16:47:01 25.1 C 12.04 g/m*3 25.1 C 0 km/h
2112 31-05-2003 16:57:01 26.2 C 12.31 g/m*3 26.2 C 0 km/h
2113 31-05-2003 17:07:01 26.9 C 12.29 g/m*3 26.9 C 0 km/h
2114 31-05-2003 17:17:01 26.7 C 12.4 g/m*3 26.7 C 0 km/h
2115 31-05-2003 17:27:01 26.6 C 12.08 g/m*3 26.6 C 0 km/h
2116 31-05-2003 17:37:01 26.2 C 12.31 g/m*3 26.2 C 0 km/h
2117 31-05-2003 17:47:01 25.8 C 12.52 g/m*3 25.8 C 0 km/h
2118 31-05-2003 17:57:01 25.8 C 12.28 g/m*3 25.8 C 0 km/h
2119 31-05-2003 18:07:02 25.5 C 12.31 g/m*3 25.5 C 0 km/h
2120 31-05-2003 18:17:02 23.5 C 12.69 g/m*3 23.5 C 0 km/h
2121 31-05-2003 18:27:02 22.2 C 14.33 g/m*3 22.2 C 0 km/h
2122 31-05-2003 18:37:02 21.2 C 15.01 g/m*3 21.2 C 0 km/h
2123 31-05-2003 18:47:02 19.8 C 14.35 g/m*3 19.8 C 0 km/h
2124 31-05-2003 18:57:02 19.6 C 14.86 g/m*3 19.6 C 0 km/h
2125 31-05-2003 19:07:02 19.7 C 14.94 g/m*3 19.7 C 0 km/h
Sensor: Nr:Datum:Temp:Abs-Feuchte:Windchill:Wind:
Aussen-T/F 2126 31-05-2003 19:17:02 19.7 C 14.77 g/m*3 19.7 C 0 km/h
2127 31-05-2003 19:27:02 19.5 C 14.6 g/m*3 19.5 C 0 km/h
2128 31-05-2003 19:37:00 19.7 C 14.77 g/m*3 19.7 C 0 km/h
2129 31-05-2003 19:47:00 19.5 C 13.93 g/m*3 19.5 C 0 km/h
2130 31-05-2003 19:57:00 19.6 C 14.18 g/m*3 19.6 C 0 km/h
2131 31-05-2003 20:07:03 20.1 C 14.43 g/m*3 20.1 C 0 km/h
2132 31-05-2003 20:17:03 20.6 C 14.32 g/m*3 20.6 C 0 km/h
2133 31-05-2003 20:27:03 21 C 14.29 g/m*3 21 C 0 km/h
2134 31-05-2003 20:37:02 21.1 C 13.82 g/m*3 21.1 C 0 km/h
2135 31-05-2003 20:47:02 20.9 C 13.84 g/m*3 20.9 C 0 km/h
2136 31-05-2003 20:57:02 20.7 C 14.04 g/m*3 20.7 C 0 km/h
2137 31-05-2003 21:07:01 20.4 C 13.8 g/m*3 20.4 C 0 km/h
2138 31-05-2003 21:17:01 19.9 C 13.4 g/m*3 19.9 C 0 km/h
2139 31-05-2003 21:27:01 19.7 C 13.25 g/m*3 19.7 C 0 km/h
2140 31-05-2003 21:37:02 19.5 C 13.43 g/m*3 19.5 C 0 km/h
2141 31-05-2003 21:47:02 19.4 C 13.51 g/m*3 19.4 C 0 km/h
2142 31-05-2003 21:57:02 19.1 C 13.28 g/m*3 19.1 C 0 km/h
2143 31-05-2003 22:08:01 18.8 C 13.37 g/m*3 18.8 C 0 km/h
2144 31-05-2003 22:18:01 18.6 C 13.37 g/m*3 18.6 C 0 km/h
2145 31-05-2003 22:28:01 18.3 C 13.29 g/m*3 18.3 C 0 km/h
2146 31-05-2003 22:38:01 18.3 C 13.29 g/m*3 18.3 C 0 km/h
2147 31-05-2003 22:58:01 18.1 C 13.13 g/m*3 18.1 C 0 km/h
2148 31-05-2003 23:08:01 18.1 C 13.29 g/m*3 18.1 C 0 km/h
2149 31-05-2003 23:18:01 17.9 C 13.28 g/m*3 17.9 C 0 km/h
2150 31-05-2003 23:28:01 17.8 C 13.2 g/m*3 17.8 C 0 km/h
Sensor: Nr:Datum:Temp:Abs-Feuchte:Windchill:Wind:
Aussen-T/F 2151 31-05-2003 23:38:01 17.9 C 13.28 g/m*3 17.9 C 0 km/h
2152 31-05-2003 23:48:01 17.7 C 13.13 g/m*3 17.7 C 0 km/h
2153 31-05-2003 23:58:01 17.6 C 12.9 g/m*3 17.6 C 0 km/h
2154 01-06-2003 00:08:01 17.6 C 13.05 g/m*3 17.6 C 0 km/h
2155 01-06-2003 00:18:01 17.7 C 13.13 g/m*3 17.7 C 0 km/h
2156 01-06-2003 00:28:01 17.6 C 13.05 g/m*3 17.6 C 0 km/h
2157 01-06-2003 00:38:01 17.4 C 12.89 g/m*3 17.4 C 0 km/h
2158 01-06-2003 00:48:01 17.2 C 12.74 g/m*3 17.2 C 0 km/h
2159 01-06-2003 00:58:01 17.3 C 12.82 g/m*3 17.3 C 0 km/h
2160 01-06-2003 01:08:01 17.1 C 12.66 g/m*3 17.1 C 0 km/h
2161 01-06-2003 01:18:01 17 C 12.59 g/m*3 17 C 0 km/h
2162 01-06-2003 01:28:01 17 C 12.59 g/m*3 17 C 0 km/h
2163 01-06-2003 01:38:01 16.9 C 12.66 g/m*3 16.9 C 0 km/h
2164 01-06-2003 01:48:01 16.9 C 12.66 g/m*3 16.9 C 0 km/h
2165 01-06-2003 01:58:01 16.9 C 12.66 g/m*3 16.9 C 0 km/h
2166 01-06-2003 02:08:01 17.1 C 12.66 g/m*3 17.1 C 0 km/h
2167 01-06-2003 02:18:01 17.4 C 12.75 g/m*3 17.4 C 0 km/h
2168 01-06-2003 02:28:01 17.5 C 12.82 g/m*3 17.5 C 0 km/h
2169 01-06-2003 02:38:01 17.5 C 12.82 g/m*3 17.5 C 0 km/h
2170 01-06-2003 02:48:01 17.6 C 12.9 g/m*3 17.6 C 0 km/h
2171 01-06-2003 02:58:01 17.5 C 12.82 g/m*3 17.5 C 0 km/h
2172 01-06-2003 03:08:01 17.4 C 12.89 g/m*3 17.4 C 0 km/h
2173 01-06-2003 03:18:01 17.4 C 12.89 g/m*3 17.4 C 0 km/h
2174 01-06-2003 03:28:01 17.5 C 12.97 g/m*3 17.5 C 0 km/h
2175 01-06-2003 03:38:01 17.2 C 12.74 g/m*3 17.2 C 0 km/h
Sensor: Nr:Datum:Temp:Abs-Feuchte:Windchill:Wind:
Aussen-T/F 2176 01-06-2003 03:48:01 17.2 C 12.74 g/m*3 17.2 C 0 km/h
2177 01-06-2003 03:58:01 17.2 C 12.74 g/m*3 17.2 C 0 km/h
2178 01-06-2003 04:08:01 17.2 C 12.74 g/m*3 17.2 C 0 km/h
2179 01-06-2003 04:18:01 17.2 C 12.74 g/m*3 17.2 C 0 km/h
2180 01-06-2003 04:28:01 17.2 C 12.74 g/m*3 17.2 C 0 km/h
2181 01-06-2003 04:38:01 17.1 C 12.66 g/m*3 17.1 C 0 km/h
2182 01-06-2003 04:48:01 16.7 C 12.51 g/m*3 16.7 C 0 km/h
2183 01-06-2003 04:58:01 16.7 C 12.65 g/m*3 16.7 C 0 km/h
2184 01-06-2003 05:08:01 16.8 C 12.72 g/m*3 16.8 C 0 km/h
2185 01-06-2003 05:18:01 16.8 C 12.72 g/m*3 16.8 C 0 km/h
2186 01-06-2003 05:28:01 16.6 C 12.43 g/m*3 16.6 C 0 km/h
2187 01-06-2003 05:38:01 16.7 C 12.65 g/m*3 16.7 C 0 km/h
2188 01-06-2003 05:48:01 16.9 C 12.66 g/m*3 16.9 C 0 km/h
2189 01-06-2003 05:58:01 17 C 12.59 g/m*3 17 C 0 km/h
2190 01-06-2003 06:08:01 16.9 C 12.66 g/m*3 16.9 C 0 km/h
2191 01-06-2003 06:18:01 17 C 12.59 g/m*3 17 C 0 km/h
2192 01-06-2003 06:28:01 16.9 C 12.66 g/m*3 16.9 C 0 km/h
2193 01-06-2003 06:38:01 17.2 C 12.59 g/m*3 17.2 C 0 km/h
2194 01-06-2003 06:48:01 17.3 C 12.52 g/m*3 17.3 C 0 km/h
2195 01-06-2003 06:58:01 17.3 C 12.37 g/m*3 17.3 C 0 km/h
2196 01-06-2003 07:08:01 17.2 C 12.15 g/m*3 17.2 C 0 km/h
2197 01-06-2003 07:18:01 17.7 C 12.22 g/m*3 17.7 C 0 km/h
2198 01-06-2003 07:28:01 18 C 12.29 g/m*3 18 C 0 km/h
2199 01-06-2003 07:38:01 18 C 12.13 g/m*3 18 C 0 km/h
2200 01-06-2003 07:48:01 18.3 C 12.66 g/m*3 18.3 C 0 km/h
Sensor: Nr:Datum:Temp:Abs-Feuchte:Windchill:Wind:
Aussen-T/F 2201 01-06-2003 07:58:01 18.3 C 12.35 g/m*3 18.3 C 0 km/h
2202 01-06-2003 08:08:01 18.3 C 12.2 g/m*3 18.3 C 0 km/h
2203 01-06-2003 08:18:01 18.5 C 12.34 g/m*3 18.5 C 0 km/h
2204 01-06-2003 08:28:01 18.7 C 12.33 g/m*3 18.7 C 0 km/h
2205 01-06-2003 08:38:01 19 C 12.22 g/m*3 19 C 0 km/h
2206 01-06-2003 08:48:01 19.2 C 12.37 g/m*3 19.2 C 0 km/h
2207 01-06-2003 08:58:01 19.3 C 12.11 g/m*3 19.3 C 0 km/h
2208 01-06-2003 09:08:00 19.9 C 12.54 g/m*3 19.9 C 0 km/h
2209 01-06-2003 09:18:00 19.9 C 12.37 g/m*3 19.9 C 0 km/h
2210 01-06-2003 09:28:00 20.7 C 12.78 g/m*3 20.7 C 0 km/h
2211 01-06-2003 09:38:00 21.3 C 12.68 g/m*3 21.3 C 0 km/h
2212 01-06-2003 09:48:00 21.4 C 12.56 g/m*3 21.4 C 0 km/h
2213 01-06-2003 09:58:00 21.7 C 12.78 g/m*3 21.7 C 0 km/h
2214 01-06-2003 10:08:01 22 C 12.81 g/m*3 22 C 0 km/h
2215 01-06-2003 10:18:01 22.1 C 12.69 g/m*3 22.1 C 0 km/h
2216 01-06-2003 10:28:01 22.4 C 12.51 g/m*3 22.4 C 0 km/h
2217 01-06-2003 10:38:01 22.7 C 13.13 g/m*3 22.7 C 0 km/h
2218 01-06-2003 10:48:01 22.2 C 12.57 g/m*3 22.2 C 0 km/h
2219 01-06-2003 10:58:01 22.6 C 12.86 g/m*3 22.6 C 0 km/h
2220 01-06-2003 11:08:01 23.2 C 13.1 g/m*3 23.2 C 0 km/h
2221 01-06-2003 11:18:01 23.7 C 13.69 g/m*3 23.7 C 0 km/h
2222 01-06-2003 11:28:01 24.1 C 13.57 g/m*3 24.1 C 0 km/h
2223 01-06-2003 11:38:02 24.8 C 13.43 g/m*3 24.8 C 0 km/h
2224 01-06-2003 11:48:02 25.3 C 13.81 g/m*3 25.3 C 0 km/h
2225 01-06-2003 11:58:02 25.9 C 13.56 g/m*3 25.9 C 0 km/h
Sensor: Nr:Datum:Temp:Abs-Feuchte:Windchill:Wind:
Aussen-T/F 2226 01-06-2003 12:08:01 26.9 C 13.56 g/m*3 26.9 C 0 km/h
2227 01-06-2003 12:18:01 27 C 12.87 g/m*3 27 C 0 km/h
2228 01-06-2003 12:28:01 27.5 C 13.23 g/m*3 27.5 C 0 km/h
2229 01-06-2003 12:38:00 27.7 C 13.37 g/m*3 27.7 C 0 km/h
2230 01-06-2003 12:48:00 28.1 C 12.85 g/m*3 28.1 C 0 km/h
2231 01-06-2003 12:58:00 28.4 C 12.79 g/m*3 28.4 C 0 km/h
2232 01-06-2003 13:08:00 29.1 C 12.71 g/m*3 29.1 C 0 km/h
2233 01-06-2003 13:18:00 27.7 C 12.57 g/m*3 27.7 C 0 km/h
2234 01-06-2003 13:28:00 28.9 C 12.57 g/m*3 28.9 C 0 km/h
2235 01-06-2003 13:38:01 29.8 C 12.9 g/m*3 29.8 C 0 km/h
2236 01-06-2003 13:48:01 30.1 C 11.89 g/m*3 30.1 C 0 km/h
2237 01-06-2003 13:58:01 30.1 C 11.89 g/m*3 30.1 C 0 km/h
2238 01-06-2003 14:08:02 29.9 C 12.37 g/m*3 29.9 C 0 km/h
2239 01-06-2003 14:18:02 29.1 C 11.84 g/m*3 29.1 C 0 km/h
2240 01-06-2003 14:28:02 28.9 C 12.28 g/m*3 28.9 C 0 km/h
2241 01-06-2003 14:38:01 29.2 C 11.91 g/m*3 29.2 C 0 km/h
2242 01-06-2003 14:48:01 29.8 C 12.6 g/m*3 29.8 C 0 km/h
2243 01-06-2003 14:58:01 30.6 C 11.9 g/m*3 30.6 C 0 km/h
2244 01-06-2003 15:08:01 30.8 C 12.35 g/m*3 30.8 C 0 km/h
2245 01-06-2003 15:18:01 30.6 C 11.28 g/m*3 30.6 C 0 km/h
2246 01-06-2003 15:28:01 30.4 C 11.47 g/m*3 30.4 C 0 km/h
2247 01-06-2003 15:38:36 30.7 C 12.28 g/m*3 30.7 C 0 km/h
2248 01-06-2003 15:48:36 31.2 C 11.97 g/m*3 31.2 C 0 km/h
2249 01-06-2003 15:58:36 30.8 C 12.03 g/m*3 30.8 C 0 km/h
2250 01-06-2003 16:08:01 30.6 C 11.9 g/m*3 30.6 C 0 km/h
Sensor: Nr:Datum:Temp:Abs-Feuchte:Windchill:Wind:
Aussen-T/F 2251 01-06-2003 16:18:01 30.7 C 12.6 g/m*3 30.7 C 0 km/h
2252 01-06-2003 16:28:01 30.5 C 13.08 g/m*3 30.5 C 0 km/h
2253 01-06-2003 16:38:01 30.7 C 13.23 g/m*3 30.7 C 0 km/h
2254 01-06-2003 16:48:01 30.8 C 12.66 g/m*3 30.8 C 0 km/h
2255 01-06-2003 16:58:01 30.9 C 13.37 g/m*3 30.9 C 0 km/h
2256 01-06-2003 17:08:01 30.6 C 12.84 g/m*3 30.6 C 0 km/h
2257 01-06-2003 17:18:01 30.6 C 12.84 g/m*3 30.6 C 0 km/h
2258 01-06-2003 17:28:01 30.8 C 12.35 g/m*3 30.8 C 0 km/h
2259 01-06-2003 17:38:00 31.1 C 12.55 g/m*3 31.1 C 0 km/h
2260 01-06-2003 17:48:00 31.1 C 11.9 g/m*3 31.1 C 0 km/h
2261 01-06-2003 17:58:00 31.2 C 11.97 g/m*3 31.2 C 0 km/h
2262 01-06-2003 18:18:01 31.3 C 11.71 g/m*3 31.3 C 0 km/h
2263 01-06-2003 18:28:01 31.2 C 10.67 g/m*3 31.2 C 0 km/h
2264 01-06-2003 18:38:00 31.3 C 11.06 g/m*3 31.3 C 0 km/h
2265 01-06-2003 18:48:00 31.2 C 11.32 g/m*3 31.2 C 0 km/h
2266 01-06-2003 18:58:00 31.2 C 11.32 g/m*3 31.2 C 0 km/h
2267 01-06-2003 19:08:00 31.2 C 11 g/m*3 31.2 C 0 km/h
2268 01-06-2003 19:18:00 31 C 11.2 g/m*3 31 C 0 km/h
2269 01-06-2003 19:28:00 30.9 C 11.78 g/m*3 30.9 C 0 km/h
2270 01-06-2003 19:38:02 30.7 C 11.02 g/m*3 30.7 C 0 km/h
2271 01-06-2003 19:48:02 30.6 C 11.9 g/m*3 30.6 C 0 km/h
2272 01-06-2003 19:58:02 30.3 C 11.71 g/m*3 30.3 C 0 km/h
2273 01-06-2003 20:08:01 30.1 C 12.5 g/m*3 30.1 C 0 km/h
2274 01-06-2003 20:18:01 29.5 C 12.69 g/m*3 29.5 C 0 km/h
2275 01-06-2003 20:28:01 29 C 12.35 g/m*3 29 C 0 km/h
Sensor: Nr:Datum:Temp:Abs-Feuchte:Windchill:Wind:
Aussen-T/F 2276 01-06-2003 20:38:01 28 C 12.24 g/m*3 28 C 0 km/h
2277 01-06-2003 20:48:01 27.3 C 12.3 g/m*3 27.3 C 0 km/h
2278 01-06-2003 20:58:01 25.8 C 12.28 g/m*3 25.8 C 0 km/h
2279 01-06-2003 21:08:01 25.1 C 12.04 g/m*3 25.1 C 0 km/h
2280 01-06-2003 21:18:01 24.5 C 11.86 g/m*3 24.5 C 0 km/h
2281 01-06-2003 21:28:01 24.1 C 12.25 g/m*3 24.1 C 0 km/h
2282 01-06-2003 21:39:01 23.8 C 12.26 g/m*3 23.8 C 0 km/h
2283 01-06-2003 21:49:01 23.5 C 12.27 g/m*3 23.5 C 0 km/h
2284 01-06-2003 21:59:01 23.2 C 12.47 g/m*3 23.2 C 0 km/h
2285 01-06-2003 22:09:01 23.2 C 12.27 g/m*3 23.2 C 0 km/h
2286 01-06-2003 22:19:01 22.9 C 12.47 g/m*3 22.9 C 0 km/h
2287 01-06-2003 22:29:01 22.8 C 12.6 g/m*3 22.8 C 0 km/h
2288 01-06-2003 22:39:01 22.6 C 12.46 g/m*3 22.6 C 0 km/h
2289 01-06-2003 22:49:01 22.3 C 12.44 g/m*3 22.3 C 0 km/h
2290 01-06-2003 22:59:01 22.1 C 12.3 g/m*3 22.1 C 0 km/h
2291 01-06-2003 23:09:01 22 C 12.42 g/m*3 22 C 0 km/h
2292 01-06-2003 23:19:01 21.7 C 12.4 g/m*3 21.7 C 0 km/h
2293 01-06-2003 23:29:01 21.6 C 12.52 g/m*3 21.6 C 0 km/h
2294 01-06-2003 23:39:01 21.3 C 12.49 g/m*3 21.3 C 0 km/h
2295 01-06-2003 23:49:01 21.1 C 12.34 g/m*3 21.1 C 0 km/h
2296 01-06-2003 23:59:01 21 C 12.46 g/m*3 21 C 0 km/h
2297 02-06-2003 00:09:01 20.8 C 12.49 g/m*3 20.8 C 0 km/h
2298 02-06-2003 00:19:01 20.5 C 12.46 g/m*3 20.5 C 0 km/h
2299 02-06-2003 00:29:01 20.4 C 12.38 g/m*3 20.4 C 0 km/h
2300 02-06-2003 00:39:01 20.2 C 12.24 g/m*3 20.2 C 0 km/h
Sensor: Nr:Datum:Temp:Abs-Feuchte:Windchill:Wind:
Aussen-T/F 2301 02-06-2003 00:49:01 20 C 12.27 g/m*3 20 C 0 km/h
2302 02-06-2003 00:59:01 19.8 C 12.3 g/m*3 19.8 C 0 km/h
2303 02-06-2003 01:09:01 19.7 C 12.4 g/m*3 19.7 C 0 km/h
2304 02-06-2003 01:19:01 19.6 C 12.32 g/m*3 19.6 C 0 km/h
2305 02-06-2003 01:29:01 19.4 C 12.18 g/m*3 19.4 C 0 km/h
2306 02-06-2003 01:39:01 19.3 C 12.27 g/m*3 19.3 C 0 km/h
2307 02-06-2003 01:49:01 19.1 C 11.97 g/m*3 19.1 C 0 km/h
2308 02-06-2003 01:59:01 18.9 C 11.99 g/m*3 18.9 C 0 km/h
2309 02-06-2003 02:09:01 18.9 C 11.99 g/m*3 18.9 C 0 km/h
2310 02-06-2003 02:19:01 19.1 C 11.97 g/m*3 19.1 C 0 km/h
2311 02-06-2003 02:29:01 18.7 C 12.01 g/m*3 18.7 C 0 km/h
2312 02-06-2003 02:39:01 18.5 C 12.02 g/m*3 18.5 C 0 km/h
2313 02-06-2003 02:49:01 18.5 C 12.18 g/m*3 18.5 C 0 km/h
2314 02-06-2003 02:59:01 18.2 C 12.12 g/m*3 18.2 C 0 km/h
2315 02-06-2003 03:09:01 18.1 C 11.9 g/m*3 18.1 C 0 km/h
2316 02-06-2003 03:19:01 17.8 C 11.99 g/m*3 17.8 C 0 km/h
2317 02-06-2003 03:29:01 17.8 C 11.99 g/m*3 17.8 C 0 km/h
2318 02-06-2003 03:39:01 17.8 C 11.99 g/m*3 17.8 C 0 km/h
2319 02-06-2003 03:49:01 17.7 C 11.92 g/m*3 17.7 C 0 km/h
2320 02-06-2003 03:59:01 17.7 C 12.07 g/m*3 17.7 C 0 km/h
2321 02-06-2003 04:09:01 17.5 C 11.93 g/m*3 17.5 C 0 km/h
2322 02-06-2003 04:19:01 17.4 C 12 g/m*3 17.4 C 0 km/h
2323 02-06-2003 04:29:01 17.5 C 11.93 g/m*3 17.5 C 0 km/h
2324 02-06-2003 04:39:01 17.3 C 11.93 g/m*3 17.3 C 0 km/h
2325 02-06-2003 04:49:01 17.4 C 12 g/m*3 17.4 C 0 km/h
Sensor: Nr:Datum:Temp:Abs-Feuchte:Windchill:Wind:
Aussen-T/F 2326 02-06-2003 04:59:01 17.2 C 11.86 g/m*3 17.2 C 0 km/h
2327 02-06-2003 05:09:01 17 C 11.72 g/m*3 17 C 0 km/h
2328 02-06-2003 05:19:01 17 C 11.87 g/m*3 17 C 0 km/h
2329 02-06-2003 05:29:01 16.8 C 11.72 g/m*3 16.8 C 0 km/h
2330 02-06-2003 05:39:01 16.7 C 11.8 g/m*3 16.7 C 0 km/h
2331 02-06-2003 05:49:01 16.6 C 11.72 g/m*3 16.6 C 0 km/h
2332 02-06-2003 05:59:01 16.7 C 11.8 g/m*3 16.7 C 0 km/h
2333 02-06-2003 06:09:01 16.7 C 11.8 g/m*3 16.7 C 0 km/h
2334 02-06-2003 06:19:01 16.7 C 11.8 g/m*3 16.7 C 0 km/h
2335 02-06-2003 06:29:01 16.8 C 11.87 g/m*3 16.8 C 0 km/h
2336 02-06-2003 06:39:01 17 C 11.87 g/m*3 17 C 0 km/h
2337 02-06-2003 06:49:01 17 C 11.87 g/m*3 17 C 0 km/h
2338 02-06-2003 06:59:01 17.1 C 11.94 g/m*3 17.1 C 0 km/h
2339 02-06-2003 07:09:01 17.4 C 12.15 g/m*3 17.4 C 0 km/h
2340 02-06-2003 07:19:01 17.7 C 12.07 g/m*3 17.7 C 0 km/h
2341 02-06-2003 07:29:01 17.9 C 12.21 g/m*3 17.9 C 0 km/h
2342 02-06-2003 07:39:01 18 C 11.98 g/m*3 18 C 0 km/h
2343 02-06-2003 07:49:01 18.1 C 12.21 g/m*3 18.1 C 0 km/h
2344 02-06-2003 07:59:01 18.4 C 11.95 g/m*3 18.4 C 0 km/h
2345 02-06-2003 08:09:01 18.5 C 12.18 g/m*3 18.5 C 0 km/h
2346 02-06-2003 08:19:01 18.7 C 12.33 g/m*3 18.7 C 0 km/h
2347 02-06-2003 08:29:01 19.1 C 12.29 g/m*3 19.1 C 0 km/h
2348 02-06-2003 08:39:01 19.5 C 12.42 g/m*3 19.5 C 0 km/h
2349 02-06-2003 08:49:01 20 C 12.44 g/m*3 20 C 0 km/h
2350 02-06-2003 08:59:01 20.4 C 12.74 g/m*3 20.4 C 0 km/h
Sensor: Nr:Datum:Temp:Abs-Feuchte:Windchill:Wind:
Aussen-T/F 2351 02-06-2003 09:09:01 20.8 C 12.67 g/m*3 20.8 C 0 km/h
2352 02-06-2003 09:19:01 21.5 C 13.01 g/m*3 21.5 C 0 km/h
2353 02-06-2003 09:29:01 22.2 C 12.76 g/m*3 22.2 C 0 km/h
2354 02-06-2003 09:39:01 23 C 12.95 g/m*3 23 C 0 km/h
2355 02-06-2003 09:49:01 23.5 C 13.32 g/m*3 23.5 C 0 km/h
2356 02-06-2003 09:59:01 24 C 12.84 g/m*3 24 C 0 km/h
2357 02-06-2003 10:09:01 24.7 C 12.45 g/m*3 24.7 C 0 km/h
2358 02-06-2003 10:19:01 25.2 C 12.8 g/m*3 25.2 C 0 km/h
2359 02-06-2003 10:29:01 25.4 C 13.18 g/m*3 25.4 C 0 km/h
2360 02-06-2003 10:39:02 26 C 12.66 g/m*3 26 C 0 km/h
2361 02-06-2003 10:49:02 26.4 C 12.2 g/m*3 26.4 C 0 km/h
2362 02-06-2003 10:59:02 26.7 C 12.15 g/m*3 26.7 C 0 km/h
2363 02-06-2003 11:09:01 26.9 C 12.8 g/m*3 26.9 C 0 km/h
2364 02-06-2003 11:19:01 27.1 C 12.42 g/m*3 27.1 C 0 km/h
2365 02-06-2003 11:29:01 27.3 C 12.56 g/m*3 27.3 C 0 km/h
2366 02-06-2003 11:39:03 27.3 C 12.3 g/m*3 27.3 C 0 km/h
2367 02-06-2003 11:49:03 28.8 C 12.22 g/m*3 28.8 C 0 km/h
2368 02-06-2003 11:59:03 27.9 C 11.9 g/m*3 27.9 C 0 km/h
2369 02-06-2003 12:09:02 27.8 C 12.37 g/m*3 27.8 C 0 km/h
2370 02-06-2003 12:19:02 27.4 C 12.63 g/m*3 27.4 C 0 km/h
2371 02-06-2003 12:29:02 27.9 C 12.98 g/m*3 27.9 C 0 km/h
2372 02-06-2003 12:39:00 27.6 C 13.3 g/m*3 27.6 C 0 km/h
2373 02-06-2003 12:49:00 28 C 11.69 g/m*3 28 C 0 km/h
2374 02-06-2003 12:59:00 27.9 C 12.44 g/m*3 27.9 C 0 km/h
2375 02-06-2003 13:09:00 28.7 C 12.15 g/m*3 28.7 C 0 km/h
Sensor: Nr:Datum:Temp:Abs-Feuchte:Windchill:Wind:
Aussen-T/F 2376 02-06-2003 13:19:00 29.5 C 11.22 g/m*3 29.5 C 0 km/h
2377 02-06-2003 13:29:00 29.6 C 10.98 g/m*3 29.6 C 0 km/h
2378 02-06-2003 13:39:01 29.1 C 10.97 g/m*3 29.1 C 0 km/h
2379 02-06-2003 13:49:01 29.2 C 10.74 g/m*3 29.2 C 0 km/h
2380 02-06-2003 13:59:01 29.1 C 11.26 g/m*3 29.1 C 0 km/h
2381 02-06-2003 14:09:01 28.4 C 11.67 g/m*3 28.4 C 0 km/h
2382 02-06-2003 14:19:01 29.1 C 11.55 g/m*3 29.1 C 0 km/h
2383 02-06-2003 14:29:01 29.6 C 11.57 g/m*3 29.6 C 0 km/h
2384 02-06-2003 14:39:01 29.5 C 11.81 g/m*3 29.5 C 0 km/h
2385 02-06-2003 14:49:01 29.5 C 11.22 g/m*3 29.5 C 0 km/h
2386 02-06-2003 14:59:01 30 C 11.22 g/m*3 30 C 0 km/h
2387 02-06-2003 15:09:02 29.9 C 10.86 g/m*3 29.9 C 0 km/h
2388 02-06-2003 15:19:02 30.2 C 10.73 g/m*3 30.2 C 0 km/h
2389 02-06-2003 15:29:02 30 C 10.61 g/m*3 30 C 0 km/h
2390 02-06-2003 15:39:01 30.3 C 10.79 g/m*3 30.3 C 0 km/h
2391 02-06-2003 15:49:01 30.4 C 10.54 g/m*3 30.4 C 0 km/h
2392 02-06-2003 15:59:01 30.5 C 10.59 g/m*3 30.5 C 0 km/h
2393 02-06-2003 16:09:01 30.4 C 10.54 g/m*3 30.4 C 0 km/h
2394 02-06-2003 16:19:01 30.5 C 10.59 g/m*3 30.5 C 0 km/h
2395 02-06-2003 16:29:01 30.6 C 10.02 g/m*3 30.6 C 0 km/h
2396 02-06-2003 16:39:01 30.4 C 10.54 g/m*3 30.4 C 0 km/h
2397 02-06-2003 16:49:01 30.1 C 10.67 g/m*3 30.1 C 0 km/h
2398 02-06-2003 16:59:01 30.4 C 10.85 g/m*3 30.4 C 0 km/h
2399 02-06-2003 17:09:00 30.4 C 11.16 g/m*3 30.4 C 0 km/h
2400 02-06-2003 17:19:00 30.5 C 11.53 g/m*3 30.5 C 0 km/h
Sensor: Nr:Datum:Temp:Abs-Feuchte:Windchill:Wind:
Aussen-T/F 2401 02-06-2003 17:39:01 28.3 C 11.61 g/m*3 28.3 C 0 km/h
2402 02-06-2003 17:49:01 28.3 C 11.61 g/m*3 28.3 C 0 km/h
2403 02-06-2003 17:59:01 28.7 C 11.59 g/m*3 28.7 C 0 km/h
2404 02-06-2003 18:09:02 29.3 C 10.51 g/m*3 29.3 C 0 km/h
2405 02-06-2003 18:19:02 29.3 C 10.8 g/m*3 29.3 C 0 km/h
2406 02-06-2003 18:29:02 28.9 C 11.14 g/m*3 28.9 C 0 km/h
2407 02-06-2003 18:39:01 28.2 C 11.55 g/m*3 28.2 C 0 km/h
2408 02-06-2003 18:49:01 28.1 C 11.76 g/m*3 28.1 C 0 km/h
2409 02-06-2003 18:59:01 27.4 C 11.84 g/m*3 27.4 C 0 km/h
2410 02-06-2003 19:09:02 27.1 C 11.65 g/m*3 27.1 C 0 km/h
2411 02-06-2003 19:19:02 27 C 11.58 g/m*3 27 C 0 km/h
2412 02-06-2003 19:29:02 25.6 C 14.52 g/m*3 25.6 C 0 km/h
2413 02-06-2003 19:39:01 26.7 C 14.17 g/m*3 26.7 C 0 km/h
2414 02-06-2003 19:49:01 27.5 C 13.23 g/m*3 27.5 C 0 km/h
2415 02-06-2003 19:59:01 27.7 C 12.04 g/m*3 27.7 C 0 km/h
2416 02-06-2003 20:09:01 27.9 C 12.17 g/m*3 27.9 C 0 km/h
2417 02-06-2003 20:19:01 27.5 C 11.38 g/m*3 27.5 C 0 km/h
2418 02-06-2003 20:29:01 26.3 C 11.64 g/m*3 26.3 C 0 km/h
2419 02-06-2003 20:39:01 25.6 C 11.9 g/m*3 25.6 C 0 km/h
2420 02-06-2003 20:49:01 24.8 C 12.06 g/m*3 24.8 C 0 km/h
2421 02-06-2003 20:59:01 24.5 C 11.86 g/m*3 24.5 C 0 km/h
2422 02-06-2003 21:09:01 24.3 C 12.17 g/m*3 24.3 C 0 km/h
2423 02-06-2003 21:19:01 24 C 12.18 g/m*3 24 C 0 km/h
2424 02-06-2003 21:29:01 23.6 C 12.34 g/m*3 23.6 C 0 km/h
2425 02-06-2003 21:39:01 23.6 C 12.55 g/m*3 23.6 C 0 km/h
Sensor: Nr:Datum:Temp:Abs-Feuchte:Windchill:Wind:
Aussen-T/F 2426 02-06-2003 21:49:01 23.3 C 12.13 g/m*3 23.3 C 0 km/h
2427 02-06-2003 21:59:01 23.2 C 11.85 g/m*3 23.2 C 0 km/h
2428 02-06-2003 22:10:00 23.1 C 11.78 g/m*3 23.1 C 0 km/h
2429 02-06-2003 22:20:00 23 C 11.72 g/m*3 23 C 0 km/h
2430 02-06-2003 22:30:00 22.9 C 11.65 g/m*3 22.9 C 0 km/h
2431 02-06-2003 22:40:00 22.7 C 11.72 g/m*3 22.7 C 0 km/h
2432 02-06-2003 22:50:00 22.6 C 11.85 g/m*3 22.6 C 0 km/h
2433 02-06-2003 23:00:00 22.5 C 11.98 g/m*3 22.5 C 0 km/h
2434 02-06-2003 23:10:00 22.3 C 12.05 g/m*3 22.3 C 0 km/h
2435 02-06-2003 23:20:00 22.2 C 11.98 g/m*3 22.2 C 0 km/h
2436 02-06-2003 23:30:00 22.1 C 12.1 g/m*3 22.1 C 0 km/h
2437 02-06-2003 23:40:00 21.8 C 12.28 g/m*3 21.8 C 0 km/h
2438 02-06-2003 23:50:00 21.8 C 12.28 g/m*3 21.8 C 0 km/h
2439 03-06-2003 00:00:00 21.6 C 12.33 g/m*3 21.6 C 0 km/h
2440 03-06-2003 00:10:00 21.4 C 12.37 g/m*3 21.4 C 0 km/h
2441 03-06-2003 00:20:00 21.3 C 12.49 g/m*3 21.3 C 0 km/h
2442 03-06-2003 00:30:00 21.1 C 12.53 g/m*3 21.1 C 0 km/h
2443 03-06-2003 00:40:00 21 C 12.64 g/m*3 21 C 0 km/h
2444 03-06-2003 00:50:00 21 C 12.64 g/m*3 21 C 0 km/h
2445 03-06-2003 01:00:00 20.9 C 12.75 g/m*3 20.9 C 0 km/h
2446 03-06-2003 01:10:00 20.8 C 12.86 g/m*3 20.8 C 0 km/h
2447 03-06-2003 01:20:00 20.7 C 12.78 g/m*3 20.7 C 0 km/h
2448 03-06-2003 01:30:00 20.4 C 12.74 g/m*3 20.4 C 0 km/h
2449 03-06-2003 01:40:00 20.2 C 12.76 g/m*3 20.2 C 0 km/h
2450 03-06-2003 01:50:00 20.1 C 12.69 g/m*3 20.1 C 0 km/h
Sensor: Nr:Datum:Temp:Abs-Feuchte:Windchill:Wind:
Aussen-T/F 2451 03-06-2003 02:00:00 20 C 12.62 g/m*3 20 C 0 km/h
2452 03-06-2003 02:10:00 20.3 C 12.84 g/m*3 20.3 C 0 km/h
2453 03-06-2003 02:20:00 20.4 C 12.91 g/m*3 20.4 C 0 km/h
2454 03-06-2003 02:30:00 20.4 C 12.91 g/m*3 20.4 C 0 km/h
2455 03-06-2003 02:40:00 20.4 C 12.91 g/m*3 20.4 C 0 km/h
2456 03-06-2003 02:50:00 20.4 C 12.91 g/m*3 20.4 C 0 km/h
2457 03-06-2003 03:00:00 20.2 C 12.94 g/m*3 20.2 C 0 km/h
2458 03-06-2003 03:10:00 20 C 12.79 g/m*3 20 C 0 km/h
2459 03-06-2003 03:20:00 19.9 C 13.06 g/m*3 19.9 C 0 km/h
2460 03-06-2003 03:30:00 19.6 C 12.83 g/m*3 19.6 C 0 km/h
2461 03-06-2003 03:40:00 19.4 C 12.85 g/m*3 19.4 C 0 km/h
2462 03-06-2003 03:50:00 19.4 C 12.85 g/m*3 19.4 C 0 km/h
2463 03-06-2003 04:00:00 19.5 C 12.92 g/m*3 19.5 C 0 km/h
2464 03-06-2003 04:10:00 19.4 C 12.85 g/m*3 19.4 C 0 km/h
2465 03-06-2003 04:20:00 19.4 C 13.01 g/m*3 19.4 C 0 km/h
2466 03-06-2003 04:30:00 19.4 C 13.01 g/m*3 19.4 C 0 km/h
2467 03-06-2003 04:40:00 19.4 C 13.01 g/m*3 19.4 C 0 km/h
2468 03-06-2003 04:50:00 19.4 C 12.85 g/m*3 19.4 C 0 km/h
2469 03-06-2003 05:00:00 19.3 C 12.94 g/m*3 19.3 C 0 km/h
2470 03-06-2003 05:10:00 19.1 C 12.79 g/m*3 19.1 C 0 km/h
2471 03-06-2003 05:20:00 19.1 C 12.95 g/m*3 19.1 C 0 km/h
2472 03-06-2003 05:30:00 19.2 C 13.03 g/m*3 19.2 C 0 km/h
2473 03-06-2003 05:40:00 19.3 C 13.1 g/m*3 19.3 C 0 km/h
2474 03-06-2003 05:50:00 19.3 C 13.1 g/m*3 19.3 C 0 km/h
2475 03-06-2003 06:00:00 19.2 C 12.86 g/m*3 19.2 C 0 km/h
Sensor: Nr:Datum:Temp:Abs-Feuchte:Windchill:Wind:
Aussen-T/F 2476 03-06-2003 06:10:00 19.1 C 12.95 g/m*3 19.1 C 0 km/h
2477 03-06-2003 06:20:00 19.2 C 13.03 g/m*3 19.2 C 0 km/h
2478 03-06-2003 06:30:00 19.2 C 13.03 g/m*3 19.2 C 0 km/h
2479 03-06-2003 06:40:00 19.3 C 13.1 g/m*3 19.3 C 0 km/h
2480 03-06-2003 06:50:00 19.3 C 13.1 g/m*3 19.3 C 0 km/h
2481 03-06-2003 07:00:00 19.5 C 13.09 g/m*3 19.5 C 0 km/h
2482 03-06-2003 07:10:00 19.6 C 13.17 g/m*3 19.6 C 0 km/h
2483 03-06-2003 07:20:00 19.7 C 13.25 g/m*3 19.7 C 0 km/h
2484 03-06-2003 07:30:00 19.9 C 13.23 g/m*3 19.9 C 0 km/h
2485 03-06-2003 07:40:00 19.9 C 13.06 g/m*3 19.9 C 0 km/h
2486 03-06-2003 07:50:00 20 C 12.96 g/m*3 20 C 0 km/h
2487 03-06-2003 08:00:00 20 C 12.96 g/m*3 20 C 0 km/h
2488 03-06-2003 08:10:01 20.2 C 13.11 g/m*3 20.2 C 0 km/h
2489 03-06-2003 08:20:01 20.4 C 13.09 g/m*3 20.4 C 0 km/h
2490 03-06-2003 08:30:01 20.8 C 13.04 g/m*3 20.8 C 0 km/h
2491 03-06-2003 08:40:01 21.1 C 13.08 g/m*3 21.1 C 0 km/h
2492 03-06-2003 08:50:01 21.5 C 13.01 g/m*3 21.5 C 0 km/h
2493 03-06-2003 09:00:01 22 C 13 g/m*3 22 C 0 km/h
2494 03-06-2003 09:10:00 22.2 C 12.96 g/m*3 22.2 C 0 km/h
2495 03-06-2003 09:20:00 21.9 C 13.12 g/m*3 21.9 C 0 km/h
2496 03-06-2003 09:30:00 22.5 C 13.18 g/m*3 22.5 C 0 km/h
2497 03-06-2003 09:40:01 23 C 12.95 g/m*3 23 C 0 km/h
2498 03-06-2003 09:50:01 22.9 C 12.88 g/m*3 22.9 C 0 km/h
2499 03-06-2003 10:00:01 22.8 C 13 g/m*3 22.8 C 0 km/h
2500 03-06-2003 10:10:01 22.9 C 13.08 g/m*3 22.9 C 0 km/h
Sensor: Nr:Datum:Temp:Abs-Feuchte:Windchill:Wind:
Aussen-T/F 2501 03-06-2003 10:20:01 23.1 C 12.61 g/m*3 23.1 C 0 km/h
2502 03-06-2003 10:30:01 23.1 C 12.61 g/m*3 23.1 C 0 km/h
2503 03-06-2003 10:40:01 24 C 12.62 g/m*3 24 C 0 km/h
2504 03-06-2003 10:50:01 24.5 C 12.76 g/m*3 24.5 C 0 km/h
2505 03-06-2003 11:00:01 25.8 C 13 g/m*3 25.8 C 0 km/h
2506 03-06-2003 11:10:02 25.5 C 12.55 g/m*3 25.5 C 0 km/h
2507 03-06-2003 11:20:02 25.5 C 12.55 g/m*3 25.5 C 0 km/h
2508 03-06-2003 11:30:02 26.3 C 12.63 g/m*3 26.3 C 0 km/h
2509 03-06-2003 11:40:01 27 C 11.84 g/m*3 27 C 0 km/h
2510 03-06-2003 11:50:01 27.3 C 12.3 g/m*3 27.3 C 0 km/h
2511 03-06-2003 12:00:01 27.4 C 11.58 g/m*3 27.4 C 0 km/h
2512 03-06-2003 12:10:02 28.7 C 11.87 g/m*3 28.7 C 0 km/h
2513 03-06-2003 12:20:02 29.1 C 11.84 g/m*3 29.1 C 0 km/h
2514 03-06-2003 12:30:02 29.2 C 11.91 g/m*3 29.2 C 0 km/h
2515 03-06-2003 12:40:01 30.1 C 12.2 g/m*3 30.1 C 0 km/h
2516 03-06-2003 12:50:01 30.3 C 11.4 g/m*3 30.3 C 0 km/h
2517 03-06-2003 13:00:01 30.8 C 11.08 g/m*3 30.8 C 0 km/h
2518 03-06-2003 13:10:01 30.3 C 10.79 g/m*3 30.3 C 0 km/h
2519 03-06-2003 13:20:01 31.4 C 10.46 g/m*3 31.4 C 0 km/h
2520 03-06-2003 13:30:01 30.9 C 9.87 g/m*3 30.9 C 0 km/h
2521 03-06-2003 13:40:00 31.3 C 10.08 g/m*3 31.3 C 0 km/h
2522 03-06-2003 13:50:00 31.3 C 9.76 g/m*3 31.3 C 0 km/h
2523 03-06-2003 14:00:00 31.2 C 10.03 g/m*3 31.2 C 0 km/h
2524 03-06-2003 14:10:01 30.7 C 10.39 g/m*3 30.7 C 0 km/h
2525 03-06-2003 14:20:01 30.4 C 10.85 g/m*3 30.4 C 0 km/h
Sensor: Nr:Datum:Temp:Abs-Feuchte:Windchill:Wind:
Aussen-T/F 2526 03-06-2003 14:30:01 30.3 C 11.1 g/m*3 30.3 C 0 km/h
2527 03-06-2003 14:40:01 30.6 C 11.28 g/m*3 30.6 C 0 km/h
2528 03-06-2003 14:50:01 31 C 11.84 g/m*3 31 C 0 km/h
2529 03-06-2003 15:00:01 30.7 C 11.02 g/m*3 30.7 C 0 km/h
2530 03-06-2003 15:10:02 31.6 C 11.57 g/m*3 31.6 C 0 km/h
2531 03-06-2003 15:20:02 31.2 C 10.67 g/m*3 31.2 C 0 km/h
2532 03-06-2003 15:30:02 30.6 C 11.28 g/m*3 30.6 C 0 km/h
2533 03-06-2003 15:40:01 30.3 C 12.33 g/m*3 30.3 C 0 km/h
2534 03-06-2003 15:50:01 30.7 C 11.65 g/m*3 30.7 C 0 km/h
2535 03-06-2003 16:00:01 31.6 C 11.57 g/m*3 31.6 C 0 km/h
2536 03-06-2003 16:10:02 32.1 C 10.86 g/m*3 32.1 C 0 km/h
2537 03-06-2003 16:20:02 32 C 10.8 g/m*3 32 C 0 km/h
2538 03-06-2003 16:30:02 31.5 C 10.85 g/m*3 31.5 C 0 km/h
2539 03-06-2003 16:40:02 31.7 C 10.96 g/m*3 31.7 C 0 km/h
2540 03-06-2003 16:50:02 31.2 C 11.65 g/m*3 31.2 C 0 km/h
2541 03-06-2003 17:00:02 30.6 C 13.16 g/m*3 30.6 C 0 km/h
2542 03-06-2003 17:10:01 30.1 C 13.42 g/m*3 30.1 C 0 km/h
2543 03-06-2003 17:20:01 29.7 C 14.02 g/m*3 29.7 C 0 km/h
2544 03-06-2003 17:30:01 29 C 14.07 g/m*3 29 C 0 km/h
2545 03-06-2003 17:40:23 27.2 C 14.57 g/m*3 27.2 C 0 km/h
2546 03-06-2003 17:50:23 23.5 C 15.86 g/m*3 23.5 C 0 km/h
2547 03-06-2003 18:00:54 22.3 C 16.19 g/m*3 22.3 C 0 km/h
2548 03-06-2003 18:10:54 22.1 C 16.59 g/m*3 22.1 C 0 km/h
2549 03-06-2003 18:20:54 23.9 C 18.82 g/m*3 23.9 C 0 km/h
2550 03-06-2003 18:30:08 23.8 C 17.21 g/m*3 23.8 C 0 km/h
Sensor: Nr:Datum:Temp:Abs-Feuchte:Windchill:Wind:
Aussen-T/F 2551 03-06-2003 18:40:08 24.7 C 17.65 g/m*3 24.7 C 0 km/h
2552 03-06-2003 18:50:08 25.1 C 17.59 g/m*3 25.1 C 0 km/h
2553 03-06-2003 19:00:08 21.9 C 15.05 g/m*3 21.9 C 0 km/h
2554 03-06-2003 19:10:08 20.7 C 15.3 g/m*3 20.7 C 0 km/h
2555 03-06-2003 19:20:52 21.2 C 16.12 g/m*3 21.2 C 0 km/h
2556 03-06-2003 19:30:52 19.6 C 14.69 g/m*3 19.6 C 0 km/h
2557 03-06-2003 19:40:52 19.2 C 14.68 g/m*3 19.2 C 0 km/h
2558 03-06-2003 19:50:01 19.3 C 14.93 g/m*3 19.3 C 0 km/h
2559 03-06-2003 20:00:01 19.4 C 15.02 g/m*3 19.4 C 0 km/h
2560 03-06-2003 20:10:01 19.5 C 14.77 g/m*3 19.5 C 0 km/h
2561 03-06-2003 20:20:01 19.3 C 14.76 g/m*3 19.3 C 0 km/h
2562 03-06-2003 20:30:01 19.5 C 14.94 g/m*3 19.5 C 0 km/h
2563 03-06-2003 20:40:01 19.4 C 14.68 g/m*3 19.4 C 0 km/h
2564 03-06-2003 20:50:01 19.4 C 14.68 g/m*3 19.4 C 0 km/h
2565 03-06-2003 21:00:01 19.4 C 14.52 g/m*3 19.4 C 0 km/h
2566 03-06-2003 21:10:01 19.3 C 14.6 g/m*3 19.3 C 0 km/h
2567 03-06-2003 21:20:01 19.4 C 14.68 g/m*3 19.4 C 0 km/h
2568 03-06-2003 21:30:01 19.2 C 14.35 g/m*3 19.2 C 0 km/h
2569 03-06-2003 21:40:01 19.2 C 14.51 g/m*3 19.2 C 0 km/h
2570 03-06-2003 21:50:01 19.2 C 14.51 g/m*3 19.2 C 0 km/h
2571 03-06-2003 22:00:01 19.4 C 14.52 g/m*3 19.4 C 0 km/h
2572 03-06-2003 22:11:04 19.4 C 14.52 g/m*3 19.4 C 0 km/h
2573 03-06-2003 22:21:04 19.3 C 14.43 g/m*3 19.3 C 0 km/h
2574 03-06-2003 22:31:04 19.4 C 14.52 g/m*3 19.4 C 0 km/h
2575 03-06-2003 22:41:04 19.3 C 14.43 g/m*3 19.3 C 0 km/h
Sensor: Nr:Datum:Temp:Abs-Feuchte:Windchill:Wind:
Aussen-T/F 2576 03-06-2003 22:51:04 19.1 C 14.43 g/m*3 19.1 C 0 km/h
2577 03-06-2003 23:01:04 19.1 C 14.59 g/m*3 19.1 C 0 km/h
2578 03-06-2003 23:11:04 19.1 C 14.59 g/m*3 19.1 C 0 km/h
2579 03-06-2003 23:21:04 19 C 14.5 g/m*3 19 C 0 km/h
2580 03-06-2003 23:31:04 19.1 C 14.59 g/m*3 19.1 C 0 km/h
2581 03-06-2003 23:41:04 19 C 14.5 g/m*3 19 C 0 km/h
2582 03-06-2003 23:51:04 19.1 C 14.59 g/m*3 19.1 C 0 km/h
2583 04-06-2003 00:01:04 19.1 C 14.59 g/m*3 19.1 C 0 km/h
2584 04-06-2003 00:11:04 19 C 14.34 g/m*3 19 C 0 km/h
2585 04-06-2003 00:21:04 19.1 C 14.43 g/m*3 19.1 C 0 km/h
2586 04-06-2003 00:31:04 19 C 14.34 g/m*3 19 C 0 km/h
2587 04-06-2003 00:41:04 19.1 C 14.43 g/m*3 19.1 C 0 km/h
2588 04-06-2003 00:51:04 18.8 C 14.33 g/m*3 18.8 C 0 km/h
2589 04-06-2003 01:01:04 18.7 C 14.25 g/m*3 18.7 C 0 km/h
2590 04-06-2003 01:11:04 18.6 C 14.17 g/m*3 18.6 C 0 km/h
2591 04-06-2003 01:21:04 18.6 C 14.17 g/m*3 18.6 C 0 km/h
2592 04-06-2003 01:31:04 18.5 C 14.08 g/m*3 18.5 C 0 km/h
2593 04-06-2003 01:41:04 18.5 C 14.08 g/m*3 18.5 C 0 km/h
2594 04-06-2003 01:51:04 18.6 C 14.17 g/m*3 18.6 C 0 km/h
2595 04-06-2003 02:01:04 18.7 C 14.25 g/m*3 18.7 C 0 km/h
2596 04-06-2003 02:11:04 18.8 C 14.33 g/m*3 18.8 C 0 km/h
2597 04-06-2003 02:21:04 18.7 C 14.25 g/m*3 18.7 C 0 km/h
2598 04-06-2003 02:31:04 18.7 C 14.25 g/m*3 18.7 C 0 km/h
2599 04-06-2003 02:41:04 18.7 C 14.25 g/m*3 18.7 C 0 km/h
2600 04-06-2003 02:51:04 18.6 C 14.17 g/m*3 18.6 C 0 km/h
Sensor: Nr:Datum:Temp:Abs-Feuchte:Windchill:Wind:
Aussen-T/F 2601 04-06-2003 03:01:04 18.6 C 14.17 g/m*3 18.6 C 0 km/h
2602 04-06-2003 03:11:04 18.7 C 14.41 g/m*3 18.7 C 0 km/h
2603 04-06-2003 03:21:04 18.7 C 14.41 g/m*3 18.7 C 0 km/h
2604 04-06-2003 03:31:04 18.8 C 14.49 g/m*3 18.8 C 0 km/h
2605 04-06-2003 03:41:04 18.8 C 14.49 g/m*3 18.8 C 0 km/h
2606 04-06-2003 03:51:04 18.9 C 14.58 g/m*3 18.9 C 0 km/h
2607 04-06-2003 04:01:04 18.9 C 14.42 g/m*3 18.9 C 0 km/h
2608 04-06-2003 04:11:04 18.9 C 14.42 g/m*3 18.9 C 0 km/h
2609 04-06-2003 04:21:04 18.8 C 14.33 g/m*3 18.8 C 0 km/h
2610 04-06-2003 04:31:04 18.7 C 14.25 g/m*3 18.7 C 0 km/h
2611 04-06-2003 04:41:04 18.5 C 14.08 g/m*3 18.5 C 0 km/h
2612 04-06-2003 04:51:04 18.4 C 14 g/m*3 18.4 C 0 km/h
2613 04-06-2003 05:01:04 18.3 C 13.92 g/m*3 18.3 C 0 km/h
2614 04-06-2003 05:11:04 18.3 C 13.92 g/m*3 18.3 C 0 km/h
2615 04-06-2003 05:21:04 18.3 C 13.92 g/m*3 18.3 C 0 km/h
2616 04-06-2003 05:31:04 18.4 C 14.16 g/m*3 18.4 C 0 km/h
2617 04-06-2003 05:41:04 18.4 C 14.16 g/m*3 18.4 C 0 km/h
2618 04-06-2003 05:51:04 18.5 C 14.24 g/m*3 18.5 C 0 km/h
2619 04-06-2003 06:01:04 18.6 C 14.32 g/m*3 18.6 C 0 km/h
2620 04-06-2003 06:11:04 18.6 C 14.32 g/m*3 18.6 C 0 km/h
2621 04-06-2003 06:21:04 18.6 C 14.17 g/m*3 18.6 C 0 km/h
2622 04-06-2003 06:31:04 18.5 C 14.08 g/m*3 18.5 C 0 km/h
2623 04-06-2003 06:41:04 18.4 C 14 g/m*3 18.4 C 0 km/h
2624 04-06-2003 06:51:04 18.5 C 14.24 g/m*3 18.5 C 0 km/h
2625 04-06-2003 07:01:01 18.7 C 14.41 g/m*3 18.7 C 0 km/h
Sensor: Nr:Datum:Temp:Abs-Feuchte:Windchill:Wind:
Aussen-T/F 2626 04-06-2003 07:11:02 18.9 C 14.42 g/m*3 18.9 C 0 km/h
2627 04-06-2003 07:21:02 18.9 C 14.42 g/m*3 18.9 C 0 km/h
2628 04-06-2003 07:31:02 18.9 C 14.42 g/m*3 18.9 C 0 km/h
2629 04-06-2003 07:41:00 19.1 C 14.43 g/m*3 19.1 C 0 km/h
2630 04-06-2003 07:51:00 19.5 C 14.43 g/m*3 19.5 C 0 km/h
2631 04-06-2003 08:01:00 19.7 C 14.43 g/m*3 19.7 C 0 km/h
2632 04-06-2003 08:11:00 19.8 C 14.35 g/m*3 19.8 C 0 km/h
2633 04-06-2003 08:21:00 20 C 14.34 g/m*3 20 C 0 km/h
2634 04-06-2003 08:31:00 20.4 C 14.51 g/m*3 20.4 C 0 km/h
2635 04-06-2003 08:41:01 20.8 C 14.85 g/m*3 20.8 C 0 km/h
2636 04-06-2003 08:51:01 20.8 C 14.67 g/m*3 20.8 C 0 km/h
2637 04-06-2003 09:01:01 20.7 C 14.76 g/m*3 20.7 C 0 km/h
2638 04-06-2003 09:11:01 20.7 C 14.76 g/m*3 20.7 C 0 km/h
2639 04-06-2003 09:21:01 20.6 C 14.86 g/m*3 20.6 C 0 km/h
2640 04-06-2003 09:31:01 21.2 C 15.2 g/m*3 21.2 C 0 km/h
2641 04-06-2003 09:41:01 21.8 C 15.54 g/m*3 21.8 C 0 km/h
2642 04-06-2003 09:51:01 22.6 C 15.87 g/m*3 22.6 C 0 km/h
2643 04-06-2003 10:01:01 23.1 C 16.12 g/m*3 23.1 C 0 km/h
2644 04-06-2003 10:11:01 23.5 C 16.07 g/m*3 23.5 C 0 km/h
2645 04-06-2003 10:21:01 23.9 C 16.44 g/m*3 23.9 C 0 km/h
2646 04-06-2003 10:31:01 24.1 C 16.19 g/m*3 24.1 C 0 km/h
2647 04-06-2003 10:41:01 25.1 C 15.28 g/m*3 25.1 C 0 km/h
2648 04-06-2003 10:51:01 26 C 16.07 g/m*3 26 C 0 km/h
2649 04-06-2003 11:01:01 26.6 C 15.35 g/m*3 26.6 C 0 km/h
2650 04-06-2003 11:11:02 27.1 C 14.75 g/m*3 27.1 C 0 km/h
Sensor: Nr:Datum:Temp:Abs-Feuchte:Windchill:Wind:
Aussen-T/F 2651 04-06-2003 11:21:02 27.4 C 14.21 g/m*3 27.4 C 0 km/h
2652 04-06-2003 11:31:02 28 C 14.14 g/m*3 28 C 0 km/h
2653 04-06-2003 11:41:01 28.2 C 14.02 g/m*3 28.2 C 0 km/h
2654 04-06-2003 11:51:01 29 C 14.65 g/m*3 29 C 0 km/h
2655 04-06-2003 12:01:01 28.8 C 13.07 g/m*3 28.8 C 0 km/h
2656 04-06-2003 12:21:02 30.5 C 12.77 g/m*3 30.5 C 0 km/h
2657 04-06-2003 12:31:02 30.4 C 12.08 g/m*3 30.4 C 0 km/h
2658 04-06-2003 12:41:01 30.3 C 11.71 g/m*3 30.3 C 0 km/h
2659 04-06-2003 12:51:01 30.6 C 10.96 g/m*3 30.6 C 0 km/h
2660 04-06-2003 13:01:01 30.6 C 10.96 g/m*3 30.6 C 0 km/h
2661 04-06-2003 13:11:01 31.3 C 9.76 g/m*3 31.3 C 0 km/h
2662 04-06-2003 13:21:01 31.2 C 9.7 g/m*3 31.2 C 0 km/h
2663 04-06-2003 13:31:01 31.8 C 9.69 g/m*3 31.8 C 0 km/h
2664 04-06-2003 13:41:00 31.7 C 9.97 g/m*3 31.7 C 0 km/h
2665 04-06-2003 13:51:00 31.9 C 9.74 g/m*3 31.9 C 0 km/h
2666 04-06-2003 14:01:00 31.5 C 9.86 g/m*3 31.5 C 0 km/h
2667 04-06-2003 14:11:01 30.9 C 10.19 g/m*3 30.9 C 0 km/h
2668 04-06-2003 14:21:01 31 C 9.92 g/m*3 31 C 0 km/h
2669 04-06-2003 14:31:01 31.4 C 9.81 g/m*3 31.4 C 0 km/h
2670 04-06-2003 14:41:02 31.7 C 9.97 g/m*3 31.7 C 0 km/h
2671 04-06-2003 14:51:02 31.7 C 9.63 g/m*3 31.7 C 0 km/h
2672 04-06-2003 15:01:02 32 C 9.45 g/m*3 32 C 0 km/h
2673 04-06-2003 15:11:01 32.1 C 9.84 g/m*3 32.1 C 0 km/h
2674 04-06-2003 15:21:01 32.3 C 8.58 g/m*3 32.3 C 0 km/h
2675 04-06-2003 15:31:01 32.1 C 8.48 g/m*3 32.1 C 0 km/h
Sensor: Nr:Datum:Temp:Abs-Feuchte:Windchill:Wind:
Aussen-T/F 2676 04-06-2003 15:41:01 32.4 C 7.93 g/m*3 32.4 C 0 km/h
2677 04-06-2003 15:51:01 31.8 C 8.35 g/m*3 31.8 C 0 km/h
2678 04-06-2003 16:01:01 32.1 C 8.82 g/m*3 32.1 C 0 km/h
2679 04-06-2003 16:11:02 31.5 C 7.89 g/m*3 31.5 C 0 km/h
2680 04-06-2003 16:21:02 31.4 C 8.5 g/m*3 31.4 C 0 km/h
2681 04-06-2003 16:31:02 31.9 C 8.73 g/m*3 31.9 C 0 km/h
2682 04-06-2003 16:41:00 32 C 8.44 g/m*3 32 C 0 km/h
2683 04-06-2003 16:51:00 32.1 C 8.48 g/m*3 32.1 C 0 km/h
2684 04-06-2003 17:01:00 32 C 8.44 g/m*3 32 C 0 km/h
2685 04-06-2003 17:11:00 31.7 C 8.97 g/m*3 31.7 C 0 km/h
2686 04-06-2003 17:21:00 31.7 C 9.3 g/m*3 31.7 C 0 km/h
2687 04-06-2003 17:31:00 31.8 C 8.68 g/m*3 31.8 C 0 km/h
2688 04-06-2003 17:41:01 31.8 C 9.02 g/m*3 31.8 C 0 km/h
2689 04-06-2003 17:51:01 32.3 C 8.92 g/m*3 32.3 C 0 km/h
2690 04-06-2003 18:01:01 32 C 9.11 g/m*3 32 C 0 km/h
2691 04-06-2003 18:11:01 32.2 C 9.21 g/m*3 32.2 C 0 km/h
2692 04-06-2003 18:21:01 32 C 8.78 g/m*3 32 C 0 km/h
2693 04-06-2003 18:31:01 32.2 C 9.21 g/m*3 32.2 C 0 km/h
2694 04-06-2003 18:41:01 31.7 C 8.97 g/m*3 31.7 C 0 km/h
2695 04-06-2003 18:51:01 31.8 C 9.69 g/m*3 31.8 C 0 km/h
2696 04-06-2003 19:01:01 31.8 C 8.68 g/m*3 31.8 C 0 km/h
2697 04-06-2003 19:11:01 32 C 9.79 g/m*3 32 C 0 km/h
2698 04-06-2003 19:21:01 31.8 C 10.35 g/m*3 31.8 C 0 km/h
2699 04-06-2003 19:31:01 31.4 C 9.81 g/m*3 31.4 C 0 km/h
2700 04-06-2003 19:41:01 31.4 C 10.46 g/m*3 31.4 C 0 km/h
Sensor: Nr:Datum:Temp:Abs-Feuchte:Windchill:Wind:
Aussen-T/F 2701 04-06-2003 19:51:01 31.3 C 11.38 g/m*3 31.3 C 0 km/h
2702 04-06-2003 20:01:01 31 C 10.88 g/m*3 31 C 0 km/h
2703 04-06-2003 20:11:01 30.7 C 11.02 g/m*3 30.7 C 0 km/h
2704 04-06-2003 20:21:01 30.4 C 11.16 g/m*3 30.4 C 0 km/h
2705 04-06-2003 20:31:01 30 C 11.52 g/m*3 30 C 0 km/h
2706 04-06-2003 20:41:01 29.7 C 11.93 g/m*3 29.7 C 0 km/h
2707 04-06-2003 20:51:01 28.9 C 12.28 g/m*3 28.9 C 0 km/h
2708 04-06-2003 21:01:01 28.2 C 11.55 g/m*3 28.2 C 0 km/h
2709 04-06-2003 21:11:01 27.8 C 12.1 g/m*3 27.8 C 0 km/h
2710 04-06-2003 21:21:01 26.9 C 12.03 g/m*3 26.9 C 0 km/h
2711 04-06-2003 21:31:01 26.7 C 12.15 g/m*3 26.7 C 0 km/h
2712 04-06-2003 21:41:01 26.5 C 12.52 g/m*3 26.5 C 0 km/h
2713 04-06-2003 21:51:01 26.4 C 12.45 g/m*3 26.4 C 0 km/h
2714 04-06-2003 22:01:01 26.1 C 12.73 g/m*3 26.1 C 0 km/h
2715 04-06-2003 22:12:01 25.6 C 12.62 g/m*3 25.6 C 0 km/h
2716 04-06-2003 22:22:01 25.3 C 12.64 g/m*3 25.3 C 0 km/h
2717 04-06-2003 22:32:01 24.9 C 12.82 g/m*3 24.9 C 0 km/h
2718 04-06-2003 22:42:01 24.7 C 12.45 g/m*3 24.7 C 0 km/h
2719 04-06-2003 22:52:01 24.5 C 12.53 g/m*3 24.5 C 0 km/h
2720 04-06-2003 23:02:01 24.6 C 13.28 g/m*3 24.6 C 0 km/h
2721 04-06-2003 23:12:01 24.5 C 13.2 g/m*3 24.5 C 0 km/h
2722 04-06-2003 23:22:01 24.3 C 13.06 g/m*3 24.3 C 0 km/h
2723 04-06-2003 23:32:01 23.9 C 13.2 g/m*3 23.9 C 0 km/h
2724 04-06-2003 23:42:01 23.7 C 13.05 g/m*3 23.7 C 0 km/h
2725 04-06-2003 23:52:01 23.6 C 13.19 g/m*3 23.6 C 0 km/h
Sensor: Nr:Datum:Temp:Abs-Feuchte:Windchill:Wind:
Aussen-T/F 2726 05-06-2003 00:02:01 23.4 C 13.04 g/m*3 23.4 C 0 km/h
2727 05-06-2003 00:12:01 23.3 C 13.17 g/m*3 23.3 C 0 km/h
2728 05-06-2003 00:22:01 23.1 C 13.02 g/m*3 23.1 C 0 km/h
2729 05-06-2003 00:32:01 22.9 C 13.28 g/m*3 22.9 C 0 km/h
2730 05-06-2003 00:42:01 22.7 C 13.13 g/m*3 22.7 C 0 km/h
2731 05-06-2003 00:52:01 22.6 C 13.06 g/m*3 22.6 C 0 km/h
2732 05-06-2003 01:02:01 22.2 C 12.76 g/m*3 22.2 C 0 km/h
2733 05-06-2003 01:12:01 22.1 C 12.69 g/m*3 22.1 C 0 km/h
2734 05-06-2003 01:22:01 22 C 12.81 g/m*3 22 C 0 km/h
2735 05-06-2003 01:32:01 21.8 C 12.85 g/m*3 21.8 C 0 km/h
2736 05-06-2003 01:42:01 21.8 C 13.05 g/m*3 21.8 C 0 km/h
2737 05-06-2003 01:52:01 21.7 C 12.97 g/m*3 21.7 C 0 km/h
2738 05-06-2003 02:02:01 21.7 C 12.97 g/m*3 21.7 C 0 km/h
2739 05-06-2003 02:12:01 21.7 C 12.97 g/m*3 21.7 C 0 km/h
2740 05-06-2003 02:22:01 21.8 C 13.05 g/m*3 21.8 C 0 km/h
2741 05-06-2003 02:32:01 21.9 C 13.31 g/m*3 21.9 C 0 km/h
2742 05-06-2003 02:42:01 22 C 13.2 g/m*3 22 C 0 km/h
2743 05-06-2003 02:52:01 21.9 C 13.12 g/m*3 21.9 C 0 km/h
2744 05-06-2003 03:02:01 22 C 13.2 g/m*3 22 C 0 km/h
2745 05-06-2003 03:12:01 21.7 C 13.16 g/m*3 21.7 C 0 km/h
2746 05-06-2003 03:22:01 21.7 C 13.35 g/m*3 21.7 C 0 km/h
2747 05-06-2003 03:32:01 21.3 C 13.05 g/m*3 21.3 C 0 km/h
2748 05-06-2003 03:42:01 21.4 C 13.31 g/m*3 21.4 C 0 km/h
2749 05-06-2003 03:52:01 21.1 C 13.08 g/m*3 21.1 C 0 km/h
2750 05-06-2003 04:02:01 20.8 C 13.04 g/m*3 20.8 C 0 km/h
Sensor: Nr:Datum:Temp:Abs-Feuchte:Windchill:Wind:
Aussen-T/F 2751 05-06-2003 04:12:01 20.8 C 13.22 g/m*3 20.8 C 0 km/h
2752 05-06-2003 04:22:01 20.9 C 13.11 g/m*3 20.9 C 0 km/h
2753 05-06-2003 04:32:01 21 C 13.19 g/m*3 21 C 0 km/h
2754 05-06-2003 04:42:01 20.9 C 13.11 g/m*3 20.9 C 0 km/h
2755 05-06-2003 04:52:01 20.6 C 13.07 g/m*3 20.6 C 0 km/h
2756 05-06-2003 05:02:01 20.7 C 13.14 g/m*3 20.7 C 0 km/h
2757 05-06-2003 05:12:01 20.8 C 13.04 g/m*3 20.8 C 0 km/h
2758 05-06-2003 05:22:01 20.8 C 13.04 g/m*3 20.8 C 0 km/h
2759 05-06-2003 05:32:01 20.8 C 13.04 g/m*3 20.8 C 0 km/h
2760 05-06-2003 05:42:01 20.8 C 13.04 g/m*3 20.8 C 0 km/h
2761 05-06-2003 05:52:01 20.8 C 13.22 g/m*3 20.8 C 0 km/h
2762 05-06-2003 06:02:01 20.6 C 13.24 g/m*3 20.6 C 0 km/h
2763 05-06-2003 06:12:01 20.4 C 13.09 g/m*3 20.4 C 0 km/h
2764 05-06-2003 06:22:01 20.3 C 13.19 g/m*3 20.3 C 0 km/h
2765 05-06-2003 06:32:01 20.2 C 13.29 g/m*3 20.2 C 0 km/h
2766 05-06-2003 06:42:01 20.6 C 13.42 g/m*3 20.6 C 0 km/h
2767 05-06-2003 06:52:01 20.5 C 13.35 g/m*3 20.5 C 0 km/h
2768 05-06-2003 07:02:01 20.7 C 13.32 g/m*3 20.7 C 0 km/h
2769 05-06-2003 07:12:01 21 C 13.37 g/m*3 21 C 0 km/h
2770 05-06-2003 07:22:01 21.5 C 13.39 g/m*3 21.5 C 0 km/h
2771 05-06-2003 07:32:01 21.7 C 13.16 g/m*3 21.7 C 0 km/h
2772 05-06-2003 07:42:01 21.8 C 13.24 g/m*3 21.8 C 0 km/h
2773 05-06-2003 07:52:01 21.7 C 13.35 g/m*3 21.7 C 0 km/h
2774 05-06-2003 08:02:00 22.1 C 13.47 g/m*3 22.1 C 0 km/h
2775 05-06-2003 08:12:00 22.1 C 13.47 g/m*3 22.1 C 0 km/h
Sensor: Nr:Datum:Temp:Abs-Feuchte:Windchill:Wind:
Aussen-T/F 2776 05-06-2003 08:22:00 22.4 C 13.7 g/m*3 22.4 C 0 km/h
2777 05-06-2003 08:32:00 22.6 C 13.86 g/m*3 22.6 C 0 km/h
2778 05-06-2003 08:42:00 22.8 C 13.82 g/m*3 22.8 C 0 km/h
2779 05-06-2003 08:52:00 23 C 13.77 g/m*3 23 C 0 km/h
2780 05-06-2003 09:02:00 23.5 C 13.75 g/m*3 23.5 C 0 km/h
2781 05-06-2003 09:12:00 24.2 C 13.86 g/m*3 24.2 C 0 km/h
2782 05-06-2003 09:22:00 24.7 C 13.58 g/m*3 24.7 C 0 km/h
2783 05-06-2003 09:32:01 25 C 13.35 g/m*3 25 C 0 km/h
2784 05-06-2003 09:42:01 25 C 12.89 g/m*3 25 C 0 km/h
2785 05-06-2003 09:52:01 25.6 C 13.09 g/m*3 25.6 C 0 km/h
2786 05-06-2003 10:02:01 26.7 C 12.91 g/m*3 26.7 C 0 km/h
2787 05-06-2003 10:12:01 26.8 C 12.98 g/m*3 26.8 C 0 km/h
2788 05-06-2003 10:22:01 27.1 C 13.2 g/m*3 27.1 C 0 km/h
2789 05-06-2003 10:32:00 27.5 C 12.96 g/m*3 27.5 C 0 km/h
2790 05-06-2003 10:42:00 27.3 C 12.82 g/m*3 27.3 C 0 km/h
2791 05-06-2003 10:52:00 27 C 12.61 g/m*3 27 C 0 km/h
2792 05-06-2003 11:02:00 27.1 C 12.68 g/m*3 27.1 C 0 km/h
2793 05-06-2003 11:02:01 27.1 C 12.68 g/m*3 27.1 C 0 km/h
2794 05-06-2003 11:12:00 26.8 C 12.98 g/m*3 26.8 C 0 km/h
2795 05-06-2003 11:22:00 26.6 C 12.84 g/m*3 26.6 C 0 km/h
2796 05-06-2003 11:32:00 27.1 C 12.94 g/m*3 27.1 C 0 km/h
2797 05-06-2003 11:42:00 26.9 C 13.31 g/m*3 26.9 C 0 km/h
2798 05-06-2003 11:52:00 25.8 C 13.48 g/m*3 25.8 C 0 km/h
2799 05-06-2003 12:02:01 23.9 C 14.71 g/m*3 23.9 C 0 km/h
2800 05-06-2003 12:12:01 24 C 14.79 g/m*3 24 C 0 km/h
Sensor: Nr:Datum:Temp:Abs-Feuchte:Windchill:Wind:
Aussen-T/F 2801 05-06-2003 12:22:01 24.5 C 14.55 g/m*3 24.5 C 0 km/h
2802 05-06-2003 12:32:01 25 C 14.04 g/m*3 25 C 0 km/h
2803 05-06-2003 12:42:01 25 C 13.35 g/m*3 25 C 0 km/h
2804 05-06-2003 12:52:01 25.6 C 13.57 g/m*3 25.6 C 0 km/h
2805 05-06-2003 13:02:01 27.4 C 13.42 g/m*3 27.4 C 0 km/h
2806 05-06-2003 13:12:01 28.5 C 13.14 g/m*3 28.5 C 0 km/h
2807 05-06-2003 13:22:01 28.4 C 13.06 g/m*3 28.4 C 0 km/h
2808 05-06-2003 13:32:01 28.5 C 12.58 g/m*3 28.5 C 0 km/h
2809 05-06-2003 13:42:01 30 C 12.43 g/m*3 30 C 0 km/h
2810 05-06-2003 13:52:01 30 C 12.13 g/m*3 30 C 0 km/h
2811 05-06-2003 14:02:07 30.1 C 11.28 g/m*3 30.1 C 0 km/h
2812 05-06-2003 14:12:07 30.2 C 11.96 g/m*3 30.2 C 0 km/h
2813 05-06-2003 14:22:07 28.1 C 12.3 g/m*3 28.1 C 0 km/h
2814 05-06-2003 14:32:00 27.6 C 13.3 g/m*3 27.6 C 0 km/h
2815 05-06-2003 14:42:00 26.1 C 12.98 g/m*3 26.1 C 0 km/h
2816 05-06-2003 14:52:00 24.9 C 13.05 g/m*3 24.9 C 0 km/h
2817 05-06-2003 15:02:00 24.1 C 12.69 g/m*3 24.1 C 0 km/h
2818 05-06-2003 15:12:00 23.4 C 12.62 g/m*3 23.4 C 0 km/h
2819 05-06-2003 15:22:00 22.6 C 12.05 g/m*3 22.6 C 0 km/h
2820 05-06-2003 15:32:01 22.6 C 12.05 g/m*3 22.6 C 0 km/h
2821 05-06-2003 15:42:01 22.7 C 12.53 g/m*3 22.7 C 0 km/h
2822 05-06-2003 15:52:01 22.5 C 12.38 g/m*3 22.5 C 0 km/h
2823 05-06-2003 16:02:01 21.7 C 12.78 g/m*3 21.7 C 0 km/h
2824 05-06-2003 16:12:01 21.2 C 13.34 g/m*3 21.2 C 0 km/h
2825 05-06-2003 16:22:01 22.1 C 13.86 g/m*3 22.1 C 0 km/h
Sensor: Nr:Datum:Temp:Abs-Feuchte:Windchill:Wind:
Aussen-T/F 2826 05-06-2003 16:32:01 22.9 C 12.67 g/m*3 22.9 C 0 km/h
2827 05-06-2003 16:42:01 24.8 C 12.75 g/m*3 24.8 C 0 km/h
2828 05-06-2003 16:52:01 23.8 C 12.26 g/m*3 23.8 C 0 km/h
2829 05-06-2003 17:02:01 25 C 12.2 g/m*3 25 C 0 km/h
2830 05-06-2003 17:12:01 25 C 11.97 g/m*3 25 C 0 km/h
2831 05-06-2003 17:22:01 25.2 C 12.11 g/m*3 25.2 C 0 km/h
2832 05-06-2003 17:32:00 24.4 C 11.79 g/m*3 24.4 C 0 km/h
2833 05-06-2003 17:42:00 24.1 C 11.38 g/m*3 24.1 C 0 km/h
2834 05-06-2003 17:52:00 24.1 C 11.6 g/m*3 24.1 C 0 km/h
2835 05-06-2003 18:02:01 23.4 C 11.35 g/m*3 23.4 C 0 km/h
2836 05-06-2003 18:12:01 22.9 C 11.65 g/m*3 22.9 C 0 km/h
2837 05-06-2003 18:22:01 22.9 C 11.65 g/m*3 22.9 C 0 km/h
2838 05-06-2003 18:32:01 22 C 11.84 g/m*3 22 C 0 km/h
2839 05-06-2003 18:42:01 22.2 C 11.98 g/m*3 22.2 C 0 km/h
2840 05-06-2003 18:52:01 22.5 C 11.78 g/m*3 22.5 C 0 km/h
2841 05-06-2003 19:02:02 22.2 C 11.78 g/m*3 22.2 C 0 km/h
2842 05-06-2003 19:12:02 22.2 C 11.98 g/m*3 22.2 C 0 km/h
2843 05-06-2003 19:22:02 21.8 C 12.09 g/m*3 21.8 C 0 km/h
2844 05-06-2003 19:32:01 21.4 C 11.81 g/m*3 21.4 C 0 km/h
2845 05-06-2003 19:42:01 21.4 C 11.62 g/m*3 21.4 C 0 km/h
2846 05-06-2003 19:52:01 21 C 11.54 g/m*3 21 C 0 km/h
2847 05-06-2003 20:02:01 21.3 C 11.74 g/m*3 21.3 C 0 km/h
2848 05-06-2003 20:12:01 21.4 C 11.81 g/m*3 21.4 C 0 km/h
2849 05-06-2003 20:22:01 21.3 C 11.74 g/m*3 21.3 C 0 km/h
2850 05-06-2003 20:32:01 21.2 C 11.68 g/m*3 21.2 C 0 km/h
Sensor: Nr:Datum:Temp:Abs-Feuchte:Windchill:Wind:
Aussen-T/F 2851 05-06-2003 20:42:01 21.2 C 11.86 g/m*3 21.2 C 0 km/h
2852 05-06-2003 20:52:01 20.8 C 11.41 g/m*3 20.8 C 0 km/h
2853 05-06-2003 21:02:02 20.5 C 11.39 g/m*3 20.5 C 0 km/h
2854 05-06-2003 21:12:02 20.6 C 11.45 g/m*3 20.6 C 0 km/h
2855 05-06-2003 21:22:02 20.4 C 11.32 g/m*3 20.4 C 0 km/h
2856 05-06-2003 21:32:01 20.4 C 11.32 g/m*3 20.4 C 0 km/h
2857 05-06-2003 21:42:01 20.5 C 11.21 g/m*3 20.5 C 0 km/h
2858 05-06-2003 21:52:01 20.4 C 11.32 g/m*3 20.4 C 0 km/h
2859 05-06-2003 22:03:01 20.3 C 11.43 g/m*3 20.3 C 0 km/h
2860 05-06-2003 22:13:01 19.8 C 11.61 g/m*3 19.8 C 0 km/h
2861 05-06-2003 22:23:01 19.2 C 11.54 g/m*3 19.2 C 0 km/h
2862 05-06-2003 22:33:01 18.9 C 11.66 g/m*3 18.9 C 0 km/h
2863 05-06-2003 22:43:01 19.1 C 11.64 g/m*3 19.1 C 0 km/h
2864 05-06-2003 22:53:01 19.2 C 11.87 g/m*3 19.2 C 0 km/h
2865 05-06-2003 23:03:01 18.9 C 11.66 g/m*3 18.9 C 0 km/h
2866 05-06-2003 23:13:01 18.7 C 11.69 g/m*3 18.7 C 0 km/h
2867 05-06-2003 23:23:01 18.3 C 11.57 g/m*3 18.3 C 0 km/h
2868 05-06-2003 23:33:01 18.1 C 11.59 g/m*3 18.1 C 0 km/h
2869 05-06-2003 23:43:01 18 C 11.67 g/m*3 18 C 0 km/h
2870 05-06-2003 23:53:01 17.9 C 11.76 g/m*3 17.9 C 0 km/h
2871 06-06-2003 00:03:01 17.8 C 11.69 g/m*3 17.8 C 0 km/h
2872 06-06-2003 00:13:01 17.8 C 11.84 g/m*3 17.8 C 0 km/h
2873 06-06-2003 00:23:01 17.7 C 11.77 g/m*3 17.7 C 0 km/h
2874 06-06-2003 00:33:01 17.7 C 11.77 g/m*3 17.7 C 0 km/h
2875 06-06-2003 00:43:01 17.5 C 11.78 g/m*3 17.5 C 0 km/h
Sensor: Nr:Datum:Temp:Abs-Feuchte:Windchill:Wind:
Aussen-T/F 2876 06-06-2003 00:53:01 17.2 C 11.57 g/m*3 17.2 C 0 km/h
2877 06-06-2003 01:03:01 17.2 C 11.57 g/m*3 17.2 C 0 km/h
2878 06-06-2003 01:13:01 17.2 C 11.57 g/m*3 17.2 C 0 km/h
2879 06-06-2003 01:23:01 16.9 C 11.65 g/m*3 16.9 C 0 km/h
2880 06-06-2003 01:33:01 16.9 C 11.65 g/m*3 16.9 C 0 km/h
2881 06-06-2003 01:43:01 16.9 C 11.79 g/m*3 16.9 C 0 km/h
2882 06-06-2003 01:53:01 16.8 C 11.72 g/m*3 16.8 C 0 km/h
2883 06-06-2003 02:03:01 16.7 C 11.65 g/m*3 16.7 C 0 km/h
2884 06-06-2003 02:13:01 16.5 C 11.65 g/m*3 16.5 C 0 km/h
2885 06-06-2003 02:23:01 16.3 C 11.52 g/m*3 16.3 C 0 km/h
2886 06-06-2003 02:33:01 16.2 C 11.45 g/m*3 16.2 C 0 km/h
2887 06-06-2003 02:43:01 16 C 11.44 g/m*3 16 C 0 km/h
2888 06-06-2003 02:53:01 16 C 11.58 g/m*3 16 C 0 km/h
2889 06-06-2003 03:03:01 15.8 C 11.44 g/m*3 15.8 C 0 km/h
2890 06-06-2003 03:13:01 15.7 C 11.37 g/m*3 15.7 C 0 km/h
2891 06-06-2003 03:23:01 15.6 C 11.44 g/m*3 15.6 C 0 km/h
2892 06-06-2003 03:33:01 15.5 C 11.37 g/m*3 15.5 C 0 km/h
2893 06-06-2003 03:43:01 15.5 C 11.37 g/m*3 15.5 C 0 km/h
2894 06-06-2003 03:53:01 15.4 C 11.3 g/m*3 15.4 C 0 km/h
2895 06-06-2003 04:03:01 15.4 C 11.3 g/m*3 15.4 C 0 km/h
2896 06-06-2003 04:13:01 15.2 C 11.16 g/m*3 15.2 C 0 km/h
2897 06-06-2003 04:23:01 15.2 C 11.29 g/m*3 15.2 C 0 km/h
2898 06-06-2003 04:33:01 15.1 C 11.22 g/m*3 15.1 C 0 km/h
2899 06-06-2003 04:43:01 15 C 11.16 g/m*3 15 C 0 km/h
2900 06-06-2003 04:53:01 14.9 C 11.22 g/m*3 14.9 C 0 km/h
Sensor: Nr:Datum:Temp:Abs-Feuchte:Windchill:Wind:
Aussen-T/F 2901 06-06-2003 05:03:01 14.8 C 11.15 g/m*3 14.8 C 0 km/h
2902 06-06-2003 05:13:01 14.7 C 11.21 g/m*3 14.7 C 0 km/h
2903 06-06-2003 05:23:01 14.6 C 11.14 g/m*3 14.6 C 0 km/h
2904 06-06-2003 05:33:01 14.6 C 11.14 g/m*3 14.6 C 0 km/h
2905 06-06-2003 05:43:01 14.6 C 11.14 g/m*3 14.6 C 0 km/h
2906 06-06-2003 05:53:01 14.7 C 11.33 g/m*3 14.7 C 0 km/h
2907 06-06-2003 06:03:01 14.6 C 11.26 g/m*3 14.6 C 0 km/h
2908 06-06-2003 06:13:01 14.7 C 11.33 g/m*3 14.7 C 0 km/h
2909 06-06-2003 06:23:01 14.7 C 11.21 g/m*3 14.7 C 0 km/h
2910 06-06-2003 06:33:01 14.7 C 11.21 g/m*3 14.7 C 0 km/h
2911 06-06-2003 06:43:01 14.6 C 11.14 g/m*3 14.6 C 0 km/h
2912 06-06-2003 07:03:01 14.7 C 11.33 g/m*3 14.7 C 0 km/h
2913 06-06-2003 07:13:01 15 C 11.28 g/m*3 15 C 0 km/h
2914 06-06-2003 07:23:01 15.2 C 11.29 g/m*3 15.2 C 0 km/h
2915 06-06-2003 07:33:01 15.7 C 11.51 g/m*3 15.7 C 0 km/h
2916 06-06-2003 07:43:01 15.9 C 11.38 g/m*3 15.9 C 0 km/h
2917 06-06-2003 07:53:01 16 C 11.31 g/m*3 16 C 0 km/h
2918 06-06-2003 08:03:01 15.9 C 11.38 g/m*3 15.9 C 0 km/h
2919 06-06-2003 08:13:01 16.3 C 11.38 g/m*3 16.3 C 0 km/h
2920 06-06-2003 08:23:01 16.4 C 11.45 g/m*3 16.4 C 0 km/h
2921 06-06-2003 08:33:01 17 C 11.58 g/m*3 17 C 0 km/h
2922 06-06-2003 08:43:01 17.4 C 11.56 g/m*3 17.4 C 0 km/h
2923 06-06-2003 08:53:01 17.8 C 11.69 g/m*3 17.8 C 0 km/h
2924 06-06-2003 09:03:01 18.1 C 11.59 g/m*3 18.1 C 0 km/h
2925 06-06-2003 09:13:01 18.3 C 11.88 g/m*3 18.3 C 0 km/h
Sensor: Nr:Datum:Temp:Abs-Feuchte:Windchill:Wind:
Aussen-T/F 2926 06-06-2003 09:23:01 18.4 C 11.95 g/m*3 18.4 C 0 km/h
2927 06-06-2003 09:33:00 18.9 C 11.99 g/m*3 18.9 C 0 km/h
2928 06-06-2003 09:43:00 19.5 C 11.75 g/m*3 19.5 C 0 km/h
2929 06-06-2003 09:53:00 19.8 C 11.61 g/m*3 19.8 C 0 km/h
2930 06-06-2003 10:03:01 20.8 C 11.95 g/m*3 20.8 C 0 km/h
2931 06-06-2003 10:13:01 21.6 C 12.33 g/m*3 21.6 C 0 km/h
2932 06-06-2003 10:23:01 21.5 C 11.69 g/m*3 21.5 C 0 km/h
2933 06-06-2003 10:33:01 21.8 C 12.09 g/m*3 21.8 C 0 km/h
2934 06-06-2003 10:43:01 22.5 C 12.18 g/m*3 22.5 C 0 km/h
2935 06-06-2003 10:53:01 22.7 C 11.92 g/m*3 22.7 C 0 km/h
2936 06-06-2003 11:03:00 23.2 C 12.06 g/m*3 23.2 C 0 km/h
2937 06-06-2003 11:13:00 23.7 C 12.19 g/m*3 23.7 C 0 km/h
2938 06-06-2003 11:23:00 24.1 C 12.25 g/m*3 24.1 C 0 km/h
2939 06-06-2003 11:33:02 24.5 C 11.86 g/m*3 24.5 C 0 km/h
2940 06-06-2003 11:43:02 24.7 C 11.77 g/m*3 24.7 C 0 km/h
2941 06-06-2003 11:53:02 25.3 C 11.71 g/m*3 25.3 C 0 km/h
2942 06-06-2003 12:03:01 25.9 C 11.38 g/m*3 25.9 C 0 km/h
2943 06-06-2003 12:13:01 26 C 10.96 g/m*3 26 C 0 km/h
2944 06-06-2003 12:23:01 26.9 C 10.49 g/m*3 26.9 C 0 km/h
2945 06-06-2003 12:33:01 27.5 C 10.58 g/m*3 27.5 C 0 km/h
2946 06-06-2003 12:43:01 27.8 C 10.49 g/m*3 27.8 C 0 km/h
2947 06-06-2003 12:53:01 28.3 C 11.06 g/m*3 28.3 C 0 km/h
2948 06-06-2003 13:03:01 28.1 C 9.84 g/m*3 28.1 C 0 km/h
2949 06-06-2003 13:13:01 28.9 C 10.57 g/m*3 28.9 C 0 km/h
2950 06-06-2003 13:23:01 30 C 10.31 g/m*3 30 C 0 km/h
Sensor: Nr:Datum:Temp:Abs-Feuchte:Windchill:Wind:
Aussen-T/F 2951 06-06-2003 13:33:00 29.8 C 10.5 g/m*3 29.8 C 0 km/h
2952 06-06-2003 13:43:00 28.7 C 9.89 g/m*3 28.7 C 0 km/h
2953 06-06-2003 13:53:00 28.6 C 10.96 g/m*3 28.6 C 0 km/h
2954 06-06-2003 14:03:01 29.6 C 10.39 g/m*3 29.6 C 0 km/h
2955 06-06-2003 14:13:01 29.8 C 10.8 g/m*3 29.8 C 0 km/h
2956 06-06-2003 14:23:01 30.1 C 11.28 g/m*3 30.1 C 0 km/h
2957 06-06-2003 14:33:01 30.4 C 10.23 g/m*3 30.4 C 0 km/h
2958 06-06-2003 14:43:01 30.7 C 10.08 g/m*3 30.7 C 0 km/h
2959 06-06-2003 14:53:01 30.4 C 10.23 g/m*3 30.4 C 0 km/h
2960 06-06-2003 15:03:01 30.6 C 10.02 g/m*3 30.6 C 0 km/h
2961 06-06-2003 15:13:01 30.3 C 10.48 g/m*3 30.3 C 0 km/h
2962 06-06-2003 15:23:01 30.6 C 10.02 g/m*3 30.6 C 0 km/h
2963 06-06-2003 15:33:02 30.7 C 9.76 g/m*3 30.7 C 0 km/h
2964 06-06-2003 15:43:02 30.8 C 9.81 g/m*3 30.8 C 0 km/h
2965 06-06-2003 15:53:02 31.3 C 10.41 g/m*3 31.3 C 0 km/h
2966 06-06-2003 16:03:02 31.4 C 9.81 g/m*3 31.4 C 0 km/h
2967 06-06-2003 16:13:02 31 C 9.92 g/m*3 31 C 0 km/h
2968 06-06-2003 16:23:02 30.8 C 10.45 g/m*3 30.8 C 0 km/h
2969 06-06-2003 16:33:18 31 C 10.24 g/m*3 31 C 0 km/h
2970 06-06-2003 16:43:18 31.3 C 10.08 g/m*3 31.3 C 0 km/h
2971 06-06-2003 16:53:01 30.7 C 10.08 g/m*3 30.7 C 0 km/h
2972 06-06-2003 17:03:10 30.4 C 11.77 g/m*3 30.4 C 0 km/h
2973 06-06-2003 17:13:01 30 C 12.43 g/m*3 30 C 0 km/h
2974 06-06-2003 17:23:01 29.4 C 12.62 g/m*3 29.4 C 0 km/h
2975 06-06-2003 17:33:02 29.1 C 13 g/m*3 29.1 C 0 km/h
Sensor: Nr:Datum:Temp:Abs-Feuchte:Windchill:Wind:
Aussen-T/F 2976 06-06-2003 17:43:02 29.3 C 13.14 g/m*3 29.3 C 0 km/h
2977 06-06-2003 17:53:02 29.5 C 12.69 g/m*3 29.5 C 0 km/h
2978 06-06-2003 18:03:01 30.3 C 12.64 g/m*3 30.3 C 0 km/h
2979 06-06-2003 18:13:01 30.8 C 12.66 g/m*3 30.8 C 0 km/h
2980 06-06-2003 18:23:01 30.9 C 11.14 g/m*3 30.9 C 0 km/h
2981 06-06-2003 18:33:01 31 C 11.52 g/m*3 31 C 0 km/h
2982 06-06-2003 18:43:01 30.7 C 11.34 g/m*3 30.7 C 0 km/h
2983 06-06-2003 18:53:01 30.5 C 11.22 g/m*3 30.5 C 0 km/h
2984 06-06-2003 19:03:01 30.7 C 11.02 g/m*3 30.7 C 0 km/h
2985 06-06-2003 19:13:01 30.2 C 10.12 g/m*3 30.2 C 0 km/h
2986 06-06-2003 19:23:01 30.4 C 11.47 g/m*3 30.4 C 0 km/h
2987 06-06-2003 19:33:01 30.6 C 10.96 g/m*3 30.6 C 0 km/h
2988 06-06-2003 19:43:01 30.6 C 11.59 g/m*3 30.6 C 0 km/h
2989 06-06-2003 19:53:01 30.4 C 12.08 g/m*3 30.4 C 0 km/h
2990 06-06-2003 20:03:02 30 C 12.43 g/m*3 30 C 0 km/h
2991 06-06-2003 20:13:02 29.6 C 12.46 g/m*3 29.6 C 0 km/h
2992 06-06-2003 20:23:02 28.8 C 12.5 g/m*3 28.8 C 0 km/h
2993 06-06-2003 20:33:02 28 C 12.51 g/m*3 28 C 0 km/h
2994 06-06-2003 20:43:02 27.4 C 12.37 g/m*3 27.4 C 0 km/h
2995 06-06-2003 20:53:02 26.7 C 12.4 g/m*3 26.7 C 0 km/h
2996 06-06-2003 21:03:02 25.5 C 12.31 g/m*3 25.5 C 0 km/h
2997 06-06-2003 21:13:02 25 C 12.43 g/m*3 25 C 0 km/h
2998 06-06-2003 21:23:02 24.3 C 11.73 g/m*3 24.3 C 0 km/h
2999 06-06-2003 21:33:01 24 C 11.75 g/m*3 24 C 0 km/h
3000 06-06-2003 21:43:01 23.6 C 11.91 g/m*3 23.6 C 0 km/h
Sensor: Nr:Datum:Temp:Abs-Feuchte:Windchill:Wind:
Aussen-T/F 3001 06-06-2003 21:53:01 23.3 C 11.71 g/m*3 23.3 C 0 km/h
3002 06-06-2003 22:03:01 23 C 11.72 g/m*3 23 C 0 km/h
3003 06-06-2003 22:13:01 22.9 C 12.06 g/m*3 22.9 C 0 km/h
3004 06-06-2003 22:23:01 22.8 C 11.99 g/m*3 22.8 C 0 km/h
3005 06-06-2003 22:34:01 22.7 C 11.92 g/m*3 22.7 C 0 km/h
3006 06-06-2003 22:44:01 22.4 C 11.92 g/m*3 22.4 C 0 km/h
3007 06-06-2003 22:54:01 22.1 C 11.91 g/m*3 22.1 C 0 km/h
3008 06-06-2003 23:04:01 22 C 12.03 g/m*3 22 C 0 km/h
3009 06-06-2003 23:14:01 22 C 12.03 g/m*3 22 C 0 km/h
3010 06-06-2003 23:24:01 21.8 C 12.09 g/m*3 21.8 C 0 km/h
3011 06-06-2003 23:34:01 21.6 C 12.14 g/m*3 21.6 C 0 km/h
3012 06-06-2003 23:44:01 21.3 C 11.93 g/m*3 21.3 C 0 km/h
3013 06-06-2003 23:54:01 21.2 C 12.05 g/m*3 21.2 C 0 km/h
3014 07-06-2003 00:04:01 21 C 11.91 g/m*3 21 C 0 km/h
3015 07-06-2003 00:14:01 20.9 C 12.02 g/m*3 20.9 C 0 km/h
3016 07-06-2003 00:24:01 20.5 C 11.74 g/m*3 20.5 C 0 km/h
3017 07-06-2003 00:34:01 20.4 C 11.85 g/m*3 20.4 C 0 km/h
3018 07-06-2003 00:44:01 20.3 C 11.96 g/m*3 20.3 C 0 km/h
3019 07-06-2003 00:54:01 20.4 C 12.03 g/m*3 20.4 C 0 km/h
3020 07-06-2003 01:04:01 20.3 C 11.96 g/m*3 20.3 C 0 km/h
3021 07-06-2003 01:14:01 20.2 C 11.89 g/m*3 20.2 C 0 km/h
3022 07-06-2003 01:24:01 19.8 C 12.13 g/m*3 19.8 C 0 km/h
3023 07-06-2003 01:34:01 19.7 C 12.06 g/m*3 19.7 C 0 km/h
3024 07-06-2003 01:44:01 19.7 C 12.23 g/m*3 19.7 C 0 km/h
3025 07-06-2003 01:54:01 19.6 C 12.32 g/m*3 19.6 C 0 km/h
Sensor: Nr:Datum:Temp:Abs-Feuchte:Windchill:Wind:
Aussen-T/F 3026 07-06-2003 02:04:01 19.5 C 12.25 g/m*3 19.5 C 0 km/h
3027 07-06-2003 02:14:01 19.3 C 12.27 g/m*3 19.3 C 0 km/h
3028 07-06-2003 02:24:01 19.1 C 12.13 g/m*3 19.1 C 0 km/h
3029 07-06-2003 02:34:01 18.8 C 12.24 g/m*3 18.8 C 0 km/h
3030 07-06-2003 02:44:01 18.8 C 12.24 g/m*3 18.8 C 0 km/h
3031 07-06-2003 02:54:01 18.7 C 12.17 g/m*3 18.7 C 0 km/h
3032 07-06-2003 03:04:01 18.6 C 12.1 g/m*3 18.6 C 0 km/h
3033 07-06-2003 03:14:01 18.5 C 12.18 g/m*3 18.5 C 0 km/h
3034 07-06-2003 03:24:01 18.4 C 12.11 g/m*3 18.4 C 0 km/h
3035 07-06-2003 03:34:01 18.3 C 12.2 g/m*3 18.3 C 0 km/h
3036 07-06-2003 03:44:01 18.2 C 12.12 g/m*3 18.2 C 0 km/h
3037 07-06-2003 03:54:01 18.1 C 12.05 g/m*3 18.1 C 0 km/h
3038 07-06-2003 04:04:01 17.9 C 12.06 g/m*3 17.9 C 0 km/h
3039 07-06-2003 04:14:01 17.9 C 12.21 g/m*3 17.9 C 0 km/h
3040 07-06-2003 04:24:01 17.6 C 12.15 g/m*3 17.6 C 0 km/h
3041 07-06-2003 04:34:01 17.5 C 12.08 g/m*3 17.5 C 0 km/h
3042 07-06-2003 04:44:01 17.3 C 11.93 g/m*3 17.3 C 0 km/h
3043 07-06-2003 04:54:01 17.5 C 12.08 g/m*3 17.5 C 0 km/h
3044 07-06-2003 05:04:01 17.4 C 12 g/m*3 17.4 C 0 km/h
3045 07-06-2003 05:14:01 17.4 C 12.15 g/m*3 17.4 C 0 km/h
3046 07-06-2003 05:24:01 17.3 C 12.08 g/m*3 17.3 C 0 km/h
3047 07-06-2003 05:34:01 17.3 C 11.93 g/m*3 17.3 C 0 km/h
3048 07-06-2003 05:44:01 17.2 C 11.86 g/m*3 17.2 C 0 km/h
3049 07-06-2003 05:54:01 17.2 C 11.86 g/m*3 17.2 C 0 km/h
3050 07-06-2003 06:04:01 17.3 C 11.93 g/m*3 17.3 C 0 km/h
Sensor: Nr:Datum:Temp:Abs-Feuchte:Windchill:Wind:
Aussen-T/F 3051 07-06-2003 06:14:01 17.2 C 12.01 g/m*3 17.2 C 0 km/h
3052 07-06-2003 06:24:01 17.2 C 12.15 g/m*3 17.2 C 0 km/h
3053 07-06-2003 06:34:01 17.3 C 12.08 g/m*3 17.3 C 0 km/h
3054 07-06-2003 06:44:01 17.2 C 12.01 g/m*3 17.2 C 0 km/h
3055 07-06-2003 06:54:01 17.2 C 12.01 g/m*3 17.2 C 0 km/h
3056 07-06-2003 07:04:01 17.2 C 12.01 g/m*3 17.2 C 0 km/h
3057 07-06-2003 07:14:01 17.5 C 12.23 g/m*3 17.5 C 0 km/h
3058 07-06-2003 07:24:01 17.6 C 12.3 g/m*3 17.6 C 0 km/h
3059 07-06-2003 07:34:01 17.6 C 12.15 g/m*3 17.6 C 0 km/h
3060 07-06-2003 07:44:01 17.9 C 12.37 g/m*3 17.9 C 0 km/h
3061 07-06-2003 07:54:01 18.3 C 12.35 g/m*3 18.3 C 0 km/h
3062 07-06-2003 08:04:01 18.3 C 12.35 g/m*3 18.3 C 0 km/h
3063 07-06-2003 08:14:01 18.5 C 12.34 g/m*3 18.5 C 0 km/h
3064 07-06-2003 08:24:01 18.8 C 12.56 g/m*3 18.8 C 0 km/h
3065 07-06-2003 08:34:01 19.2 C 12.53 g/m*3 19.2 C 0 km/h
3066 07-06-2003 08:44:01 19.5 C 12.59 g/m*3 19.5 C 0 km/h
3067 07-06-2003 08:54:01 20 C 12.62 g/m*3 20 C 0 km/h
3068 07-06-2003 09:04:01 20.5 C 12.81 g/m*3 20.5 C 0 km/h
3069 07-06-2003 09:14:01 21.2 C 12.97 g/m*3 21.2 C 0 km/h
3070 07-06-2003 09:24:01 21.6 C 12.9 g/m*3 21.6 C 0 km/h
3071 07-06-2003 09:34:01 22 C 13 g/m*3 22 C 0 km/h
3072 07-06-2003 09:44:01 22.8 C 13.61 g/m*3 22.8 C 0 km/h
3073 07-06-2003 09:54:01 22.8 C 13.21 g/m*3 22.8 C 0 km/h
3074 07-06-2003 10:04:00 23.5 C 14.17 g/m*3 23.5 C 0 km/h
3075 07-06-2003 10:14:00 23.9 C 14.49 g/m*3 23.9 C 0 km/h
Sensor: Nr:Datum:Temp:Abs-Feuchte:Windchill:Wind:
Aussen-T/F 3076 07-06-2003 10:24:00 24.5 C 14.77 g/m*3 24.5 C 0 km/h
3077 07-06-2003 10:34:01 25.2 C 14.2 g/m*3 25.2 C 0 km/h
3078 07-06-2003 10:44:01 25.8 C 14.69 g/m*3 25.8 C 0 km/h
3079 07-06-2003 10:54:01 26.6 C 14.6 g/m*3 26.6 C 0 km/h
3080 07-06-2003 11:04:00 27 C 14.93 g/m*3 27 C 0 km/h
3081 07-06-2003 11:14:00 27.6 C 15.16 g/m*3 27.6 C 0 km/h
3082 07-06-2003 11:24:00 27.9 C 14.06 g/m*3 27.9 C 0 km/h
3083 07-06-2003 11:34:01 27.9 C 15.15 g/m*3 27.9 C 0 km/h
3084 07-06-2003 11:44:01 28.7 C 14.13 g/m*3 28.7 C 0 km/h
3085 07-06-2003 11:54:01 30 C 13.65 g/m*3 30 C 0 km/h
3086 07-06-2003 12:04:01 30.4 C 12.08 g/m*3 30.4 C 0 km/h
3087 07-06-2003 12:14:01 30.3 C 12.64 g/m*3 30.3 C 0 km/h
3088 07-06-2003 12:24:01 30.4 C 13.32 g/m*3 30.4 C 0 km/h
3089 07-06-2003 12:34:01 30.9 C 12.73 g/m*3 30.9 C 0 km/h
3090 07-06-2003 12:44:01 31.1 C 12.55 g/m*3 31.1 C 0 km/h
3091 07-06-2003 12:54:01 29.7 C 11.93 g/m*3 29.7 C 0 km/h
3092 07-06-2003 13:04:01 30.4 C 11.16 g/m*3 30.4 C 0 km/h
3093 07-06-2003 13:14:01 30.4 C 11.47 g/m*3 30.4 C 0 km/h
3094 07-06-2003 13:24:01 30.1 C 13.72 g/m*3 30.1 C 0 km/h
3095 07-06-2003 13:34:00 29.8 C 12.6 g/m*3 29.8 C 0 km/h
3096 07-06-2003 13:44:00 29 C 12.06 g/m*3 29 C 0 km/h
3097 07-06-2003 13:54:00 28.8 C 14.49 g/m*3 28.8 C 0 km/h
3098 07-06-2003 14:04:01 28.7 C 14.41 g/m*3 28.7 C 0 km/h
3099 07-06-2003 14:14:01 30.4 C 12.7 g/m*3 30.4 C 0 km/h
3100 07-06-2003 14:24:01 31.5 C 11.5 g/m*3 31.5 C 0 km/h
Sensor: Nr:Datum:Temp:Abs-Feuchte:Windchill:Wind:
Aussen-T/F 3101 07-06-2003 14:34:00 31.5 C 11.83 g/m*3 31.5 C 0 km/h
3102 07-06-2003 14:44:00 31.8 C 11.36 g/m*3 31.8 C 0 km/h
3103 07-06-2003 14:54:00 32.1 C 11.2 g/m*3 32.1 C 0 km/h
3104 07-06-2003 15:04:00 31.8 C 11.02 g/m*3 31.8 C 0 km/h
3105 07-06-2003 15:14:00 31 C 11.52 g/m*3 31 C 0 km/h
3106 07-06-2003 15:24:00 31.2 C 11.65 g/m*3 31.2 C 0 km/h
3107 07-06-2003 15:34:01 31.3 C 11.38 g/m*3 31.3 C 0 km/h
3108 07-06-2003 15:44:01 31.8 C 10.69 g/m*3 31.8 C 0 km/h
3109 07-06-2003 15:54:01 31.8 C 11.02 g/m*3 31.8 C 0 km/h
3110 07-06-2003 16:04:02 32.3 C 10.63 g/m*3 32.3 C 0 km/h
3111 07-06-2003 16:14:02 32.3 C 10.29 g/m*3 32.3 C 0 km/h
3112 07-06-2003 16:24:02 32.3 C 10.63 g/m*3 32.3 C 0 km/h
3113 07-06-2003 16:34:01 32.4 C 10 g/m*3 32.4 C 0 km/h
3114 07-06-2003 16:44:01 32.3 C 10.29 g/m*3 32.3 C 0 km/h
3115 07-06-2003 16:54:01 32.5 C 10.05 g/m*3 32.5 C 0 km/h
3116 07-06-2003 17:04:01 32.7 C 10.51 g/m*3 32.7 C 0 km/h
3117 07-06-2003 17:14:01 32.8 C 10.21 g/m*3 32.8 C 0 km/h
3118 07-06-2003 17:24:01 32.9 C 9.91 g/m*3 32.9 C 0 km/h
3119 07-06-2003 17:34:01 33.4 C 9.82 g/m*3 33.4 C 0 km/h
3120 07-06-2003 17:44:01 33.3 C 9.4 g/m*3 33.3 C 0 km/h
3121 07-06-2003 17:54:01 32.7 C 11.21 g/m*3 32.7 C 0 km/h
3122 07-06-2003 18:04:02 32.4 C 10.35 g/m*3 32.4 C 0 km/h
3123 07-06-2003 18:14:02 32.6 C 10.46 g/m*3 32.6 C 0 km/h
3124 07-06-2003 18:24:02 32 C 11.82 g/m*3 32 C 0 km/h
3125 07-06-2003 18:34:01 31.2 C 12.62 g/m*3 31.2 C 0 km/h
Sensor: Nr:Datum:Temp:Abs-Feuchte:Windchill:Wind:
Aussen-T/F 3126 07-06-2003 18:44:01 30.4 C 13.32 g/m*3 30.4 C 0 km/h
3127 07-06-2003 18:54:01 30.7 C 12.91 g/m*3 30.7 C 0 km/h
3128 07-06-2003 19:04:01 31.8 C 11.36 g/m*3 31.8 C 0 km/h
3129 07-06-2003 19:14:01 31.8 C 12.36 g/m*3 31.8 C 0 km/h
3130 07-06-2003 19:24:01 32 C 12.49 g/m*3 32 C 0 km/h
3131 07-06-2003 19:34:01 31.8 C 12.36 g/m*3 31.8 C 0 km/h
3132 07-06-2003 19:44:01 31.4 C 12.42 g/m*3 31.4 C 0 km/h
3133 07-06-2003 19:54:01 31 C 12.8 g/m*3 31 C 0 km/h
3134 07-06-2003 20:04:00 30.7 C 12.91 g/m*3 30.7 C 0 km/h
3135 07-06-2003 20:14:00 30.1 C 13.42 g/m*3 30.1 C 0 km/h
3136 07-06-2003 20:24:00 30 C 13.65 g/m*3 30 C 0 km/h
3137 07-06-2003 20:34:01 29.9 C 13.87 g/m*3 29.9 C 0 km/h
3138 07-06-2003 20:44:01 29 C 14.07 g/m*3 29 C 0 km/h
3139 07-06-2003 20:54:01 28.5 C 14.25 g/m*3 28.5 C 0 km/h
3140 07-06-2003 21:04:01 27.8 C 14.26 g/m*3 27.8 C 0 km/h
3141 07-06-2003 21:14:01 27 C 13.64 g/m*3 27 C 0 km/h
3142 07-06-2003 21:24:01 26.8 C 14 g/m*3 26.8 C 0 km/h
3143 07-06-2003 21:35:58 26.5 C 13.77 g/m*3 26.5 C 0 km/h
3144 07-06-2003 21:45:58 26.3 C 13.62 g/m*3 26.3 C 0 km/h
3145 07-06-2003 21:55:58 25.7 C 13.41 g/m*3 25.7 C 0 km/h
3146 07-06-2003 22:05:58 25.2 C 13.5 g/m*3 25.2 C 0 km/h
3147 07-06-2003 22:15:58 24.9 C 13.28 g/m*3 24.9 C 0 km/h
3148 07-06-2003 22:25:58 24.7 C 13.58 g/m*3 24.7 C 0 km/h
3149 07-06-2003 22:35:58 24.5 C 13.43 g/m*3 24.5 C 0 km/h
3150 07-06-2003 22:45:58 24.5 C 13.65 g/m*3 24.5 C 0 km/h
Sensor: Nr:Datum:Temp:Abs-Feuchte:Windchill:Wind:
Aussen-T/F 3151 07-06-2003 22:55:58 24.5 C 13.2 g/m*3 24.5 C 0 km/h
3152 07-06-2003 23:05:58 24.3 C 13.5 g/m*3 24.3 C 0 km/h
3153 07-06-2003 23:15:58 24.1 C 13.35 g/m*3 24.1 C 0 km/h
3154 07-06-2003 23:25:58 23.9 C 13.63 g/m*3 23.9 C 0 km/h
3155 07-06-2003 23:35:58 23.8 C 13.55 g/m*3 23.8 C 0 km/h
3156 07-06-2003 23:45:58 23.5 C 13.53 g/m*3 23.5 C 0 km/h
3157 07-06-2003 23:55:58 23.3 C 13.38 g/m*3 23.3 C 0 km/h
3158 08-06-2003 00:05:58 23.3 C 13.38 g/m*3 23.3 C 0 km/h
3159 08-06-2003 00:15:58 23.1 C 13.23 g/m*3 23.1 C 0 km/h
3160 08-06-2003 00:25:58 22.9 C 13.28 g/m*3 22.9 C 0 km/h
3161 08-06-2003 00:35:58 22.7 C 13.33 g/m*3 22.7 C 0 km/h
3162 08-06-2003 00:45:58 22.6 C 13.26 g/m*3 22.6 C 0 km/h
3163 08-06-2003 00:54:58 22.7 C 13.33 g/m*3 22.7 C 0 km/h
3164 08-06-2003 01:04:58 22.4 C 13.11 g/m*3 22.4 C 0 km/h
3165 08-06-2003 01:14:58 22.4 C 13.5 g/m*3 22.4 C 0 km/h
3166 08-06-2003 01:24:58 22.3 C 13.62 g/m*3 22.3 C 0 km/h
3167 08-06-2003 01:44:58 22.1 C 13.47 g/m*3 22.1 C 0 km/h
3168 08-06-2003 01:54:58 21.7 C 13.35 g/m*3 21.7 C 0 km/h
3169 08-06-2003 02:04:58 21.6 C 13.28 g/m*3 21.6 C 0 km/h
3170 08-06-2003 02:14:58 21.3 C 13.23 g/m*3 21.3 C 0 km/h
3171 08-06-2003 02:24:58 21.2 C 13.34 g/m*3 21.2 C 0 km/h
3172 08-06-2003 02:34:58 21 C 13.19 g/m*3 21 C 0 km/h
3173 08-06-2003 02:44:58 20.9 C 13.3 g/m*3 20.9 C 0 km/h
3174 08-06-2003 02:54:58 20.6 C 13.24 g/m*3 20.6 C 0 km/h
3175 08-06-2003 03:04:58 20.4 C 13.27 g/m*3 20.4 C 0 km/h
Sensor: Nr:Datum:Temp:Abs-Feuchte:Windchill:Wind:
Aussen-T/F 3176 08-06-2003 03:14:58 20.2 C 13.29 g/m*3 20.2 C 0 km/h
3177 08-06-2003 03:24:58 20.2 C 13.29 g/m*3 20.2 C 0 km/h
3178 08-06-2003 03:34:58 20.2 C 13.29 g/m*3 20.2 C 0 km/h
3179 08-06-2003 03:44:58 20 C 13.13 g/m*3 20 C 0 km/h
3180 08-06-2003 03:54:58 20 C 13.13 g/m*3 20 C 0 km/h
3181 08-06-2003 04:04:58 19.9 C 13.23 g/m*3 19.9 C 0 km/h
3182 08-06-2003 04:14:58 19.8 C 13.32 g/m*3 19.8 C 0 km/h
3183 08-06-2003 04:24:58 19.5 C 13.26 g/m*3 19.5 C 0 km/h
3184 08-06-2003 04:34:58 19.5 C 13.09 g/m*3 19.5 C 0 km/h
3185 08-06-2003 04:44:58 19.4 C 13.18 g/m*3 19.4 C 0 km/h
3186 08-06-2003 04:54:58 19.3 C 13.1 g/m*3 19.3 C 0 km/h
3187 08-06-2003 05:04:58 19.3 C 13.1 g/m*3 19.3 C 0 km/h
3188 08-06-2003 05:14:58 19.1 C 12.95 g/m*3 19.1 C 0 km/h
3189 08-06-2003 05:24:58 19.1 C 12.95 g/m*3 19.1 C 0 km/h
3190 08-06-2003 05:34:58 18.9 C 13.12 g/m*3 18.9 C 0 km/h
3191 08-06-2003 05:44:58 18.9 C 13.12 g/m*3 18.9 C 0 km/h
3192 08-06-2003 05:54:58 18.9 C 13.12 g/m*3 18.9 C 0 km/h
3193 08-06-2003 06:04:58 18.9 C 13.12 g/m*3 18.9 C 0 km/h
3194 08-06-2003 06:14:58 18.8 C 13.05 g/m*3 18.8 C 0 km/h
3195 08-06-2003 06:24:58 18.7 C 13.13 g/m*3 18.7 C 0 km/h
3196 08-06-2003 06:34:58 18.7 C 13.13 g/m*3 18.7 C 0 km/h
3197 08-06-2003 06:44:58 18.9 C 13.12 g/m*3 18.9 C 0 km/h
3198 08-06-2003 06:54:58 19.2 C 13.19 g/m*3 19.2 C 0 km/h
3199 08-06-2003 07:04:58 19.1 C 12.95 g/m*3 19.1 C 0 km/h
3200 08-06-2003 07:14:58 19.1 C 13.11 g/m*3 19.1 C 0 km/h
Sensor: Nr:Datum:Temp:Abs-Feuchte:Windchill:Wind:
Aussen-T/F 3201 08-06-2003 07:24:58 19.1 C 12.95 g/m*3 19.1 C 0 km/h
3202 08-06-2003 07:34:58 19.3 C 13.1 g/m*3 19.3 C 0 km/h
3203 08-06-2003 07:44:58 19.5 C 13.09 g/m*3 19.5 C 0 km/h
3204 08-06-2003 07:54:58 19.7 C 13.25 g/m*3 19.7 C 0 km/h
3205 08-06-2003 08:04:58 19.8 C 13.32 g/m*3 19.8 C 0 km/h
3206 08-06-2003 08:14:58 20.2 C 13.29 g/m*3 20.2 C 0 km/h
3207 08-06-2003 08:24:58 20.5 C 13.52 g/m*3 20.5 C 0 km/h
3208 08-06-2003 08:34:58 20.9 C 13.84 g/m*3 20.9 C 0 km/h
3209 08-06-2003 08:44:58 21.3 C 13.98 g/m*3 21.3 C 0 km/h
3210 08-06-2003 08:54:58 21.6 C 14.03 g/m*3 21.6 C 0 km/h
3211 08-06-2003 09:04:58 22.3 C 14.22 g/m*3 22.3 C 0 km/h
3212 08-06-2003 09:15:01 22.8 C 14.43 g/m*3 22.8 C 0 km/h
3213 08-06-2003 09:25:01 23.4 C 14.51 g/m*3 23.4 C 0 km/h
3214 08-06-2003 09:35:01 24.1 C 14.44 g/m*3 24.1 C 0 km/h
3215 08-06-2003 09:45:01 24.6 C 14.85 g/m*3 24.6 C 0 km/h
3216 08-06-2003 09:55:01 25.2 C 14.67 g/m*3 25.2 C 0 km/h
3217 08-06-2003 10:05:02 25.9 C 15.25 g/m*3 25.9 C 0 km/h
3218 08-06-2003 10:15:02 26.5 C 14.52 g/m*3 26.5 C 0 km/h
3219 08-06-2003 10:25:02 27.3 C 14.39 g/m*3 27.3 C 0 km/h
3220 08-06-2003 10:35:01 27.8 C 15.06 g/m*3 27.8 C 0 km/h
3221 08-06-2003 10:45:01 28.1 C 14.49 g/m*3 28.1 C 0 km/h
3222 08-06-2003 10:55:01 28.1 C 13.95 g/m*3 28.1 C 0 km/h
3223 08-06-2003 11:05:01 28.5 C 14.25 g/m*3 28.5 C 0 km/h
3224 08-06-2003 11:15:01 29 C 14.36 g/m*3 29 C 0 km/h
3225 08-06-2003 11:25:01 29.1 C 14.44 g/m*3 29.1 C 0 km/h
Sensor: Nr:Datum:Temp:Abs-Feuchte:Windchill:Wind:
Aussen-T/F 3226 08-06-2003 11:35:02 29.7 C 14.02 g/m*3 29.7 C 0 km/h
3227 08-06-2003 11:45:02 30.3 C 13.87 g/m*3 30.3 C 0 km/h